Provisional Data: Meshoppen Creek near Kaiserville, PA


Please select a monitoring station.
Please select start date.
Please select start date.

Toggle Unit: C/F Toggle Unit: C/F
Sample Time Temperature (C) Temperature (F) Specific Conductivity (mS/cm) pH   Turbidity (NTU+) DO (mg/L)
10/22/2021 12:00:00 AM 13.39 56.102 0.121 7.34 6.77 10.05
10/22/2021 12:15:00 AM 13.4 56.12 0.121 7.34 7.54 10.05
10/22/2021 12:30:00 AM 13.41 56.138 0.121 7.34 7.02 10.05
10/22/2021 12:45:00 AM 13.42 56.156 0.121 7.34 6.65 10.05
10/22/2021 1:00:00 AM 13.42 56.156 0.121 7.34 6.49 10.05
10/22/2021 1:15:00 AM 13.41 56.138 0.121 7.34 6.74 10.05
10/22/2021 1:30:00 AM 13.4 56.12 0.121 7.34 6.91 10.05
10/22/2021 1:45:00 AM 13.39 56.102 0.121 7.34 6.8 10.06
10/22/2021 2:00:00 AM 13.37 56.066 0.122 7.34 6.73 10.06
10/22/2021 2:15:00 AM 13.34 56.012 0.122 7.33 6.96 10.06
10/22/2021 2:30:00 AM 13.29 55.922 0.122 7.33 6.67 10.07
10/22/2021 2:45:00 AM 13.26 55.868 0.122 7.33 6.94 10.08
10/22/2021 3:00:00 AM 13.21 55.778 0.122 7.32 6.68 10.08
10/22/2021 3:15:00 AM 13.17 55.706 0.122 7.32 7.09 10.1
10/22/2021 3:30:00 AM 13.13 55.634 0.122 7.32 6.65 10.1
10/22/2021 3:45:00 AM 13.09 55.562 0.122 7.32 6.68 10.12
10/22/2021 4:00:00 AM 13.06 55.508 0.123 7.33 6.26 10.13
10/22/2021 4:15:00 AM 13.04 55.472 0.123 7.33 6.66 10.14
10/22/2021 4:30:00 AM 13 55.4 0.123 7.34 6.64 10.15
10/22/2021 4:45:00 AM 12.96 55.328 0.123 7.33 6.7 10.16
10/22/2021 5:00:00 AM 12.91 55.238 0.123 7.33 6.83 10.17
10/22/2021 5:15:00 AM 12.86 55.148 0.123 7.32 7.04 10.19
10/22/2021 5:30:00 AM 12.81 55.058 0.123 7.33 6.9 10.19
10/22/2021 5:45:00 AM 12.76 54.968 0.123 7.32 6.47 10.2
10/22/2021 6:00:00 AM 12.71 54.878 0.123 7.32 6.51 10.22
10/22/2021 6:15:00 AM 12.66 54.788 0.123 7.32 6.71 10.23
10/22/2021 6:30:00 AM 12.62 54.716 0.123 7.32 6.98 10.25
10/22/2021 6:45:00 AM 12.57 54.626 0.123 7.32 7.23 10.26
10/22/2021 7:00:00 AM 12.53 54.554 0.123 7.32 6.76 10.28
10/22/2021 7:15:00 AM 12.5 54.5 0.123 7.32 6.73 10.29
10/22/2021 7:30:00 AM 12.49 54.482 0.123 7.31 7.1 10.3
10/22/2021 7:45:00 AM 12.48 54.464 0.123 7.31 7.06 10.32
10/22/2021 8:00:00 AM 12.48 54.464 0.123 7.32 7.08 10.37
10/22/2021 8:15:00 AM 12.48 54.464 0.123 7.33 7.06 10.4
10/22/2021 8:30:00 AM 12.49 54.482 0.123 7.35 7.01 10.46
10/22/2021 8:45:00 AM 12.5 54.5 0.124 7.38 6.43 10.56
10/22/2021 9:00:00 AM 12.52 54.536 0.123 7.41 6.71 10.67
10/22/2021 9:15:00 AM 12.55 54.59 0.123 7.45 6.37 10.73
10/22/2021 9:30:00 AM 12.59 54.662 0.123 7.49 6.62 10.81
10/22/2021 9:45:00 AM 12.61 54.698 0.122 7.52 6.22 10.83
10/22/2021 10:00:00 AM 12.64 54.752 0.122 7.55 6.26 10.83
10/22/2021 10:15:00 AM 12.66 54.788 0.122 7.58 6.71 10.88
10/22/2021 10:30:00 AM 12.69 54.842 0.122 7.6 6.58 10.92
10/22/2021 10:45:00 AM 12.72 54.896 0.122 7.63 6.48 10.97
10/22/2021 11:00:00 AM 12.73 54.914 0.122 7.64 6.47 10.91
10/22/2021 11:15:00 AM 12.77 54.986 0.122 7.68 6.55 10.99
10/22/2021 11:30:00 AM 12.82 55.076 0.122 7.72 6.58 11.07
10/22/2021 11:45:00 AM 12.86 55.148 0.122 7.77 6.45 11.08
10/22/2021 12:00:00 PM 12.88 55.184 0.121 7.79 6.48 11.04
10/22/2021 12:15:00 PM 12.91 55.238 0.121 7.81 6.4 11.07
10/22/2021 12:30:00 PM 12.95 55.31 0.121 7.85 6.53 11.14
10/22/2021 12:45:00 PM 12.97 55.346 0.122 7.86 6.21 11.07
10/22/2021 1:00:00 PM 12.99 55.382 0.121 7.88 6.27 11.07
10/22/2021 1:15:00 PM 12.98 55.364 0.121 7.86 6.49 11.01
10/22/2021 1:30:00 PM 12.98 55.364 0.121 7.85 6.56 10.97
10/22/2021 1:45:00 PM 12.99 55.382 0.121 7.85 6.56 10.98
10/22/2021 2:00:00 PM 13.01 55.418 0.121 7.87 6.18 11.02
10/22/2021 2:15:00 PM 13.08 55.544 0.121 7.95 6.73 11.14
10/22/2021 2:30:00 PM 13.11 55.598 0.121 8 6.6 11.14
10/22/2021 2:45:00 PM 13.13 55.634 0.121 8.02 6.38 11.1
10/22/2021 3:00:00 PM 13.12 55.616 0.121 8 6.24 11.04
10/22/2021 3:15:00 PM 13.13 55.634 0.121 7.98 5.98 11.04
10/22/2021 3:30:00 PM 13.16 55.688 0.12 8.02 6.18 11.09
10/22/2021 3:45:00 PM 13.19 55.742 0.12 8.06 6.31 11.11
10/22/2021 4:00:00 PM 13.2 55.76 0.12 8.09 5.92 11.11
10/22/2021 4:15:00 PM 13.21 55.778 0.12 8.09 6.44 11.07
10/22/2021 4:30:00 PM 13.2 55.76 0.12 8.07 6.15 11.03
10/22/2021 4:45:00 PM 13.2 55.76 0.12 8.04 6.76 10.98
10/22/2021 5:00:00 PM 13.19 55.742 0.12 7.99 6.49 10.9
10/22/2021 5:15:00 PM 13.17 55.706 0.12 7.92 6.65 10.84
10/22/2021 5:30:00 PM 13.15 55.67 0.121 7.88 6.5 10.81
10/22/2021 5:45:00 PM 13.12 55.616 0.121 7.81 6.29 10.72
10/22/2021 6:00:00 PM 13.08 55.544 0.121 7.74 6.48 10.63
10/22/2021 6:15:00 PM 13.05 55.49 0.121 7.67 6.74 10.54
10/22/2021 6:30:00 PM 13.03 55.454 0.121 7.61 6.57 10.47
10/22/2021 6:45:00 PM 13.01 55.418 0.121 7.57 6.35 10.42
10/22/2021 7:00:00 PM 12.99 55.382 0.121 7.53 6.55 10.38
10/22/2021 7:15:00 PM 12.98 55.364 0.121 7.51 6.87 10.35
10/22/2021 7:30:00 PM 12.96 55.328 0.122 7.48 7.04 10.34
10/22/2021 7:45:00 PM 12.95 55.31 0.122 7.47 6.64 10.32
10/22/2021 8:00:00 PM 12.94 55.292 0.122 7.46 6.44 10.31
10/22/2021 8:15:00 PM 12.92 55.256 0.122 7.44 6.59 10.31
10/22/2021 8:30:00 PM 12.9 55.22 0.122 7.44 6.77 10.3
10/22/2021 8:45:00 PM 12.87 55.166 0.122 7.43 6.64 10.3
10/22/2021 9:00:00 PM 12.85 55.13 0.122 7.43 6.56 10.3
10/22/2021 9:15:00 PM 12.83 55.094 0.122 7.42 6.58 10.3
10/22/2021 9:30:00 PM 12.8 55.04 0.122 7.41 6.5 10.3
10/22/2021 9:45:00 PM 12.76 54.968 0.122 7.41 6.53 10.3
10/22/2021 10:00:00 PM 12.72 54.896 0.122 7.39 6.54 10.31
10/22/2021 10:15:00 PM 12.68 54.824 0.122 7.39 7.26 10.31
10/22/2021 10:30:00 PM 12.64 54.752 0.122 7.39 6.43 10.32
10/22/2021 10:45:00 PM 12.61 54.698 0.122 7.39 7.04 10.33
10/22/2021 11:00:00 PM 12.56 54.608 0.122 7.38 7.7 10.34
10/22/2021 11:15:00 PM 12.5 54.5 0.122 7.38 7.85 10.35
10/22/2021 11:30:00 PM 12.44 54.392 0.122 7.37 6.68 10.36
10/22/2021 11:45:00 PM 12.39 54.302 0.122 7.37 6.53 10.37
10/23/2021 12:00:00 AM 12.32 54.176 0.122 7.36 6.58 10.37
10/23/2021 12:15:00 AM 12.26 54.068 0.122 7.35 6.84 10.39
10/23/2021 12:30:00 AM 12.2 53.96 0.122 7.35 7.19 10.41
10/23/2021 12:45:00 AM 12.14 53.852 0.122 7.34 7.58 10.42
10/23/2021 1:00:00 AM 12.1 53.78 0.122 7.34 6.99 10.43
10/23/2021 1:15:00 AM 12.06 53.708 0.122 7.33 7.53 10.44
10/23/2021 1:30:00 AM 12.02 53.636 0.122 7.33 7.28 10.45
10/23/2021 1:45:00 AM 11.99 53.582 0.122 7.32 6.77 10.47
10/23/2021 2:00:00 AM 11.95 53.51 0.122 7.32 6.99 10.47
10/23/2021 2:15:00 AM 11.92 53.456 0.122 7.32 7.47 10.48
10/23/2021 2:30:00 AM 11.89 53.402 0.122 7.32 7.13 10.49
10/23/2021 2:45:00 AM 11.86 53.348 0.122 7.32 6.89 10.5
10/23/2021 3:00:00 AM 11.82 53.276 0.122 7.32 6.97 10.51
10/23/2021 3:15:00 AM 11.79 53.222 0.123 7.32 6.9 10.51
10/23/2021 3:30:00 AM 11.76 53.168 0.122 7.32 6.98 10.52
10/23/2021 3:45:00 AM 11.73 53.114 0.122 7.32 6.85 10.53
10/23/2021 4:00:00 AM 11.7 53.06 0.122 7.32 6.91 10.53
10/23/2021 4:15:00 AM 11.67 53.006 0.122 7.32 7.16 10.54
10/23/2021 4:30:00 AM 11.64 52.952 0.122 7.32 7.18 10.55
10/23/2021 4:45:00 AM 11.6 52.88 0.122 7.32 7.51 10.56
10/23/2021 5:00:00 AM 11.57 52.826 0.122 7.32 7.59 10.57
10/23/2021 5:15:00 AM 11.54 52.772 0.122 7.32 7.21 10.58
10/23/2021 5:30:00 AM 11.51 52.718 0.123 7.32 6.74 10.59
10/23/2021 5:45:00 AM 11.47 52.646 0.123 7.32 7 10.6
10/23/2021 6:00:00 AM 11.44 52.592 0.123 7.33 6.87 10.61
10/23/2021 6:15:00 AM 11.41 52.538 0.123 7.32 7.25 10.62
10/23/2021 6:30:00 AM 11.39 52.502 0.123 7.33 6.73 10.62
10/23/2021 6:45:00 AM 11.36 52.448 0.123 7.33 7.36 10.63
10/23/2021 7:00:00 AM 11.33 52.394 0.123 7.33 7.33 10.64
10/23/2021 7:15:00 AM 11.31 52.358 0.123 7.33 8.13 10.65
10/23/2021 7:30:00 AM 11.28 52.304 0.123 7.33 6.84 10.66
10/23/2021 7:45:00 AM 11.25 52.25 0.123 7.34 6.99 10.69
10/23/2021 8:00:00 AM 11.23 52.214 0.123 7.34 6.67 10.73
10/23/2021 8:15:00 AM 11.21 52.178 0.123 7.36 7.02 10.79
10/23/2021 8:30:00 AM 11.2 52.16 0.123 7.38 6.74 10.86
10/23/2021 8:45:00 AM 11.21 52.178 0.123 7.42 6.53 11.01
10/23/2021 9:00:00 AM 11.21 52.178 0.123 7.46 6.29 11.07
10/23/2021 9:15:00 AM 11.24 52.232 0.122 7.51 6.15 11.2
10/23/2021 9:30:00 AM 11.25 52.25 0.122 7.55 6.43 11.27
10/23/2021 9:45:00 AM 11.28 52.304 0.122 7.61 6.78 11.36
10/23/2021 10:00:00 AM 11.32 52.376 0.122 7.68 6.57 11.46
10/23/2021 10:15:00 AM 11.33 52.394 0.122 7.72 6.93 11.46
10/23/2021 10:30:00 AM 11.36 52.448 0.122 7.78 6.57 11.53
10/23/2021 10:45:00 AM 11.4 52.52 0.121 7.84 6.94 11.59
10/23/2021 11:00:00 AM 11.43 52.574 0.121 7.89 6.66 11.6
10/23/2021 11:15:00 AM 11.47 52.646 0.121 7.96 6.51 11.65
10/23/2021 11:30:00 AM 11.51 52.718 0.121 8.02 6.68 11.68
10/23/2021 11:45:00 AM 11.56 52.808 0.121 8.09 6.59 11.72
10/23/2021 12:00:00 PM 11.62 52.916 0.121 8.15 6.64 11.74
10/23/2021 12:15:00 PM 11.66 52.988 0.12 8.2 6.33 11.72
10/23/2021 12:30:00 PM 11.67 53.006 0.12 8.21 6.75 11.65
10/23/2021 12:45:00 PM 11.69 53.042 0.12 8.24 6.72 11.69
10/23/2021 1:00:00 PM 11.73 53.114 0.12 8.27 6.9 11.7
10/23/2021 1:15:00 PM 11.81 53.258 0.12 8.33 6.33 11.73
10/23/2021 1:30:00 PM 11.86 53.348 0.12 8.37 6.99 11.73
10/23/2021 1:45:00 PM 11.88 53.384 0.12 8.39 7.04 11.66
10/23/2021 2:00:00 PM 11.89 53.402 0.12 8.39 6.89 11.61
10/23/2021 2:15:00 PM 11.89 53.402 0.119 8.38 6.99 11.57
10/23/2021 2:30:00 PM 11.9 53.42 0.12 8.37 6.36 11.53
10/23/2021 2:45:00 PM 11.91 53.438 0.119 8.36 6.47 11.51
10/23/2021 3:00:00 PM 11.89 53.402 0.119 8.32 6.8 11.41
10/23/2021 3:15:00 PM 11.87 53.366 0.12 8.27 6.42 11.38
10/23/2021 3:30:00 PM 11.85 53.33 0.12 8.21 6.49 11.32
10/23/2021 3:45:00 PM 11.84 53.312 0.12 8.16 6.72 11.27
10/23/2021 4:00:00 PM 11.84 53.312 0.12 8.1 6.47 11.25
10/23/2021 4:15:00 PM 11.82 53.276 0.12 8.05 6.27 11.19
10/23/2021 4:30:00 PM 11.81 53.258 0.12 7.98 6.46 11.14
10/23/2021 4:45:00 PM 11.79 53.222 0.12 7.89 6.38 11.06
10/23/2021 5:00:00 PM 11.77 53.186 0.12 7.82 6.36 10.99
10/23/2021 5:15:00 PM 11.74 53.132 0.121 7.75 6.48 10.92
10/23/2021 5:30:00 PM 11.72 53.096 0.121 7.69 6.24 10.88
10/23/2021 5:45:00 PM 11.69 53.042 0.121 7.65 6.52 10.83
10/23/2021 6:00:00 PM 11.67 53.006 0.121 7.61 6.54 10.79
10/23/2021 6:15:00 PM 11.64 52.952 0.121 7.58 6.7 10.76
10/23/2021 6:30:00 PM 11.61 52.898 0.121 7.54 6.99 10.73
10/23/2021 6:45:00 PM 11.57 52.826 0.121 7.51 6.4 10.71
10/23/2021 7:00:00 PM 11.55 52.79 0.121 7.49 7.12 10.69
10/23/2021 7:15:00 PM 11.52 52.736 0.121 7.47 6.6 10.68
10/23/2021 7:30:00 PM 11.51 52.718 0.122 7.46 6.9 10.68
10/23/2021 7:45:00 PM 11.48 52.664 0.122 7.45 6.74 10.67
10/23/2021 8:00:00 PM 11.46 52.628 0.122 7.43 7.14 10.67
10/23/2021 8:15:00 PM 11.43 52.574 0.122 7.43 6.61 10.67
10/23/2021 8:30:00 PM 11.4 52.52 0.122 7.42 7.01 10.67
10/23/2021 8:45:00 PM 11.35 52.43 0.122 7.41 6.78 10.67
10/23/2021 9:00:00 PM 11.32 52.376 0.122 7.4 6.77 10.68
10/23/2021 9:15:00 PM 11.3 52.34 0.121 7.4 6.44 10.69
10/23/2021 9:30:00 PM 11.28 52.304 0.122 7.39 6.42 10.69
10/23/2021 9:45:00 PM 11.26 52.268 0.122 7.38 6.82 10.7
10/23/2021 10:00:00 PM 11.23 52.214 0.122 7.38 6.16 10.7
10/23/2021 10:15:00 PM 11.21 52.178 0.122 7.37 6.46 10.71
10/23/2021 10:30:00 PM 11.19 52.142 0.122 7.37 6.51 10.72
10/23/2021 10:45:00 PM 11.18 52.124 0.122 7.37 6.83 10.72
10/23/2021 11:00:00 PM 11.16 52.088 0.122 7.36 6.7 10.72
10/23/2021 11:15:00 PM 11.14 52.052 0.122 7.36 6.45 10.73
10/23/2021 11:30:00 PM 11.12 52.016 0.122 7.36 6.51 10.73
10/23/2021 11:45:00 PM 11.11 51.998 0.122 7.36 6.67 10.74
10/24/2021 12:00:00 AM 11.08 51.944 0.122 7.36 6.89 10.74
10/24/2021 12:15:00 AM 11.06 51.908 0.122 7.35 6.49 10.75
10/24/2021 12:30:00 AM 11.04 51.872 0.122 7.35 6.76 10.75
10/24/2021 12:45:00 AM 11.03 51.854 0.122 7.35 6.7 10.76
10/24/2021 1:00:00 AM 11.02 51.836 0.122 7.35 6.92 10.76
10/24/2021 1:15:00 AM 11 51.8 0.122 7.35 6.61 10.77
10/24/2021 1:30:00 AM 10.99 51.782 0.122 7.35 6.8 10.77
10/24/2021 1:45:00 AM 10.98 51.764 0.122 7.35 6.74 10.78
10/24/2021 2:00:00 AM 10.97 51.746 0.122 7.35 6.8 10.78
10/24/2021 2:15:00 AM 10.95 51.71 0.122 7.35 6.59 10.79
10/24/2021 2:30:00 AM 10.94 51.692 0.122 7.35 7.2 10.79
10/24/2021 2:45:00 AM 10.92 51.656 0.122 7.35 6.82 10.79
10/24/2021 3:00:00 AM 10.91 51.638 0.122 7.34 6.52 10.8
10/24/2021 3:15:00 AM 10.9 51.62 0.123 7.35 6.56 10.8
10/24/2021 3:30:00 AM 10.89 51.602 0.123 7.35 6.49 10.81
10/24/2021 3:45:00 AM 10.87 51.566 0.123 7.34 6.66 10.8
10/24/2021 4:00:00 AM 10.85 51.53 0.123 7.35 6.48 10.81
10/24/2021 4:15:00 AM 10.83 51.494 0.123 7.34 6.76 10.82
10/24/2021 4:30:00 AM 10.82 51.476 0.123 7.34 6.55 10.82
10/24/2021 4:45:00 AM 10.79 51.422 0.123 7.34 6.81 10.83
10/24/2021 5:00:00 AM 10.77 51.386 0.123 7.35 6.47 10.84
10/24/2021 5:15:00 AM 10.75 51.35 0.123 7.35 7.03 10.85
10/24/2021 5:30:00 AM 10.74 51.332 0.123 7.35 6.39 10.85
10/24/2021 5:45:00 AM 10.73 51.314 0.123 7.35 6.61 10.85
10/24/2021 6:00:00 AM 10.72 51.296 0.123 7.34 6.81 10.86
10/24/2021 6:15:00 AM 10.7 51.26 0.123 7.35 6.61 10.87
10/24/2021 6:30:00 AM 10.68 51.224 0.123 7.35 6.84 10.87
10/24/2021 6:45:00 AM 10.65 51.17 0.123 7.35 6.77 10.88
10/24/2021 7:00:00 AM 10.62 51.116 0.124 7.35 6.8 10.89
10/24/2021 7:15:00 AM 10.59 51.062 0.124 7.35 6.74 10.89
10/24/2021 7:30:00 AM 10.57 51.026 0.124 7.36 6.51 10.91
10/24/2021 7:45:00 AM 10.55 50.99 0.124 7.36 6.51 10.94
10/24/2021 8:00:00 AM 10.53 50.954 0.124 7.36 6.2 10.97
10/24/2021 8:15:00 AM 10.51 50.918 0.124 7.37 5.99 11.02
10/24/2021 8:30:00 AM 10.49 50.882 0.124 7.39 6.7 11.09
10/24/2021 8:45:00 AM 10.49 50.882 0.123 7.42 6.05 11.19
10/24/2021 9:00:00 AM 10.49 50.882 0.123 7.45 6.15 11.3
10/24/2021 9:15:00 AM 10.5 50.9 0.123 7.49 6.57 11.41
10/24/2021 9:30:00 AM 10.53 50.954 0.123 7.55 6.14 11.53
10/24/2021 9:45:00 AM 10.55 50.99 0.123 7.61 6.12 11.62
10/24/2021 10:00:00 AM 10.59 51.062 0.123 7.66 6.02 11.69
10/24/2021 10:15:00 AM 10.62 51.116 0.123 7.71 6.36 11.72
10/24/2021 10:30:00 AM 10.64 51.152 0.122 7.75 6.56 11.76
10/24/2021 10:45:00 AM 10.67 51.206 0.122 7.8 6.17 11.78
10/24/2021 11:00:00 AM 10.71 51.278 0.122 7.86 6.21 11.83
10/24/2021 11:15:00 AM 10.74 51.332 0.122 7.9 6.32 11.85
10/24/2021 11:30:00 AM 10.79 51.422 0.122 7.97 6.43 11.9
10/24/2021 11:45:00 AM 10.86 51.548 0.122 8.03 6.59 11.95
10/24/2021 12:00:00 PM 10.93 51.674 0.122 8.09 6.26 11.93
10/24/2021 12:15:00 PM 10.96 51.728 0.122 8.12 6.37 11.92
10/24/2021 12:30:00 PM 10.97 51.746 0.121 8.15 6.43 11.92
10/24/2021 12:45:00 PM 11 51.8 0.122 8.16 5.79 11.88
10/24/2021 1:00:00 PM 11.03 51.854 0.121 8.19 6.18 11.86
10/24/2021 1:15:00 PM 11.1 51.98 0.121 8.25 6.18 11.93
10/24/2021 1:30:00 PM 11.12 52.016 0.121 8.25 6.02 11.84
10/24/2021 1:45:00 PM 11.16 52.088 0.121 8.26 6.03 11.81
10/24/2021 2:00:00 PM 11.18 52.124 0.122 8.28 6.32 11.82
10/24/2021 2:15:00 PM 11.22 52.196 0.121 8.3 6.28 11.82
10/24/2021 2:30:00 PM 11.25 52.25 0.121 8.3 5.85 11.75
10/24/2021 2:45:00 PM 11.27 52.286 0.121 8.29 6.24 11.68
10/24/2021 3:00:00 PM 11.27 52.286 0.121 8.24 5.81 11.6
10/24/2021 3:15:00 PM 11.27 52.286 0.121 8.18 6.65 11.53
10/24/2021 3:30:00 PM 11.27 52.286 0.121 8.12 6.56 11.48
10/24/2021 3:45:00 PM 11.26 52.268 0.121 8.04 6.35 11.4
10/24/2021 4:00:00 PM 11.26 52.268 0.121 7.97 6.36 11.36
10/24/2021 4:15:00 PM 11.25 52.25 0.121 7.9 6.23 11.3
10/24/2021 4:30:00 PM 11.25 52.25 0.121 7.85 6.44 11.26
10/24/2021 4:45:00 PM 11.24 52.232 0.122 7.79 6.38 11.19
10/24/2021 5:00:00 PM 11.24 52.232 0.122 7.75 6.66 11.19
10/24/2021 5:15:00 PM 11.23 52.214 0.122 7.71 6.06 11.12
10/24/2021 5:30:00 PM 11.22 52.196 0.122 7.67 6.57 11.07
10/24/2021 5:45:00 PM 11.21 52.178 0.122 7.63 6.32 11
10/24/2021 6:00:00 PM 11.2 52.16 0.122 7.59 6.75 10.95
10/24/2021 6:15:00 PM 11.19 52.142 0.123 7.55 6.25 10.91
10/24/2021 6:30:00 PM 11.18 52.124 0.123 7.52 6.36 10.88
10/24/2021 6:45:00 PM 11.17 52.106 0.123 7.5 6.44 10.85
10/24/2021 7:00:00 PM 11.16 52.088 0.123 7.48 6.46 10.83
10/24/2021 7:15:00 PM 11.15 52.07 0.123 7.47 6.16 10.82
10/24/2021 7:30:00 PM 11.14 52.052 0.123 7.46 6.6 10.81
10/24/2021 7:45:00 PM 11.13 52.034 0.123 7.45 6.42 10.8
10/24/2021 8:00:00 PM 11.12 52.016 0.123 7.44 6.47 10.8
10/24/2021 8:15:00 PM 11.11 51.998 0.123 7.43 6.92 10.79
10/24/2021 8:30:00 PM 11.1 51.98 0.122 7.42 6.57 10.79
10/24/2021 8:45:00 PM 11.09 51.962 0.122 7.42 6.53 10.79
10/24/2021 9:00:00 PM 11.08 51.944 0.122 7.41 6.66 10.79
10/24/2021 9:15:00 PM 11.08 51.944 0.122 7.41 6.86 10.79
10/24/2021 9:30:00 PM 11.07 51.926 0.122 7.4 6.39 10.79
10/24/2021 9:45:00 PM 11.06 51.908 0.122 7.4 6.66 10.78
10/24/2021 10:00:00 PM 11.06 51.908 0.122 7.39 6.79 10.78
10/24/2021 10:15:00 PM 11.05 51.89 0.122 7.39 6.54 10.78
10/24/2021 10:30:00 PM 11.04 51.872 0.121 7.38 6.18 10.78
10/24/2021 10:45:00 PM 11.04 51.872 0.121 7.38 6.77 10.77
10/24/2021 11:00:00 PM 11.04 51.872 0.122 7.37 6.13 10.77
10/24/2021 11:15:00 PM 11.04 51.872 0.121 7.37 6.87 10.76
10/24/2021 11:30:00 PM 11.04 51.872 0.122 7.37 6.87 10.77
10/24/2021 11:45:00 PM 11.04 51.872 0.122 7.37 6.94 10.76
10/25/2021 12:00:00 AM 11.05 51.89 0.122 7.37 6.41 10.76
10/25/2021 12:15:00 AM 11.05 51.89 0.122 7.37 6.74 10.75
10/25/2021 12:30:00 AM 11.05 51.89 0.122 7.36 7.32 10.75
10/25/2021 12:45:00 AM 11.06 51.908 0.122 7.36 6.74 10.74
10/25/2021 1:00:00 AM 11.06 51.908 0.122 7.36 6.39 10.74
10/25/2021 1:15:00 AM 11.07 51.926 0.123 7.36 6.66 10.74
10/25/2021 1:30:00 AM 11.08 51.944 0.122 7.36 6.4 10.73
10/25/2021 1:45:00 AM 11.08 51.944 0.122 7.36 6.41 10.74
10/25/2021 2:00:00 AM 11.09 51.962 0.122 7.36 6.6 10.73
10/25/2021 2:15:00 AM 11.09 51.962 0.123 7.36 6.47 10.73
10/25/2021 2:30:00 AM 11.1 51.98 0.123 7.37 6.52 10.73
10/25/2021 2:45:00 AM 11.11 51.998 0.123 7.36 6.86 10.73
10/25/2021 3:00:00 AM 11.11 51.998 0.123 7.36 6.54 10.72
10/25/2021 3:15:00 AM 11.12 52.016 0.123 7.36 6.4 10.71
10/25/2021 3:30:00 AM 11.13 52.034 0.123 7.36 6.78 10.71
10/25/2021 3:45:00 AM 11.14 52.052 0.124 7.36 6.69 10.71
10/25/2021 4:00:00 AM 11.14 52.052 0.124 7.36 6.97 10.7
10/25/2021 4:15:00 AM 11.14 52.052 0.124 7.36 6.45 10.7
10/25/2021 4:30:00 AM 11.13 52.034 0.124 7.36 6.38 10.69
10/25/2021 4:45:00 AM 11.12 52.016 0.124 7.36 6.57 10.7
10/25/2021 5:00:00 AM 11.11 51.998 0.124 7.36 6.57 10.7
10/25/2021 5:15:00 AM 11.09 51.962 0.124 7.36 6.63 10.7
10/25/2021 5:30:00 AM 11.08 51.944 0.124 7.36 6.47 10.7
10/25/2021 5:45:00 AM 11.08 51.944 0.124 7.36 6.67 10.7
10/25/2021 6:00:00 AM 11.09 51.962 0.124 7.37 6.58 10.7
10/25/2021 6:15:00 AM 11.08 51.944 0.124 7.37 6.81 10.7
10/25/2021 6:30:00 AM 11.07 51.926 0.124 7.37 6.59 10.7
10/25/2021 6:45:00 AM 11.05 51.89 0.125 7.36 6.81 10.7
10/25/2021 7:00:00 AM 11.04 51.872 0.125 7.36 6.73 10.71
10/25/2021 7:15:00 AM 11.02 51.836 0.125 7.36 6.4 10.71
10/25/2021 7:30:00 AM 11 51.8 0.125 7.36 6.95 10.72
10/25/2021 7:45:00 AM 10.98 51.764 0.125 7.36 7.12 10.74
10/25/2021 8:00:00 AM 10.96 51.728 0.125 7.36 6.84 10.78
10/25/2021 8:15:00 AM 10.95 51.71 0.125 7.37 6.68 10.82
10/25/2021 8:30:00 AM 10.94 51.692 0.125 7.38 6.68 10.88
10/25/2021 8:45:00 AM 10.93 51.674 0.125 7.4 6.51 10.93
10/25/2021 9:00:00 AM 10.94 51.692 0.125 7.42 6.81 10.99
10/25/2021 9:15:00 AM 10.98 51.764 0.125 7.46 6.59 11.08
10/25/2021 9:30:00 AM 11.03 51.854 0.125 7.49 7 11.14
10/25/2021 9:45:00 AM 11.1 51.98 0.124 7.54 7.03 11.23
10/25/2021 10:00:00 AM 11.19 52.142 0.124 7.59 8.67 11.31
10/25/2021 10:15:00 AM 11.3 52.34 0.124 7.65 6.9 11.38
10/25/2021 10:30:00 AM 11.39 52.502 0.124 7.7 6.93 11.43
10/25/2021 10:45:00 AM 11.49 52.682 0.124 7.75 6.39 11.46
10/25/2021 11:00:00 AM 11.59 52.862 0.124 7.8 6.84 11.49
10/25/2021 11:15:00 AM 11.7 53.06 0.123 7.85 6.55 11.5
10/25/2021 11:30:00 AM 11.77 53.186 0.123 7.89 6.58 11.5
10/25/2021 11:45:00 AM 11.9 53.42 0.123 7.92 7 11.5
10/25/2021 12:00:00 PM 12.01 53.618 0.123 7.97 6.64 11.5
10/25/2021 12:15:00 PM 12.1 53.78 0.122 8.02 6.43 11.51
10/25/2021 12:30:00 PM 12.17 53.906 0.123 8.07 6.92 11.52
10/25/2021 12:45:00 PM 12.25 54.05 0.122 8.13 6.69 11.53
10/25/2021 1:00:00 PM 12.37 54.266 0.122 8.17 7.13 11.49
10/25/2021 1:15:00 PM 12.52 54.536 0.122 8.2 6.27 11.46
10/25/2021 1:30:00 PM 12.67 54.806 0.122 8.24 6.66 11.43
10/25/2021 1:45:00 PM 12.83 55.094 0.122 8.28 7.13 11.4
10/25/2021 2:00:00 PM 12.99 55.382 0.122 8.32 6.77 11.36
10/25/2021 2:15:00 PM 13.15 55.67 0.122 8.36 6.72 11.31
10/25/2021 2:30:00 PM 13.29 55.922 0.122 8.38 7.12 11.25
10/25/2021 2:45:00 PM 13.37 56.066 0.122 8.37 6.41 11.19
10/25/2021 3:00:00 PM 13.4 56.12 0.122 8.36 6.47 11.14
10/25/2021 3:15:00 PM 13.4 56.12 0.122 8.34 6.64 11.08
10/25/2021 3:30:00 PM 13.36 56.048 0.122 8.31 7.06 11.05
10/25/2021 3:45:00 PM 13.33 55.994 0.122 8.29 7.02 11.06
10/25/2021 4:00:00 PM 13.29 55.922 0.123 8.24 6.68 10.99
10/25/2021 4:15:00 PM 13.25 55.85 0.123 8.19 6.93 10.94
10/25/2021 4:30:00 PM 13.22 55.796 0.123 8.14 6.4 10.92
10/25/2021 4:45:00 PM 13.19 55.742 0.123 8.07 6.92 10.84
10/25/2021 5:00:00 PM 13.16 55.688 0.123 7.99 7.23 10.79
10/25/2021 5:15:00 PM 13.12 55.616 0.123 7.91 6.87 10.71
10/25/2021 5:30:00 PM 13.1 55.58 0.123 7.84 6.97 10.64
10/25/2021 5:45:00 PM 13.09 55.562 0.123 7.77 7.41 10.56
10/25/2021 6:00:00 PM 13.1 55.58 0.123 7.72 7.15 10.48
10/25/2021 6:15:00 PM 13.13 55.634 0.123 7.67 7.22 10.41
10/25/2021 6:30:00 PM 13.17 55.706 0.123 7.63 7.42 10.35
10/25/2021 6:45:00 PM 13.2 55.76 0.123 7.6 7.3 10.3
10/25/2021 7:00:00 PM 13.24 55.832 0.122 7.57 7.76 10.26
10/25/2021 7:15:00 PM 13.28 55.904 0.128 7.54 7.55 10.23
10/25/2021 7:30:00 PM 13.32 55.976 0.123 7.52 7.33 10.19
10/25/2021 7:45:00 PM 13.35 56.03 0.122 7.5 7.57 10.17
10/25/2021 8:00:00 PM 13.38 56.084 0.122 7.48 7.78 10.15
10/25/2021 8:15:00 PM 13.4 56.12 0.122 7.47 8.13 10.14
10/25/2021 8:30:00 PM 13.41 56.138 0.122 7.45 8.59 10.12
10/25/2021 8:45:00 PM 13.42 56.156 0.128 7.44 8.31 10.11
10/25/2021 9:00:00 PM 13.42 56.156 0.122 7.43 7.86 10.1
10/25/2021 9:15:00 PM 13.43 56.174 0.122 7.42 7.73 10.1
10/25/2021 9:30:00 PM 13.43 56.174 0.122 7.41 7.9 10.09
10/25/2021 9:45:00 PM 13.43 56.174 0.122 7.4 8.02 10.09
10/25/2021 10:00:00 PM 13.42 56.156 0.122 7.39 8.02 10.09
10/25/2021 10:15:00 PM 13.4 56.12 0.122 7.38 8.28 10.09
10/25/2021 10:30:00 PM 13.38 56.084 0.122 7.37 7.79 10.09
10/25/2021 10:45:00 PM 13.36 56.048 0.122 7.37 7.93 10.09
10/25/2021 11:00:00 PM 13.33 55.994 0.122 7.36 8.05 10.09
10/25/2021 11:15:00 PM 13.3 55.94 0.122 7.35 7.61 10.1
10/25/2021 11:30:00 PM 13.28 55.904 0.122 7.35 8.09 10.1
10/25/2021 11:45:00 PM 13.27 55.886 0.122 7.37 7.97 10.11
10/26/2021 12:00:00 AM 13.25 55.85 0.122 7.38 8.3 10.12
10/26/2021 12:15:00 AM 13.23 55.814 0.122 7.38 7.85 10.12
10/26/2021 12:30:00 AM 13.21 55.778 0.122 7.38 7.82 10.12
10/26/2021 12:45:00 AM 13.19 55.742 0.122 7.38 7.43 10.12
10/26/2021 1:00:00 AM 13.17 55.706 0.122 7.38 7.53 10.11
10/26/2021 1:15:00 AM 13.15 55.67 0.122 7.38 7.91 10.11
10/26/2021 1:30:00 AM 13.13 55.634 0.122 7.38 7.87 10.12
10/26/2021 1:45:00 AM 13.11 55.598 0.122 7.37 7.72 10.12
10/26/2021 2:00:00 AM 13.1 55.58 0.122 7.37 8.02 10.12
10/26/2021 2:15:00 AM 13.08 55.544 0.123 7.37 7.45 10.12
10/26/2021 2:30:00 AM 13.05 55.49 0.123 7.37 8.17 10.12
10/26/2021 2:45:00 AM 13.03 55.454 0.123 7.36 8.31 10.12
10/26/2021 3:00:00 AM 13 55.4 0.123 7.36 8.22 10.12
10/26/2021 3:15:00 AM 12.98 55.364 0.123 7.36 8.44 10.13
10/26/2021 3:30:00 AM 12.95 55.31 0.123 7.35 8.35 10.13
10/26/2021 3:45:00 AM 12.93 55.274 0.123 7.35 8.28 10.14
10/26/2021 4:00:00 AM 12.91 55.238 0.123 7.34 8.18 10.14
10/26/2021 4:15:00 AM 12.89 55.202 0.123 7.34 8.17 10.14
10/26/2021 4:30:00 AM 12.87 55.166 0.123 7.34 8.49 10.15
10/26/2021 4:45:00 AM 12.85 55.13 0.123 7.34 8.27 10.15
10/26/2021 5:00:00 AM 12.83 55.094 0.123 7.33 8.09 10.15
10/26/2021 5:15:00 AM 12.81 55.058 0.123 7.33 8.33 10.15
10/26/2021 5:30:00 AM 12.79 55.022 0.123 7.33 8.09 10.15
10/26/2021 5:45:00 AM 12.77 54.986 0.123 7.32 7.98 10.16
10/26/2021 6:00:00 AM 12.75 54.95 0.123 7.32 8.18 10.16
10/26/2021 6:15:00 AM 12.74 54.932 0.123 7.32 8.03 10.17
10/26/2021 6:30:00 AM 12.72 54.896 0.123 7.32 8.2 10.18
10/26/2021 6:45:00 AM 12.71 54.878 0.122 7.32 7.76 10.17
10/26/2021 7:00:00 AM 12.7 54.86 0.122 7.32 7.97 10.18
10/26/2021 7:15:00 AM 12.69 54.842 0.122 7.32 8.06 10.18
10/26/2021 7:30:00 AM 12.68 54.824 0.122 7.32 8.16 10.18
10/26/2021 7:45:00 AM 12.67 54.806 0.122 7.33 8.14 10.19
10/26/2021 8:00:00 AM 12.66 54.788 0.122 7.33 8.15 10.2
10/26/2021 8:15:00 AM 12.65 54.77 0.122 7.34 8.01 10.21
10/26/2021 8:30:00 AM 12.65 54.77 0.122 7.35 8.75 10.23
10/26/2021 8:45:00 AM 12.65 54.77 0.123 7.35 8.23 10.26
10/26/2021 9:00:00 AM 12.65 54.77 0.123 7.36 8.25 10.28
10/26/2021 9:15:00 AM 12.65 54.77 0.123 7.37 7.65 10.31
10/26/2021 9:30:00 AM 12.66 54.788 0.123 7.38 8.06 10.33
10/26/2021 9:45:00 AM 12.67 54.806 0.122 7.39 8.02 10.36
10/26/2021 10:00:00 AM 12.67 54.806 0.122 7.4 8.01 10.38
10/26/2021 10:15:00 AM 12.68 54.824 0.122 7.41 8.34 10.38
10/26/2021 10:30:00 AM 12.69 54.842 0.122 7.42 7.59 10.39
10/26/2021 10:45:00 AM 12.7 54.86 0.121 7.42 8.23 10.38
10/26/2021 11:00:00 AM 12.72 54.896 0.121 7.43 8.22 10.39
10/26/2021 11:15:00 AM 12.73 54.914 0.121 7.43 7.97 10.41
10/26/2021 11:30:00 AM 12.75 54.95 0.121 7.43 8.47 10.39
10/26/2021 11:45:00 AM 12.76 54.968 0.121 7.42 8.47 10.36
10/26/2021 12:00:00 PM 12.78 55.004 0.121 7.42 9 10.37
10/26/2021 12:15:00 PM 12.8 55.04 0.121 7.42 9.77 10.38
10/26/2021 12:30:00 PM 12.82 55.076 0.12 7.42 10.11 10.4
10/26/2021 12:45:00 PM 12.83 55.094 0.119 7.42 11.07 10.4
10/26/2021 1:00:00 PM 12.83 55.094 0.119 7.42 8.27 10.39
10/26/2021 1:15:00 PM 12.83 55.094 0.119 7.41 9.31 10.37
10/26/2021 1:30:00 PM 12.83 55.094 0.118 7.41 9.28 10.36
10/26/2021 1:45:00 PM 12.82 55.076 0.118 7.39 12.86 10.33
10/26/2021 2:00:00 PM 12.82 55.076 0.118 7.38 16.35 10.31
10/26/2021 2:15:00 PM 12.81 55.058 0.117 7.36 20.74 10.28
10/26/2021 2:30:00 PM 12.81 55.058 0.116 7.32 26.16 10.25
10/26/2021 2:45:00 PM 12.82 55.076 0.115 7.27 31.68 10.23
10/26/2021 3:00:00 PM 12.83 55.094 0.113 7.25 39.56 10.21
10/26/2021 3:15:00 PM 12.86 55.148 0.111 7.23 46.09 10.21
10/26/2021 3:30:00 PM 12.87 55.166 0.109 7.22 60.73 10.19
10/26/2021 3:45:00 PM 12.89 55.202 0.107 7.19 80.21 10.18
10/26/2021 4:00:00 PM 12.89 55.202 0.104 7.16 92.51 10.18
10/26/2021 4:15:00 PM 12.89 55.202 0.102 7.15 101.7 10.18
10/26/2021 4:30:00 PM 12.88 55.184 0.1 7.15 104.57 10.18
10/26/2021 4:45:00 PM 12.87 55.166 0.099 7.14 88.05 10.19
10/26/2021 5:00:00 PM 12.85 55.13 0.099 7.12 91.28 10.2
10/26/2021 5:15:00 PM 12.82 55.076 0.099 7.11 89.12 10.21
10/26/2021 5:30:00 PM 12.8 55.04 0.1 7.09 84 10.21
10/26/2021 5:45:00 PM 12.77 54.986 0.101 7.06 93.24 10.21
10/26/2021 6:00:00 PM 12.75 54.95 0.101 7.04 84.64 10.21
10/26/2021 6:15:00 PM 12.72 54.896 0.102 7.08 84.61 10.22
10/26/2021 6:30:00 PM 12.7 54.86 0.101 7.01 85.02 10.22
10/26/2021 6:45:00 PM 12.68 54.824 0.101 7.03 87.46 10.23
10/26/2021 7:00:00 PM 12.66 54.788 0.1 6.99 88.27 10.24
10/26/2021 7:15:00 PM 12.64 54.752 0.1 6.98 86.01 10.24
10/26/2021 7:30:00 PM 12.63 54.734 0.099 7 85.41 10.24
10/26/2021 7:45:00 PM 12.62 54.716 0.099 6.97 86.37 10.25
10/26/2021 8:00:00 PM 12.61 54.698 0.099 6.96 84.78 10.25
10/26/2021 8:15:00 PM 12.59 54.662 0.099 6.98 83.9 10.26
10/26/2021 8:30:00 PM 12.59 54.662 0.098 6.96 85.64 10.26
10/26/2021 8:45:00 PM 12.58 54.644 0.098 6.96 83.75 10.27
10/26/2021 9:00:00 PM 12.57 54.626 0.097 6.95 85.23 10.27
10/26/2021 9:15:00 PM 12.57 54.626 0.096 6.96 81.1 10.28
10/26/2021 9:30:00 PM 12.56 54.608 0.096 6.95 77.08 10.29
10/26/2021 9:45:00 PM 12.55 54.59 0.095 6.97 76.55 10.29
10/26/2021 10:00:00 PM 12.55 54.59 0.095 6.95 79.63 10.3
10/26/2021 10:15:00 PM 12.54 54.572 0.094 6.95 72.69 10.3
10/26/2021 10:30:00 PM 12.53 54.554 0.094 6.97 66.94 10.31
10/26/2021 10:45:00 PM 12.53 54.554 0.094 6.95 63.11 10.31
10/26/2021 11:00:00 PM 12.53 54.554 0.094 6.95 62.48 10.32
10/26/2021 11:15:00 PM 12.53 54.554 0.093 6.99 63.09 10.32
10/26/2021 11:30:00 PM 12.54 54.572 0.093 7.02 59.74 10.33
10/26/2021 11:45:00 PM 12.54 54.572 0.092 6.98 58.41 10.33
10/27/2021 12:00:00 AM 12.54 54.572 0.091 6.97 66.22 10.34
10/27/2021 12:15:00 AM 12.55 54.59 0.091 6.99 58.24 10.34
10/27/2021 12:30:00 AM 12.55 54.59 0.09 6.97 56.58 10.34
10/27/2021 12:45:00 AM 12.56 54.608 0.09 6.95 54.39 10.35
10/27/2021 1:00:00 AM 12.56 54.608 0.089 6.94 56.09 10.35
10/27/2021 1:15:00 AM 12.56 54.608 0.089 7.01 54.51 10.35
10/27/2021 1:30:00 AM 12.56 54.608 0.088 6.95 53.7 10.35
10/27/2021 1:45:00 AM 12.55 54.59 0.088 6.97 54.45 10.36
10/27/2021 2:00:00 AM 12.55 54.59 0.088 6.98 52.07 10.36
10/27/2021 2:15:00 AM 12.54 54.572 0.088 6.97 54.61 10.36
10/27/2021 2:30:00 AM 12.53 54.554 0.088 6.95 56.07 10.35
10/27/2021 2:45:00 AM 12.52 54.536 0.087 6.97 57.7 10.35
10/27/2021 3:00:00 AM 12.52 54.536 0.087 6.95 57.58 10.35
10/27/2021 3:15:00 AM 12.51 54.518 0.086 6.91 59.25 10.34
10/27/2021 3:30:00 AM 12.5 54.5 0.086 6.91 61.64 10.34
10/27/2021 3:45:00 AM 12.49 54.482 0.084 6.95 62.11 10.33
10/27/2021 4:00:00 AM 12.49 54.482 0.084 6.9 67.48 10.33
10/27/2021 4:15:00 AM 12.48 54.464 0.083 6.87 71.23 10.33
10/27/2021 4:30:00 AM 12.47 54.446 0.082 6.88 71.83 10.33
10/27/2021 4:45:00 AM 12.47 54.446 0.081 6.87 76.61 10.33
10/27/2021 5:00:00 AM 12.46 54.428 0.08 6.86 83 10.33
10/27/2021 5:15:00 AM 12.45 54.41 0.079 6.86 88.11 10.33
10/27/2021 5:30:00 AM 12.45 54.41 0.079 6.84 88.58 10.32
10/27/2021 5:45:00 AM 12.44 54.392 0.078 6.82 92.42 10.31
10/27/2021 6:00:00 AM 12.43 54.374 0.077 6.82 96.01 10.3
10/27/2021 6:15:00 AM 12.42 54.356 0.076 6.77 96.77 10.29
10/27/2021 6:30:00 AM 12.41 54.338 0.076 6.8 101.31 10.29
10/27/2021 6:45:00 AM 12.4 54.32 0.075 6.79 99.99 10.29
10/27/2021 7:00:00 AM 12.39 54.302 0.075 6.72 99.71 10.29
10/27/2021 7:15:00 AM 12.38 54.284 0.074 6.74 101.73 10.3
10/27/2021 7:30:00 AM 12.37 54.266 0.074 6.75 98.98 10.31
10/27/2021 7:45:00 AM 12.36 54.248 0.074 6.74 101.2 10.31
10/27/2021 8:00:00 AM 12.36 54.248 0.074 6.78 99.02 10.32
10/27/2021 8:15:00 AM 12.35 54.23 0.074 6.74 93.21 10.33
10/27/2021 8:30:00 AM 12.34 54.212 0.074 6.73 87.24 10.33
10/27/2021 8:45:00 AM 12.33 54.194 0.073 6.73 84.64 10.34
10/27/2021 9:00:00 AM 12.33 54.194 0.073 6.74 80.79 10.35
10/27/2021 9:15:00 AM 12.32 54.176 0.073 6.77 77.66 10.36
10/27/2021 9:30:00 AM 12.31 54.158 0.073 6.73 70.59 10.36
10/27/2021 9:45:00 AM 12.31 54.158 0.073 6.72 69.83 10.37
10/27/2021 10:00:00 AM 12.31 54.158 0.073 6.73 66.53 10.38
10/27/2021 10:15:00 AM 12.31 54.158 0.074 6.74 63.61 10.38
10/27/2021 10:30:00 AM 12.31 54.158 0.074 6.74 63.35 10.38
10/27/2021 10:45:00 AM 12.31 54.158 0.073 6.74 58.93 10.39
10/27/2021 11:00:00 AM 12.31 54.158 0.073 6.75 55.45 10.39
10/27/2021 11:15:00 AM 12.31 54.158 0.074 6.74 54.89 10.4
10/27/2021 11:30:00 AM 12.32 54.176 0.074 6.76 54.22 10.4
10/27/2021 11:45:00 AM 12.33 54.194 0.074 6.75 61.21 10.41
10/27/2021 12:00:00 PM 12.34 54.212 0.074 6.76 53.48 10.42
10/27/2021 12:15:00 PM 12.37 54.266 0.074 6.76 50.89 10.42
10/27/2021 12:30:00 PM 12.4 54.32 0.074 6.79 49.95 10.42
10/27/2021 12:45:00 PM 12.42 54.356 0.074 6.79 43.02 10.42
10/27/2021 1:00:00 PM 12.43 54.374 0.075 6.81 48.61 10.41
10/27/2021 1:15:00 PM 12.46 54.428 0.075 6.81 45.57 10.41
10/27/2021 1:30:00 PM 12.48 54.464 0.075 6.82 40.29 10.41
10/27/2021 1:45:00 PM 12.5 54.5 0.075 6.83 44.59 10.41
10/27/2021 2:00:00 PM 12.52 54.536 0.075 6.84 45.44 10.41
10/27/2021 2:15:00 PM 12.54 54.572 0.076 6.86 44.83 10.41
10/27/2021 2:30:00 PM 12.54 54.572 0.076 6.86 41.82 10.4
10/27/2021 2:45:00 PM 12.56 54.608 0.076 6.86 44.9 10.4
10/27/2021 3:00:00 PM 12.59 54.662 0.076 6.88 40.18 10.4
10/27/2021 3:15:00 PM 12.61 54.698 0.077 6.88 41.97 10.4
10/27/2021 3:30:00 PM 12.61 54.698 0.077 6.86 40.01 10.39
10/27/2021 3:45:00 PM 12.61 54.698 0.077 6.87 37.08 10.4
10/27/2021 4:00:00 PM 12.62 54.716 0.077 6.88 31 10.39
10/27/2021 4:15:00 PM 12.62 54.716 0.077 6.89 43.2 10.39
10/27/2021 4:30:00 PM 12.62 54.716 0.078 6.89 36.06 10.39
10/27/2021 4:45:00 PM 12.61 54.698 0.078 6.89 38.45 10.39
10/27/2021 5:00:00 PM 12.6 54.68 0.078 6.89 38.4 10.39
10/27/2021 5:15:00 PM 12.59 54.662 0.078 6.9 38.79 10.39
10/27/2021 5:30:00 PM 12.58 54.644 0.079 6.9 35.65 10.4
10/27/2021 5:45:00 PM 12.56 54.608 0.079 6.9 35.68 10.4
10/27/2021 6:00:00 PM 12.55 54.59 0.079 6.9 35.68 10.4
10/27/2021 6:15:00 PM 12.52 54.536 0.079 6.91 39.15 10.4
10/27/2021 6:30:00 PM 12.5 54.5 0.08 6.91 37.52 10.41
10/27/2021 6:45:00 PM 12.47 54.446 0.08 6.91 35.57 10.41
10/27/2021 7:00:00 PM 12.45 54.41 0.08 6.91 35.97 10.42
10/27/2021 7:15:00 PM 12.42 54.356 0.08 6.92 34.46 10.42
10/27/2021 7:30:00 PM 12.4 54.32 0.081 6.92 34.8 10.43
10/27/2021 7:45:00 PM 12.39 54.302 0.081 6.92 36.36 10.43
10/27/2021 8:00:00 PM 12.38 54.284 0.081 6.93 40.29 10.43
10/27/2021 8:15:00 PM 12.37 54.266 0.081 6.94 36.91 10.44
10/27/2021 8:30:00 PM 12.36 54.248 0.081 6.94 35 10.44
10/27/2021 8:45:00 PM 12.35 54.23 0.081 6.93 24.77 10.44
10/27/2021 9:00:00 PM 12.34 54.212 0.081 6.94 35.03 10.44
10/27/2021 9:15:00 PM 12.32 54.176 0.082 6.94 33.58 10.44
10/27/2021 9:30:00 PM 12.3 54.14 0.082 6.95 23.85 10.45
10/27/2021 9:45:00 PM 12.29 54.122 0.082 6.95 19.16 10.45
10/27/2021 10:00:00 PM 12.27 54.086 0.082 6.96 22.32 10.46
10/27/2021 10:15:00 PM 12.25 54.05 0.082 6.96 22 10.46
10/27/2021 10:30:00 PM 12.24 54.032 0.083 6.96 32.53 10.46
10/27/2021 10:45:00 PM 12.22 53.996 0.083 6.97 21.18 10.46
10/27/2021 11:00:00 PM 12.2 53.96 0.083 6.97 32.95 10.46
10/27/2021 11:15:00 PM 12.19 53.942 0.083 6.97 31 10.47
10/27/2021 11:30:00 PM 12.17 53.906 0.083 6.96 20.06 10.47
10/27/2021 11:45:00 PM 12.14 53.852 0.084 6.97 20.61 10.47
10/28/2021 12:00:00 AM 12.12 53.816 0.084 6.97 32.1 10.48
10/28/2021 12:15:00 AM 12.09 53.762 0.084 6.96 20.04 10.48
10/28/2021 12:30:00 AM 12.06 53.708 0.084 6.97 20.13 10.49
10/28/2021 12:45:00 AM 12.04 53.672 0.085 6.97 31.62 10.5
10/28/2021 1:00:00 AM 12.01 53.618 0.085 6.97 34.5 10.5
10/28/2021 1:15:00 AM 11.97 53.546 0.085 6.99 18.67 10.51
10/28/2021 1:30:00 AM 11.94 53.492 0.085 6.99 18.68 10.52
10/28/2021 1:45:00 AM 11.9 53.42 0.085 6.99 18.94 10.53
10/28/2021 2:00:00 AM 11.87 53.366 0.085 6.99 19.15 10.53
10/28/2021 2:15:00 AM 11.83 53.294 0.086 6.99 18.78 10.54
10/28/2021 2:30:00 AM 11.8 53.24 0.086 6.99 17.75 10.55
10/28/2021 2:45:00 AM 11.76 53.168 0.086 6.99 17.41 10.56
10/28/2021 3:00:00 AM 11.73 53.114 0.086 6.99 18.25 10.57
10/28/2021 3:15:00 AM 11.69 53.042 0.086 7 16.36 10.58
10/28/2021 3:30:00 AM 11.66 52.988 0.086 7 16.66 10.59
10/28/2021 3:45:00 AM 11.62 52.916 0.086 7 16.35 10.6
10/28/2021 4:00:00 AM 11.59 52.862 0.086 7 13.41 10.6
10/28/2021 4:15:00 AM 11.55 52.79 0.086 7 18.42 10.61
10/28/2021 4:30:00 AM 11.51 52.718 0.087 7.01 15.81 10.63
10/28/2021 4:45:00 AM 11.48 52.664 0.087 7.01 15.42 10.63
10/28/2021 5:00:00 AM 11.44 52.592 0.087 7.01 15.23 10.64
10/28/2021 5:15:00 AM 11.4 52.52 0.087 7.01 16.02 10.65
10/28/2021 5:30:00 AM 11.36 52.448 0.087 7.01 14.48 10.66
10/28/2021 5:45:00 AM 11.33 52.394 0.087 7.01 15.62 10.67
10/28/2021 6:00:00 AM 11.3 52.34 0.087 7.02 14.97 10.68
10/28/2021 6:15:00 AM 11.26 52.268 0.087 7.02 14.62 10.69
10/28/2021 6:30:00 AM 11.22 52.196 0.087 7.01 15.46 10.7
10/28/2021 6:45:00 AM 11.18 52.124 0.086 7.02 15.49 10.71
10/28/2021 7:00:00 AM 11.14 52.052 0.087 7.02 13.91 10.72
10/28/2021 7:15:00 AM 11.1 51.98 0.087 7.01 13.95 10.73
10/28/2021 7:30:00 AM 11.07 51.926 0.087 7.02 14.06 10.74
10/28/2021 7:45:00 AM 11.03 51.854 0.087 7.01 14.31 10.75
10/28/2021 8:00:00 AM 11 51.8 0.087 7.02 13.42 10.77
10/28/2021 8:15:00 AM 10.97 51.746 0.087 7.02 12.49 10.78
10/28/2021 8:30:00 AM 10.94 51.692 0.087 7.03 13.16 10.8
10/28/2021 8:45:00 AM 10.9 51.62 0.087 7.03 13.07 10.82
10/28/2021 9:00:00 AM 10.89 51.602 0.087 7.04 13.91 10.83
10/28/2021 9:15:00 AM 10.87 51.566 0.087 7.03 12.96 10.85
10/28/2021 9:30:00 AM 10.87 51.566 0.088 7.04 12.65 10.86
10/28/2021 9:45:00 AM 10.86 51.548 0.088 7.06 10.95 10.87
10/28/2021 10:00:00 AM 10.86 51.548 0.088 7.06 12.43 10.88
10/28/2021 10:15:00 AM 10.86 51.548 0.088 7.07 11.3 10.89
10/28/2021 10:30:00 AM 10.88 51.584 0.088 7.09 11.41 10.9
10/28/2021 10:45:00 AM 10.91 51.638 0.088 7.09 10.87 10.91
10/28/2021 11:00:00 AM 10.93 51.674 0.088 7.1 10 10.92
10/28/2021 11:15:00 AM 10.96 51.728 0.088 7.11 10.53 10.92
10/28/2021 11:30:00 AM 11 51.8 0.088 7.12 11.42 10.93
10/28/2021 11:45:00 AM 11.05 51.89 0.089 7.13 11.45 10.93
10/28/2021 12:00:00 PM 11.09 51.962 0.089 7.13 10.16 10.93
10/28/2021 12:15:00 PM 11.15 52.07 0.089 7.14 10.37 10.93
10/28/2021 12:30:00 PM 11.22 52.196 0.089 7.15 9.76 10.93
10/28/2021 12:45:00 PM 11.28 52.304 0.089 7.16 11.12 10.93
10/28/2021 1:00:00 PM 11.35 52.43 0.089 7.17 10.86 10.92
10/28/2021 1:15:00 PM 11.42 52.556 0.089 7.18 9.75 10.91
10/28/2021 1:30:00 PM 11.5 52.7 0.09 7.18 9.63 10.9
10/28/2021 1:45:00 PM 11.57 52.826 0.09 7.19 9.94 10.89
10/28/2021 2:00:00 PM 11.63 52.934 0.09 7.2 9.61 10.87
10/28/2021 2:15:00 PM 11.69 53.042 0.09 7.21 9.74 10.86
10/28/2021 2:30:00 PM 11.74 53.132 0.09 7.21 9.43 10.84
10/28/2021 2:45:00 PM 11.78 53.204 0.09 7.21 10.32 10.83
10/28/2021 3:00:00 PM 11.82 53.276 0.09 7.22 9.48 10.81
10/28/2021 3:15:00 PM 11.85 53.33 0.09 7.22 10.69 10.79
10/28/2021 3:30:00 PM 11.88 53.384 0.09 7.22 9.96 10.78
10/28/2021 3:45:00 PM 11.91 53.438 0.09 7.22 9.85 10.77
10/28/2021 4:00:00 PM 11.93 53.474 0.09 7.22 10.19 10.75
10/28/2021 4:15:00 PM 11.94 53.492 0.091 7.21 9.22 10.73
10/28/2021 4:30:00 PM 11.95 53.51 0.091 7.2 9.84 10.72
10/28/2021 4:45:00 PM 11.96 53.528 0.091 7.2 10.43 10.7
10/28/2021 5:00:00 PM 11.96 53.528 0.091 7.2 9.69 10.69
10/28/2021 5:15:00 PM 11.96 53.528 0.091 7.19 9.17 10.68
10/28/2021 5:30:00 PM 11.95 53.51 0.091 7.18 10.5 10.68
10/28/2021 5:45:00 PM 11.95 53.51 0.091 7.18 9.45 10.67
10/28/2021 6:00:00 PM 11.93 53.474 0.091 7.18 9.95 10.66
10/28/2021 6:15:00 PM 11.91 53.438 0.092 7.17 10.2 10.65
10/28/2021 6:30:00 PM 11.88 53.384 0.092 7.16 9.88 10.65
10/28/2021 6:45:00 PM 11.83 53.294 0.092 7.16 10.91 10.65
10/28/2021 7:00:00 PM 11.79 53.222 0.092 7.15 9.27 10.66
10/28/2021 7:15:00 PM 11.74 53.132 0.092 7.14 8.4 10.66
10/28/2021 7:30:00 PM 11.69 53.042 0.092 7.14 8.78 10.67
10/28/2021 7:45:00 PM 11.63 52.934 0.092 7.14 9.02 10.67
10/28/2021 8:00:00 PM 11.57 52.826 0.092 7.13 10.45 10.68
10/28/2021 8:15:00 PM 11.51 52.718 0.092 7.12 9.18 10.69
10/28/2021 8:30:00 PM 11.46 52.628 0.092 7.12 8.45 10.7
10/28/2021 8:45:00 PM 11.41 52.538 0.093 7.12 8.8 10.71
10/28/2021 9:00:00 PM 11.36 52.448 0.093 7.11 10.04 10.72
10/28/2021 9:15:00 PM 11.31 52.358 0.093 7.11 9.47 10.73
10/28/2021 9:30:00 PM 11.26 52.268 0.093 7.11 8.59 10.74
10/28/2021 9:45:00 PM 11.21 52.178 0.093 7.11 11.78 10.76
10/28/2021 10:00:00 PM 11.16 52.088 0.093 7.11 8.81 10.77
10/28/2021 10:15:00 PM 11.12 52.016 0.093 7.1 12.02 10.78
10/28/2021 10:30:00 PM 11.07 51.926 0.093 7.1 8.83 10.79
10/28/2021 10:45:00 PM 11.03 51.854 0.093 7.09 11.05 10.8
10/28/2021 11:00:00 PM 10.99 51.782 0.093 7.09 7.71 10.81
10/28/2021 11:15:00 PM 10.95 51.71 0.093 7.09 7.94 10.82
10/28/2021 11:30:00 PM 10.92 51.656 0.093 7.09 7.76 10.84
10/28/2021 11:45:00 PM 10.88 51.584 0.093 7.09 12.17 10.84
10/29/2021 12:00:00 AM 10.85 51.53 0.093 7.09 8.84 10.86
10/29/2021 12:15:00 AM 10.84 51.512 0.093 7.09 8.87 10.85
10/29/2021 12:30:00 AM 10.83 51.494 0.093 7.09 7.31 10.86
10/29/2021 12:45:00 AM 10.83 51.494 0.094 7.1 11.13 10.87
10/29/2021 1:00:00 AM 10.83 51.494 0.094 7.1 7.72 10.87
10/29/2021 1:15:00 AM 10.83 51.494 0.094 7.11 7.79 10.87
10/29/2021 1:30:00 AM 10.83 51.494 0.093 7.11 10.76 10.87
10/29/2021 1:45:00 AM 10.82 51.476 0.094 7.11 10.78 10.87
10/29/2021 2:00:00 AM 10.82 51.476 0.094 7.11 7.05 10.87
10/29/2021 2:15:00 AM 10.81 51.458 0.094 7.12 10.95 10.87
10/29/2021 2:30:00 AM 10.8 51.44 0.093 7.12 10.99 10.87
10/29/2021 2:45:00 AM 10.8 51.44 0.094 7.12 7.63 10.87
10/29/2021 3:00:00 AM 10.81 51.458 0.094 7.12 8.13 10.87
10/29/2021 3:15:00 AM 10.81 51.458 0.094 7.12 8.36 10.87
10/29/2021 3:30:00 AM 10.81 51.458 0.094 7.13 11.53 10.87
10/29/2021 3:45:00 AM 10.81 51.458 0.094 7.13 8.57 10.87
10/29/2021 4:00:00 AM 10.8 51.44 0.094 7.13 10.55 10.87
10/29/2021 4:15:00 AM 10.81 51.458 0.094 7.13 10.37 10.87
10/29/2021 4:30:00 AM 10.83 51.494 0.094 7.13 7.66 10.86
10/29/2021 4:45:00 AM 10.85 51.53 0.094 7.14 10.36 10.86
10/29/2021 5:00:00 AM 10.87 51.566 0.094 7.14 10.43 10.85
10/29/2021 5:15:00 AM 10.89 51.602 0.094 7.14 12.07 10.85
10/29/2021 5:30:00 AM 10.91 51.638 0.094 7.14 10.59 10.85
10/29/2021 5:45:00 AM 10.92 51.656 0.094 7.15 7.61 10.84
10/29/2021 6:00:00 AM 10.93 51.674 0.094 7.15 10.2 10.84
10/29/2021 6:15:00 AM 10.94 51.692 0.094 7.16 10.31 10.83
10/29/2021 6:30:00 AM 10.95 51.71 0.094 7.16 9.85 10.83
10/29/2021 6:45:00 AM 10.96 51.728 0.094 7.16 10.24 10.83
10/29/2021 7:00:00 AM 10.96 51.728 0.094 7.16 11.66 10.83
10/29/2021 7:15:00 AM 10.97 51.746 0.095 7.16 7.95 10.83
10/29/2021 7:30:00 AM 10.98 51.764 0.095 7.17 10.54 10.83
10/29/2021 7:45:00 AM 10.98 51.764 0.095 7.17 11.46 10.82
10/29/2021 8:00:00 AM 10.98 51.764 0.095 7.17 11.87 10.83
10/29/2021 8:15:00 AM 10.98 51.764 0.095 7.17 11.86 10.84
10/29/2021 8:30:00 AM 10.98 51.764 0.095 7.18 9.33 10.85
10/29/2021 8:45:00 AM 10.97 51.746 0.095 7.18 11.56 10.86
10/29/2021 9:00:00 AM 10.97 51.746 0.095 7.19 11.01 10.88
10/29/2021 9:15:00 AM 10.97 51.746 0.095 7.2 10.95 10.9
10/29/2021 9:30:00 AM 10.97 51.746 0.095 7.21 11.37 10.91
10/29/2021 9:45:00 AM 10.97 51.746 0.095 7.23 9.62 10.94
10/29/2021 10:00:00 AM 10.95 51.71 0.095 7.23 11.26 10.95
10/29/2021 10:15:00 AM 10.96 51.728 0.095 7.23 9.65 10.97
10/29/2021 10:30:00 AM 11.02 51.836 0.095 7.23 10.83 10.99
10/29/2021 10:45:00 AM 11.11 51.998 0.095 7.25 10.89 11.01
10/29/2021 11:00:00 AM 11.19 52.142 0.095 7.26 10.89 11.01
10/29/2021 11:15:00 AM 11.18 52.124 0.095 7.27 9 11.01
10/29/2021 11:30:00 AM 11.14 52.052 0.095 7.27 10.68 11.02
10/29/2021 11:45:00 AM 11.19 52.142 0.095 7.28 9.87 11.04
10/29/2021 12:00:00 PM 11.24 52.232 0.095 7.29 10.77 11.04
10/29/2021 12:15:00 PM 11.32 52.376 0.096 7.3 10.66 11.03
10/29/2021 12:30:00 PM 11.38 52.484 0.096 7.31 10.1 11.02
10/29/2021 12:45:00 PM 11.39 52.502 0.096 7.31 10.6 11.01
10/29/2021 1:00:00 PM 11.35 52.43 0.095 7.32 9.87 11.01
10/29/2021 1:15:00 PM 11.33 52.394 0.095 7.32 10.44 11.01
10/29/2021 1:30:00 PM 11.39 52.502 0.095 7.33 8.38 11.01
10/29/2021 1:45:00 PM 11.51 52.718 0.096 7.33 10.54 11
10/29/2021 2:00:00 PM 11.55 52.79 0.095 7.34 10.13 10.99
10/29/2021 2:15:00 PM 11.59 52.862 0.096 7.35 10.58 10.99
10/29/2021 2:30:00 PM 11.6 52.88 0.095 7.35 11.24 10.98
10/29/2021 2:45:00 PM 11.63 52.934 0.096 7.35 8.67 10.96
10/29/2021 3:00:00 PM 11.62 52.916 0.096 7.35 10.95 10.93
10/29/2021 3:15:00 PM 11.61 52.898 0.096 7.34 10.61 10.91
10/29/2021 3:30:00 PM 11.58 52.844 0.096 7.33 9.14 10.89
10/29/2021 3:45:00 PM 11.56 52.808 0.096 7.32 8.91 10.86
10/29/2021 4:00:00 PM 11.55 52.79 0.096 7.31 4.77 10.85
10/29/2021 4:15:00 PM 11.58 52.844 0.096 7.31 10.76 10.85
10/29/2021 4:30:00 PM 11.61 52.898 0.096 7.3 9.42 10.81
10/29/2021 4:45:00 PM 11.61 52.898 0.096 7.3 10.39 10.8
10/29/2021 5:00:00 PM 11.62 52.916 0.096 7.3 10.47 10.79
10/29/2021 5:15:00 PM 11.6 52.88 0.096 7.29 10.5 10.77
10/29/2021 5:30:00 PM 11.58 52.844 0.096 7.28 10.86 10.75
10/29/2021 5:45:00 PM 11.55 52.79 0.096 7.28 9.18 10.74
10/29/2021 6:00:00 PM 11.54 52.772 0.096 7.27 10.44 10.72
10/29/2021 6:15:00 PM 11.52 52.736 0.096 7.26 8.79 10.71
10/29/2021 6:30:00 PM 11.5 52.7 0.096 7.26 10.64 10.7
10/29/2021 6:45:00 PM 11.48 52.664 0.096 7.25 9.36 10.69
10/29/2021 7:00:00 PM 11.45 52.61 0.096 7.25 10.46 10.69
10/29/2021 7:15:00 PM 11.43 52.574 0.096 7.24 11.12 10.69
10/29/2021 7:30:00 PM 11.4 52.52 0.096 7.24 10.36 10.69
10/29/2021 7:45:00 PM 11.36 52.448 0.096 7.24 10.75 10.69
10/29/2021 8:00:00 PM 11.33 52.394 0.097 7.23 10.45 10.69
10/29/2021 8:15:00 PM 11.29 52.322 0.096 7.23 8.63 10.69
10/29/2021 8:30:00 PM 11.26 52.268 0.096 7.23 10.63 10.7
10/29/2021 8:45:00 PM 11.21 52.178 0.096 7.22 10.59 10.71
10/29/2021 9:00:00 PM 11.16 52.088 0.096 7.21 10.9 10.73
10/29/2021 9:15:00 PM 11.1 51.98 0.095 7.21 10.95 10.74
10/29/2021 9:30:00 PM 11.05 51.89 0.095 7.19 9.38 10.76
10/29/2021 9:45:00 PM 11.01 51.818 0.095 7.19 10.37 10.76
10/29/2021 10:00:00 PM 10.97 51.746 0.095 7.17 7.39 10.76
10/29/2021 10:15:00 PM 10.93 51.674 0.094 7.16 11.37 10.77
10/29/2021 10:30:00 PM 10.89 51.602 0.094 7.14 14.36 10.77
10/29/2021 10:45:00 PM 10.86 51.548 0.095 7.13 16.22 10.77
10/29/2021 11:00:00 PM 10.83 51.494 0.094 7.11 18.12 10.77
10/29/2021 11:15:00 PM 10.79 51.422 0.094 7.11 21.99 10.77
10/29/2021 11:30:00 PM 10.74 51.332 0.095 7.09 26.99 10.78
10/29/2021 11:45:00 PM 10.69 51.242 0.092 7.09 37.31 10.81
10/30/2021 12:00:00 AM 10.66 51.188 0.091 7.09 41.76 10.82
10/30/2021 12:15:00 AM 10.65 51.17 0.09 7.09 40.85 10.83
10/30/2021 12:30:00 AM 10.64 51.152 0.09 7.09 40.12 10.82
10/30/2021 12:45:00 AM 10.62 51.116 0.09 7.09 50.01 10.82
10/30/2021 1:00:00 AM 10.59 51.062 0.089 7.09 63.53 10.83
10/30/2021 1:15:00 AM 10.57 51.026 0.088 7.08 72.86 10.83
10/30/2021 1:30:00 AM 10.54 50.972 0.087 7.07 58 10.84
10/30/2021 1:45:00 AM 10.53 50.954 0.086 7.07 50.14 10.83
10/30/2021 2:00:00 AM 10.53 50.954 0.086 7.07 41.75 10.83
10/30/2021 2:15:00 AM 10.53 50.954 0.086 7.07 35.52 10.83
10/30/2021 2:30:00 AM 10.54 50.972 0.087 7.08 30.41 10.83
10/30/2021 2:45:00 AM 10.55 50.99 0.087 7.07 27.35 10.82
10/30/2021 3:00:00 AM 10.56 51.008 0.088 7.08 26.2 10.81
10/30/2021 3:15:00 AM 10.56 51.008 0.089 7.08 25.22 10.81
10/30/2021 3:30:00 AM 10.56 51.008 0.089 7.09 24.47 10.81
10/30/2021 3:45:00 AM 10.56 51.008 0.089 7.08 25.06 10.81
10/30/2021 4:00:00 AM 10.57 51.026 0.089 7.08 27.59 10.81
10/30/2021 4:15:00 AM 10.58 51.044 0.089 7.09 30.39 10.81
10/30/2021 4:30:00 AM 10.58 51.044 0.09 7.09 28.4 10.81
10/30/2021 4:45:00 AM 10.59 51.062 0.09 7.09 28.33 10.81
10/30/2021 5:00:00 AM 10.59 51.062 0.09 7.1 31.43 10.81
10/30/2021 5:15:00 AM 10.59 51.062 0.09 7.09 29.45 10.81
10/30/2021 5:30:00 AM 10.6 51.08 0.09 7.09 31.01 10.81
10/30/2021 5:45:00 AM 10.6 51.08 0.09 7.09 29.91 10.81
10/30/2021 6:00:00 AM 10.61 51.098 0.089 7.09 30.2 10.81
10/30/2021 6:15:00 AM 10.62 51.116 0.089 7.08 24.95 10.81
10/30/2021 6:30:00 AM 10.63 51.134 0.089 7.09 25.74 10.8
10/30/2021 6:45:00 AM 10.63 51.134 0.089 7.09 25.83 10.81
10/30/2021 7:00:00 AM 10.63 51.134 0.089 7.08 26.2 10.8
10/30/2021 7:15:00 AM 10.63 51.134 0.09 7.08 25.16 10.81
10/30/2021 7:30:00 AM 10.63 51.134 0.09 7.08 25.64 10.8
10/30/2021 7:45:00 AM 10.62 51.116 0.091 7.08 26.98 10.81
10/30/2021 8:00:00 AM 10.61 51.098 0.091 7.08 28.78 10.81
10/30/2021 8:15:00 AM 10.6 51.08 0.091 7.08 27.25 10.82
10/30/2021 8:30:00 AM 10.6 51.08 0.09 7.08 26.35 10.82
10/30/2021 8:45:00 AM 10.6 51.08 0.09 7.08 25.84 10.82
10/30/2021 9:00:00 AM 10.6 51.08 0.089 7.08 24.29 10.83
10/30/2021 9:15:00 AM 10.61 51.098 0.072 7.08 23.69 10.83
10/30/2021 9:30:00 AM 10.62 51.116 0.089 7.08 24.49 10.83
10/30/2021 9:45:00 AM 10.63 51.134 0.089 7.08 25.11 10.83
10/30/2021 10:00:00 AM 10.64 51.152 0.089 7.08 23.2 10.83
10/30/2021 10:15:00 AM 10.65 51.17 0.065 7.09 23.43 10.83
10/30/2021 10:30:00 AM 10.66 51.188 0.067 7.09 1785.52 10.83
10/30/2021 10:45:00 AM 10.67 51.206 0.073 7.08 3492.27 10.84
10/30/2021 11:00:00 AM 10.67 51.206 0.09 7.08 1198.92 10.83
10/30/2021 11:15:00 AM 10.67 51.206 0.09 7.08 22.3 10.84
10/30/2021 11:30:00 AM 10.67 51.206 0.089 7.08 20.09 10.84
10/30/2021 11:45:00 AM 10.67 51.206 0.089 7.07 24.15 10.84
10/30/2021 12:00:00 PM 10.68 51.224 0.088 7.08 78.11 10.84
10/30/2021 12:15:00 PM 10.7 51.26 0.088 7.07 23.06 10.84
10/30/2021 12:30:00 PM 10.71 51.278 0.088 7.07 24.44 10.84
10/30/2021 12:45:00 PM 10.73 51.314 0.088 7.07 568.43 10.84
10/30/2021 1:00:00 PM 10.76 51.368 0.087 7.08 27.16 10.84
10/30/2021 1:15:00 PM 10.81 51.458 0.087 7.08 22.06 10.84
10/30/2021 1:30:00 PM 10.83 51.494 0.087 7.07 36.62 10.83
10/30/2021 1:45:00 PM 10.84 51.512 0.087 7.07 20.69 10.82
10/30/2021 2:00:00 PM 10.85 51.53 0.086 7.08 366.45 10.81
10/30/2021 2:15:00 PM 10.89 51.602 0.086 7.07 23.56 10.81
10/30/2021 2:30:00 PM 10.92 51.656 0.086 7.07 24.92 10.8
10/30/2021 2:45:00 PM 10.92 51.656 0.086 7.07 78.61 10.8
10/30/2021 3:00:00 PM 10.93 51.674 0.085 7.06 166.76 10.79
10/30/2021 3:15:00 PM 10.94 51.692 0.085 7.06 26.89 10.79
10/30/2021 3:30:00 PM 10.94 51.692 0.085 7.05 25.53 10.78
10/30/2021 3:45:00 PM 10.95 51.71 0.084 7.04 23.25 10.78
10/30/2021 4:00:00 PM 10.96 51.728 0.084 7.04 63.97 10.77
10/30/2021 4:15:00 PM 10.97 51.746 0.084 7.04 25.44 10.77
10/30/2021 4:30:00 PM 10.97 51.746 0.084 7.03 35.18 10.76
10/30/2021 4:45:00 PM 10.98 51.764 0.084 7.02 25.17 10.76
10/30/2021 5:00:00 PM 10.99 51.782 0.084 7.02 25.35 10.75
10/30/2021 5:15:00 PM 10.99 51.782 0.084 7.02 27.96 10.75
10/30/2021 5:30:00 PM 11 51.8 0.083 7.01 22.85 10.75
10/30/2021 5:45:00 PM 10.99 51.782 0.083 7.01 21.81 10.75
10/30/2021 6:00:00 PM 10.98 51.764 0.083 7.01 24.18 10.74
10/30/2021 6:15:00 PM 10.97 51.746 0.083 7.01 22.28 10.74
10/30/2021 6:30:00 PM 10.95 51.71 0.083 7 25.76 10.74
10/30/2021 6:45:00 PM 10.94 51.692 0.083 7.01 23.78 10.73
10/30/2021 7:00:00 PM 10.93 51.674 0.083 7.01 23.45 10.74
10/30/2021 7:15:00 PM 10.91 51.638 0.083 7 20.41 10.74
10/30/2021 7:30:00 PM 10.9 51.62 0.083 7 19.91 10.74
10/30/2021 7:45:00 PM 10.88 51.584 0.083 7 21.67 10.74
10/30/2021 8:00:00 PM 10.87 51.566 0.083 7 25.54 10.74
10/30/2021 8:15:00 PM 10.85 51.53 0.083 7 19.87 10.74
10/30/2021 8:30:00 PM 10.84 51.512 0.083 7 19.63 10.74
10/30/2021 8:45:00 PM 10.82 51.476 0.084 7 23.03 10.75
10/30/2021 9:00:00 PM 10.81 51.458 0.083 7 19.15 10.74
10/30/2021 9:15:00 PM 10.8 51.44 0.083 7 18.89 10.75
10/30/2021 9:30:00 PM 10.79 51.422 0.083 7.01 21.93 10.75
10/30/2021 9:45:00 PM 10.78 51.404 0.083 7 25.32 10.75
10/30/2021 10:00:00 PM 10.78 51.404 0.084 7.01 16.78 10.75
10/30/2021 10:15:00 PM 10.77 51.386 0.084 7.01 18.84 10.75
10/30/2021 10:30:00 PM 10.76 51.368 0.084 7.01 15.78 10.75
10/30/2021 10:45:00 PM 10.75 51.35 0.084 7.01 15.67 10.75
10/30/2021 11:00:00 PM 10.74 51.332 0.084 7.01 15.03 10.75
10/30/2021 11:15:00 PM 10.73 51.314 0.084 7.01 15.07 10.75
10/30/2021 11:30:00 PM 10.73 51.314 0.084 7.01 14.61 10.75
10/30/2021 11:45:00 PM 10.72 51.296 0.085 7.01 14.83 10.75
10/31/2021 12:00:00 AM 10.72 51.296 0.085 7.02 15.37 10.75
10/31/2021 12:15:00 AM 10.71 51.278 0.085 7.02 14.98 10.75
10/31/2021 12:30:00 AM 10.71 51.278 0.085 7.03 14.05 10.75
10/31/2021 12:45:00 AM 10.72 51.296 0.085 7.03 12.51 10.75
10/31/2021 1:00:00 AM 10.72 51.296 0.085 7.03 13.4 10.75
10/31/2021 1:15:00 AM 10.72 51.296 0.083 7.03 14.18 10.74
10/31/2021 1:30:00 AM 10.73 51.314 0.086 7.03 12.58 10.74
10/31/2021 1:45:00 AM 10.73 51.314 0.086 7.03 13.11 10.74
10/31/2021 2:00:00 AM 10.74 51.332 0.086 7.04 11.86 10.74
10/31/2021 2:15:00 AM 10.75 51.35 0.086 7.04 12.35 10.73
10/31/2021 2:30:00 AM 10.75 51.35 0.086 7.04 12.16 10.73
10/31/2021 2:45:00 AM 10.75 51.35 0.086 7.04 11.66 10.73
10/31/2021 3:00:00 AM 10.75 51.35 0.086 7.05 10.76 10.73
10/31/2021 3:15:00 AM 10.75 51.35 0.086 7.05 11.12 10.73
10/31/2021 3:30:00 AM 10.74 51.332 0.087 7.05 11.34 10.73
10/31/2021 3:45:00 AM 10.74 51.332 0.087 7.05 10.68 10.73
10/31/2021 4:00:00 AM 10.74 51.332 0.087 7.05 12.09 10.73
10/31/2021 4:15:00 AM 10.74 51.332 0.087 7.06 11.55 10.73
10/31/2021 4:30:00 AM 10.74 51.332 0.087 7.06 10.76 10.73
10/31/2021 4:45:00 AM 10.74 51.332 0.087 7.06 13.19 10.73
10/31/2021 5:00:00 AM 10.74 51.332 0.087 7.06 10.57 10.73
10/31/2021 5:15:00 AM 10.74 51.332 0.087 7.06 10.99 10.73
10/31/2021 5:30:00 AM 10.73 51.314 0.087 7.06 10.77 10.74
10/31/2021 5:45:00 AM 10.73 51.314 0.088 7.07 10.4 10.74
10/31/2021 6:00:00 AM 10.73 51.314 0.088 7.07 10.24 10.74
10/31/2021 6:15:00 AM 10.72 51.296 0.088 7.07 11.26 10.74
10/31/2021 6:30:00 AM 10.73 51.314 0.088 7.06 8.82 10.74
10/31/2021 6:45:00 AM 10.73 51.314 0.088 7.06 11.71 10.74
10/31/2021 7:00:00 AM 10.73 51.314 0.088 7.06 10.36 10.74
10/31/2021 7:15:00 AM 10.73 51.314 0.088 7.06 9.62 10.74
10/31/2021 7:30:00 AM 10.73 51.314 0.088 7.07 9.83 10.74
10/31/2021 7:45:00 AM 10.73 51.314 0.088 7.06 10.58 10.74
10/31/2021 8:00:00 AM 10.74 51.332 0.089 7.06 9.6 10.75
10/31/2021 8:15:00 AM 10.74 51.332 0.089 7.07 10.05 10.75
10/31/2021 8:30:00 AM 10.75 51.35 0.089 7.07 10.08 10.75
10/31/2021 8:45:00 AM 10.76 51.368 0.089 7.07 10.78 10.76
10/31/2021 9:00:00 AM 10.76 51.368 0.089 7.08 9.93 10.76
10/31/2021 9:15:00 AM 10.77 51.386 0.089 7.08 9.34 10.76
10/31/2021 9:30:00 AM 10.77 51.386 0.089 7.09 8.34 10.77
10/31/2021 9:45:00 AM 10.78 51.404 0.089 7.09 10.04 10.77
10/31/2021 10:00:00 AM 10.79 51.422 0.089 7.1 8.34 10.77
10/31/2021 10:15:00 AM 10.8 51.44 0.089 7.1 12.15 10.78
10/31/2021 10:30:00 AM 10.81 51.458 0.089 7.1 9.06 10.79
10/31/2021 10:45:00 AM 10.82 51.476 0.09 7.11 8.73 10.8
10/31/2021 11:00:00 AM 10.84 51.512 0.089 7.11 10.58 10.81
10/31/2021 11:15:00 AM 10.88 51.584 0.09 7.12 8.32 10.82
10/31/2021 11:30:00 AM 10.93 51.674 0.09 7.12 9.83 10.84
10/31/2021 11:45:00 AM 10.97 51.746 0.09 7.14 8.3 10.85
10/31/2021 12:00:00 PM 11.01 51.818 0.09 7.14 10.8 10.85
10/31/2021 12:15:00 PM 11.09 51.962 0.09 7.15 8.93 10.86
10/31/2021 12:30:00 PM 11.13 52.034 0.09 7.16 8.47 10.86
10/31/2021 12:45:00 PM 11.17 52.106 0.09 7.17 8.15 10.86
10/31/2021 1:00:00 PM 11.2 52.16 0.091 7.17 11.09 10.86
10/31/2021 1:15:00 PM 11.25 52.25 0.091 7.18 8.45 10.85
10/31/2021 1:30:00 PM 11.28 52.304 0.091 7.19 8.81 10.85
10/31/2021 1:45:00 PM 11.31 52.358 0.091 7.19 7.08 10.85
10/31/2021 2:00:00 PM 11.38 52.484 0.091 7.2 8.69 10.86
10/31/2021 2:15:00 PM 11.46 52.628 0.091 7.21 7.01 10.86
10/31/2021 2:30:00 PM 11.56 52.808 0.091 7.22 9.5 10.85
10/31/2021 2:45:00 PM 11.62 52.916 0.091 7.23 7.16 10.84
10/31/2021 3:00:00 PM 11.65 52.97 0.091 7.23 7.66 10.83
10/31/2021 3:15:00 PM 11.68 53.024 0.091 7.23 10.59 10.81
10/31/2021 3:30:00 PM 11.7 53.06 0.091 7.24 9.97 10.8
10/31/2021 3:45:00 PM 11.75 53.15 0.091 7.24 7.53 10.79
10/31/2021 4:00:00 PM 11.8 53.24 0.091 7.24 10.51 10.78
10/31/2021 4:15:00 PM 11.84 53.312 0.091 7.24 8.39 10.77
10/31/2021 4:30:00 PM 11.86 53.348 0.091 7.24 6.59 10.75
10/31/2021 4:45:00 PM 11.84 53.312 0.092 7.23 8.43 10.73
10/31/2021 5:00:00 PM 11.81 53.258 0.092 7.22 7.99 10.71
10/31/2021 5:15:00 PM 11.79 53.222 0.092 7.22 8.12 10.69
10/31/2021 5:30:00 PM 11.78 53.204 0.092 7.21 8.14 10.68
10/31/2021 5:45:00 PM 11.77 53.186 0.092 7.21 8.16 10.67
10/31/2021 6:00:00 PM 11.77 53.186 0.092 7.2 8.96 10.65
10/31/2021 6:15:00 PM 11.76 53.168 0.092 7.19 10.25 10.64
10/31/2021 6:30:00 PM 11.75 53.15 0.092 7.19 8.62 10.64
10/31/2021 6:45:00 PM 11.74 53.132 0.092 7.19 10.8 10.63
10/31/2021 7:00:00 PM 11.71 53.078 0.092 7.19 11.56 10.64
10/31/2021 7:15:00 PM 11.69 53.042 0.092 7.18 11.13 10.64
10/31/2021 7:30:00 PM 11.67 53.006 0.092 7.18 9.94 10.64
10/31/2021 7:45:00 PM 11.65 52.97 0.092 7.17 11.65 10.64
10/31/2021 8:00:00 PM 11.62 52.916 0.092 7.17 8.68 10.64
10/31/2021 8:15:00 PM 11.58 52.844 0.092 7.16 12.24 10.65
10/31/2021 8:30:00 PM 11.54 52.772 0.092 7.16 9 10.65
10/31/2021 8:45:00 PM 11.51 52.718 0.092 7.15 10.65 10.66
10/31/2021 9:00:00 PM 11.47 52.646 0.092 7.15 11.07 10.66
10/31/2021 9:15:00 PM 11.43 52.574 0.092 7.15 6.86 10.67
10/31/2021 9:30:00 PM 11.39 52.502 0.092 7.15 7.81 10.68
10/31/2021 9:45:00 PM 11.35 52.43 0.093 7.14 8.63 10.69
10/31/2021 10:00:00 PM 11.31 52.358 0.093 7.14 11.1 10.7
10/31/2021 10:15:00 PM 11.29 52.322 0.093 7.14 10.69 10.71
10/31/2021 10:30:00 PM 11.26 52.268 0.093 7.14 7.98 10.71
10/31/2021 10:45:00 PM 11.22 52.196 0.093 7.13 9.71 10.72
10/31/2021 11:00:00 PM 11.18 52.124 0.093 7.13 7.7 10.73
10/31/2021 11:15:00 PM 11.15 52.07 0.093 7.13 8.23 10.74
10/31/2021 11:30:00 PM 11.12 52.016 0.093 7.12 10.26 10.74
10/31/2021 11:45:00 PM 11.08 51.944 0.093 7.12 11.33 10.75
11/1/2021 12:00:00 AM 11.05 51.89 0.093 7.12 9.07 10.76
11/1/2021 12:15:00 AM 11.02 51.836 0.093 7.12 8.77 10.77
11/1/2021 12:30:00 AM 11 51.8 0.093 7.12 7.41 10.77
11/1/2021 12:45:00 AM 10.96 51.728 0.093 7.12 7.11 10.78
11/1/2021 1:00:00 AM 10.94 51.692 0.093 7.12 11.46 10.79
11/1/2021 1:15:00 AM 10.93 51.674 0.093 7.11 10.62 10.8
11/1/2021 1:30:00 AM 10.92 51.656 0.093 7.11 7.16 10.8
11/1/2021 1:45:00 AM 10.91 51.638 0.093 7.11 8.19 10.81
11/1/2021 2:00:00 AM 10.9 51.62 0.093 7.11 8.23 10.81
11/1/2021 2:15:00 AM 10.88 51.584 0.093 7.11 10.61 10.81
11/1/2021 2:30:00 AM 10.87 51.566 0.093 7.11 10.52 10.82
11/1/2021 2:45:00 AM 10.86 51.548 0.093 7.12 7.41 10.82
11/1/2021 3:00:00 AM 10.85 51.53 0.093 7.12 10.35 10.82
11/1/2021 3:15:00 AM 10.84 51.512 0.093 7.12 11.5 10.83
11/1/2021 3:30:00 AM 10.84 51.512 0.093 7.11 10.88 10.83
11/1/2021 3:45:00 AM 10.85 51.53 0.093 7.11 10.21 10.83
11/1/2021 4:00:00 AM 10.85 51.53 0.093 7.12 6.6 10.83
11/1/2021 4:15:00 AM 10.86 51.548 0.093 7.12 10.59 10.84
11/1/2021 4:30:00 AM 10.85 51.53 0.093 7.12 7.71 10.84
11/1/2021 4:45:00 AM 10.85 51.53 0.093 7.13 6.47 10.84
11/1/2021 5:00:00 AM 10.85 51.53 0.093 7.13 7.35 10.84
11/1/2021 5:15:00 AM 10.86 51.548 0.093 7.13 7.81 10.84
11/1/2021 5:30:00 AM 10.88 51.584 0.093 7.13 7.5 10.85
11/1/2021 5:45:00 AM 10.88 51.584 0.093 7.13 9.65 10.85
11/1/2021 6:00:00 AM 10.88 51.584 0.093 7.13 7.68 10.85
11/1/2021 6:15:00 AM 10.88 51.584 0.093 7.14 7.04 10.85
11/1/2021 6:30:00 AM 10.88 51.584 0.093 7.14 8.15 10.86
11/1/2021 6:45:00 AM 10.88 51.584 0.093 7.14 8.24 10.86
11/1/2021 7:00:00 AM 10.87 51.566 0.093 7.14 7.37 10.87
11/1/2021 7:15:00 AM 10.87 51.566 0.093 7.15 8.27 10.87
11/1/2021 7:30:00 AM 10.86 51.548 0.093 7.15 10.97 10.88
11/1/2021 7:45:00 AM 10.84 51.512 0.093 7.15 7.26 10.89
11/1/2021 8:00:00 AM 10.81 51.458 0.093 7.15 8.74 10.9
11/1/2021 8:15:00 AM 10.79 51.422 0.093 7.15 7.42 10.91
11/1/2021 8:30:00 AM 10.76 51.368 0.094 7.15 8.96 10.94
11/1/2021 8:45:00 AM 10.74 51.332 0.093 7.16 10.22 10.95
11/1/2021 9:00:00 AM 10.71 51.278 0.093 7.16 7.2 10.97
11/1/2021 9:15:00 AM 10.7 51.26 0.093 7.16 9.91 10.99
11/1/2021 9:30:00 AM 10.71 51.278 0.093 7.17 9.66 11.01
11/1/2021 9:45:00 AM 10.73 51.314 0.093 7.18 8.21 11.04
11/1/2021 10:00:00 AM 10.73 51.314 0.093 7.19 5.99 11.06
11/1/2021 10:15:00 AM 10.75 51.35 0.093 7.2 9.81 11.08
11/1/2021 10:30:00 AM 10.76 51.368 0.093 7.2 6.11 11.1
11/1/2021 10:45:00 AM 10.75 51.35 0.093 7.21 9.31 11.11
11/1/2021 11:00:00 AM 10.77 51.386 0.094 7.21 7.05 11.13
11/1/2021 11:15:00 AM 10.83 51.494 0.093 7.23 6.43 11.14
11/1/2021 11:30:00 AM 10.83 51.494 0.094 7.23 8.81 11.15
11/1/2021 11:45:00 AM 10.85 51.53 0.093 7.24 9.06 11.17
11/1/2021 12:00:00 PM 10.9 51.62 0.094 7.25 9.31 11.18
11/1/2021 12:15:00 PM 10.96 51.728 0.093 7.25 9.67 11.18
11/1/2021 12:30:00 PM 10.98 51.764 0.094 7.26 9.34 11.18
11/1/2021 12:45:00 PM 11.02 51.836 0.094 7.26 9.77 11.19
11/1/2021 1:00:00 PM 11.09 51.962 0.094 7.27 9.14 11.18
11/1/2021 1:15:00 PM 11.09 51.962 0.094 7.28 9.65 11.18
11/1/2021 1:30:00 PM 11.13 52.034 0.094 7.28 11.48 11.17
11/1/2021 1:45:00 PM 11.2 52.16 0.093 7.28 9.73 11.16
11/1/2021 2:00:00 PM 11.22 52.196 0.093 7.29 9.06 11.16
11/1/2021 2:15:00 PM 11.22 52.196 0.094 7.3 24.43 11.15
11/1/2021 2:30:00 PM 11.2 52.16 0.094 7.28 4.82 11.15
11/1/2021 2:45:00 PM 11.22 52.196 0.094 7.29 10.82 11.16
11/1/2021 3:00:00 PM 11.22 52.196 0.092 7.29 5.26 11.16
11/1/2021 3:15:00 PM 11.22 52.196 0.092 7.3 10.52 11.16
11/1/2021 3:30:00 PM 11.19 52.142 0.081 7.3 10.04 11.16
11/1/2021 3:45:00 PM 11.19 52.142 0.094 7.3 10.18 11.15
11/1/2021 4:00:00 PM 11.19 52.142 0.094 7.3 10.32 11.14
11/1/2021 4:15:00 PM 11.19 52.142 0.094 7.3 9.85 11.12
11/1/2021 4:30:00 PM 11.19 52.142 0.094 7.29 10.04 11.1
11/1/2021 4:45:00 PM 11.2 52.16 0.094 7.29 9.71 11.08
11/1/2021 5:00:00 PM 11.2 52.16 0.094 7.28 10.13 11.05
11/1/2021 5:15:00 PM 11.2 52.16 0.094 7.28 9.8 11.03
11/1/2021 5:30:00 PM 11.18 52.124 0.094 7.27 10.09 11.02
11/1/2021 5:45:00 PM 11.16 52.088 0.094 7.26 9.95 11.01
11/1/2021 6:00:00 PM 11.11 51.998 0.094 7.25 10.37 10.99
11/1/2021 6:15:00 PM 11.05 51.89 0.094 7.24 10.37 10.99
11/1/2021 6:30:00 PM 10.99 51.782 0.094 7.23 10.26 10.99
11/1/2021 6:45:00 PM 10.94 51.692 0.094 7.22 10.22 10.99
11/1/2021 7:00:00 PM 10.88 51.584 0.095 7.22 10.21 11
11/1/2021 7:15:00 PM 10.82 51.476 0.095 7.21 10.55 11
11/1/2021 7:30:00 PM 10.76 51.368 0.095 7.2 10.25 11.01
11/1/2021 7:45:00 PM 10.7 51.26 0.095 7.19 10.47 11.02
11/1/2021 8:00:00 PM 10.65 51.17 0.095 7.18 10.28 11.03
11/1/2021 8:15:00 PM 10.59 51.062 0.095 7.18 10.47 11.04
11/1/2021 8:30:00 PM 10.54 50.972 0.095 7.17 10.54 11.05
11/1/2021 8:45:00 PM 10.49 50.882 0.095 7.16 10.42 11.06
11/1/2021 9:00:00 PM 10.44 50.792 0.095 7.16 10.75 11.07
11/1/2021 9:15:00 PM 10.38 50.684 0.095 7.15 10.42 11.09
11/1/2021 9:30:00 PM 10.32 50.576 0.095 7.15 10.27 11.1
11/1/2021 9:45:00 PM 10.27 50.486 0.095 7.14 10.48 11.11
11/1/2021 10:00:00 PM 10.22 50.396 0.095 7.14 10.27 11.13
11/1/2021 10:15:00 PM 10.16 50.288 0.095 7.14 10.65 11.13
11/1/2021 10:30:00 PM 10.11 50.198 0.095 7.13 10.49 11.15
11/1/2021 10:45:00 PM 10.05 50.09 0.095 7.13 10.1 11.16
11/1/2021 11:00:00 PM 10 50 0.095 7.13 10.46 11.18
11/1/2021 11:15:00 PM 9.95 49.91 0.095 7.12 10.31 11.19
11/1/2021 11:30:00 PM 9.91 49.838 0.095 7.13 9.99 11.2
11/1/2021 11:45:00 PM 9.86 49.748 0.095 7.12 10.06 11.21
11/2/2021 12:00:00 AM 9.81 49.658 0.096 7.12 9.8 11.23
11/2/2021 12:15:00 AM 9.76 49.568 0.096 7.12 10.3 11.24
11/2/2021 12:30:00 AM 9.72 49.496 0.096 7.12 10.18 11.25
11/2/2021 12:45:00 AM 9.69 49.442 0.096 7.11 10.72 11.26
11/2/2021 1:00:00 AM 9.66 49.388 0.096 7.12 10.11 11.27
11/2/2021 1:15:00 AM 9.63 49.334 0.096 7.12 10.02 11.28
11/2/2021 1:30:00 AM 9.6 49.28 0.096 7.12 9.65 11.29
11/2/2021 1:45:00 AM 9.57 49.226 0.096 7.12 10.01 11.3
11/2/2021 2:00:00 AM 9.55 49.19 0.096 7.12 10.52 11.3
11/2/2021 2:15:00 AM 9.52 49.136 0.096 7.12 9.54 11.3
11/2/2021 2:30:00 AM 9.5 49.1 0.096 7.12 10.09 11.31
11/2/2021 2:45:00 AM 9.48 49.064 0.096 7.13 9.57 11.32
11/2/2021 3:00:00 AM 9.46 49.028 0.096 7.12 9.9 11.32
11/2/2021 3:15:00 AM 9.44 48.992 0.096 7.13 9.71 11.33
11/2/2021 3:30:00 AM 9.42 48.956 0.096 7.13 9.87 11.34
11/2/2021 3:45:00 AM 9.4 48.92 0.096 7.13 10.25 11.34
11/2/2021 4:00:00 AM 9.38 48.884 0.096 7.13 9.86 11.35
11/2/2021 4:15:00 AM 9.36 48.848 0.096 7.13 9.99 11.35
11/2/2021 4:30:00 AM 9.34 48.812 0.096 7.14 9.29 11.36
11/2/2021 4:45:00 AM 9.33 48.794 0.096 7.14 9.58 11.36
11/2/2021 5:00:00 AM 9.31 48.758 0.096 7.14 9.61 11.37
11/2/2021 5:15:00 AM 9.3 48.74 0.096 7.14 9.18 11.37
11/2/2021 5:30:00 AM 9.28 48.704 0.096 7.14 9.34 11.38
11/2/2021 5:45:00 AM 9.27 48.686 0.096 7.14 9.67 11.38
11/2/2021 6:00:00 AM 9.25 48.65 0.097 7.14 9.15 11.39
11/2/2021 6:15:00 AM 9.23 48.614 0.096 7.14 9.49 11.39
11/2/2021 6:30:00 AM 9.21 48.578 0.096 7.14 9.27 11.4
11/2/2021 6:45:00 AM 9.2 48.56 0.096 7.15 8.89 11.4
11/2/2021 7:00:00 AM 9.19 48.542 0.097 7.15 9.15 11.4
11/2/2021 7:15:00 AM 9.18 48.524 0.096 7.14 9.3 11.4
11/2/2021 7:30:00 AM 9.16 48.488 0.096 7.15 9.76 11.41
11/2/2021 7:45:00 AM 9.16 48.488 0.096 7.15 9.46 11.42
11/2/2021 8:00:00 AM 9.15 48.47 0.096 7.15 9.56 11.42
11/2/2021 8:15:00 AM 9.15 48.47 0.096 7.15 10.04 11.43
11/2/2021 8:30:00 AM 9.15 48.47 0.097 7.16 9.99 11.44
11/2/2021 8:45:00 AM 9.15 48.47 0.096 7.17 9.75 11.45
11/2/2021 9:00:00 AM 9.16 48.488 0.096 7.17 9.67 11.47
11/2/2021 9:15:00 AM 9.17 48.506 0.097 7.18 9.63 11.5
11/2/2021 9:30:00 AM 9.19 48.542 0.096 7.19 8.96 11.52
11/2/2021 9:45:00 AM 9.23 48.614 0.097 7.2 8.7 11.54
11/2/2021 10:00:00 AM 9.26 48.668 0.096 7.22 9.57 11.57
11/2/2021 10:15:00 AM 9.28 48.704 0.096 7.23 9.21 11.58
11/2/2021 10:30:00 AM 9.29 48.722 0.096 7.24 9.1 11.59
11/2/2021 10:45:00 AM 9.32 48.776 0.096 7.26 9 11.6
11/2/2021 11:00:00 AM 9.34 48.812 0.096 7.27 9.39 11.62
11/2/2021 11:15:00 AM 9.38 48.884 0.096 7.28 8.91 11.63
11/2/2021 11:30:00 AM 9.44 48.992 0.096 7.3 9.25 11.65
11/2/2021 11:45:00 AM 9.5 49.1 0.096 7.31 9.27 11.65
11/2/2021 12:00:00 PM 9.55 49.19 0.096 7.32 8.56 11.65
11/2/2021 12:15:00 PM 9.6 49.28 0.096 7.33 9.01 11.65
11/2/2021 12:30:00 PM 9.61 49.298 0.096 7.34 9.24 11.65
11/2/2021 12:45:00 PM 9.64 49.352 0.096 7.35 8.75 11.64
11/2/2021 1:00:00 PM 9.69 49.442 0.096 7.36 8.75 11.65
11/2/2021 1:15:00 PM 9.73 49.514 0.096 7.37 8.95 11.65
11/2/2021 1:30:00 PM 9.75 49.55 0.096 7.37 8.7 11.63
11/2/2021 1:45:00 PM 9.76 49.568 0.096 7.37 8.9 11.62
11/2/2021 2:00:00 PM 9.75 49.55 0.097 7.37 8.9 11.62
11/2/2021 2:15:00 PM 9.75 49.55 0.097 7.37 7.49 11.61
11/2/2021 2:30:00 PM 9.77 49.586 0.097 7.38 8.68 11.61
11/2/2021 2:45:00 PM 9.8 49.64 0.097 7.38 8.62 11.61
11/2/2021 3:00:00 PM 9.83 49.694 0.097 7.39 8.65 11.61
11/2/2021 3:15:00 PM 9.85 49.73 0.097 7.39 8.46 11.6
11/2/2021 3:30:00 PM 9.87 49.766 0.097 7.39 9.38 11.59
11/2/2021 3:45:00 PM 9.87 49.766 0.097 7.39 8.71 11.56
11/2/2021 4:00:00 PM 9.85 49.73 0.097 7.38 8.36 11.52
11/2/2021 4:15:00 PM 9.83 49.694 0.097 7.36 8.54 11.49
11/2/2021 4:30:00 PM 9.81 49.658 0.097 7.35 8.72 11.46
11/2/2021 4:45:00 PM 9.8 49.64 0.096 7.34 8.87 11.44
11/2/2021 5:00:00 PM 9.79 49.622 0.097 7.33 8.52 11.43
11/2/2021 5:15:00 PM 9.78 49.604 0.097 7.32 9.22 11.42
11/2/2021 5:30:00 PM 9.76 49.568 0.097 7.31 8.96 11.41
11/2/2021 5:45:00 PM 9.73 49.514 0.097 7.3 8.98 11.4
11/2/2021 6:00:00 PM 9.69 49.442 0.097 7.29 8.73 11.38
11/2/2021 6:15:00 PM 9.65 49.37 0.097 7.28 8.87 11.38
11/2/2021 6:30:00 PM 9.6 49.28 0.097 7.27 8.88 11.37
11/2/2021 6:45:00 PM 9.55 49.19 0.097 7.26 8.85 11.37
11/2/2021 7:00:00 PM 9.49 49.082 0.097 7.26 8.88 11.38
11/2/2021 7:15:00 PM 9.44 48.992 0.097 7.25 9.05 11.39
11/2/2021 7:30:00 PM 9.42 48.956 0.097 7.24 9.77 11.39
11/2/2021 7:45:00 PM 9.4 48.92 0.097 7.24 9.44 11.39
11/2/2021 8:00:00 PM 9.37 48.866 0.097 7.23 9.85 11.4
11/2/2021 8:15:00 PM 9.34 48.812 0.097 7.23 9.56 11.41
11/2/2021 8:30:00 PM 9.31 48.758 0.097 7.22 9.47 11.41
11/2/2021 8:45:00 PM 9.27 48.686 0.097 7.22 8.77 11.42
11/2/2021 9:00:00 PM 9.22 48.596 0.098 7.22 9.54 11.43
11/2/2021 9:15:00 PM 9.18 48.524 0.098 7.21 9.56 11.44
11/2/2021 9:30:00 PM 9.13 48.434 0.098 7.21 8.9 11.45
11/2/2021 9:45:00 PM 9.09 48.362 0.098 7.2 8.94 11.46
11/2/2021 10:00:00 PM 9.05 48.29 0.098 7.19 8.87 11.47
11/2/2021 10:15:00 PM 8.99 48.182 0.098 7.19 9.25 11.48
11/2/2021 10:30:00 PM 8.94 48.092 0.098 7.19 9.29 11.49
11/2/2021 10:45:00 PM 8.87 47.966 0.098 7.18 9.75 11.51
11/2/2021 11:00:00 PM 8.81 47.858 0.098 7.18 9.66 11.52
11/2/2021 11:15:00 PM 8.75 47.75 0.098 7.17 9.55 11.54
11/2/2021 11:30:00 PM 8.68 47.624 0.098 7.17 9.46 11.55
11/2/2021 11:45:00 PM 8.62 47.516 0.099 7.17 8.92 11.57
11/3/2021 12:00:00 AM 8.55 47.39 0.098 7.16 9.43 11.59
11/3/2021 12:15:00 AM 8.49 47.282 0.098 7.16 9.51 11.61
11/3/2021 12:30:00 AM 8.43 47.174 0.098 7.16 9.08 11.62
11/3/2021 12:45:00 AM 8.37 47.066 0.098 7.16 9.32 11.64
11/3/2021 1:00:00 AM 8.3 46.94 0.098 7.15 8.96 11.66
11/3/2021 1:15:00 AM 8.24 46.832 0.098 7.15 9.4 11.68
11/3/2021 1:30:00 AM 8.18 46.724 0.099 7.15 9.46 11.69
11/3/2021 1:45:00 AM 8.13 46.634 0.099 7.15 9.49 11.7
11/3/2021 2:00:00 AM 8.07 46.526 0.098 7.15 9.4 11.72
11/3/2021 2:15:00 AM 8.01 46.418 0.098 7.15 9.44 11.74
11/3/2021 2:30:00 AM 7.96 46.328 0.098 7.14 9.56 11.75
11/3/2021 2:45:00 AM 7.9 46.22 0.099 7.14 9.4 11.77
11/3/2021 3:00:00 AM 7.85 46.13 0.099 7.14 9.19 11.79
11/3/2021 3:15:00 AM 7.8 46.04 0.099 7.14 9.61 11.8
11/3/2021 3:30:00 AM 7.75 45.95 0.099 7.14 9.47 11.82
11/3/2021 3:45:00 AM 7.71 45.878 0.099 7.14 10.06 11.83
11/3/2021 4:00:00 AM 7.67 45.806 0.099 7.15 9.15 11.85
11/3/2021 4:15:00 AM 7.62 45.716 0.099 7.14 9 11.86
11/3/2021 4:30:00 AM 7.58 45.644 0.099 7.14 9.18 11.87
11/3/2021 4:45:00 AM 7.53 45.554 0.099 7.14 9.15 11.88
11/3/2021 5:00:00 AM 7.49 45.482 0.099 7.14 9.08 11.9
11/3/2021 5:15:00 AM 7.45 45.41 0.099 7.14 8.91 11.91
11/3/2021 5:30:00 AM 7.41 45.338 0.099 7.14 8.77 11.92
11/3/2021 5:45:00 AM 7.38 45.284 0.099 7.15 8.88 11.93
11/3/2021 6:00:00 AM 7.35 45.23 0.099 7.15 8.95 11.94
11/3/2021 6:15:00 AM 7.31 45.158 0.099 7.15 8.58 11.95
11/3/2021 6:30:00 AM 7.27 45.086 0.099 7.15 9.07 11.97
11/3/2021 6:45:00 AM 7.22 44.996 0.099 7.15 8.85 11.98
11/3/2021 7:00:00 AM 7.18 44.924 0.099 7.15 9 11.99
11/3/2021 7:15:00 AM 7.13 44.834 0.099 7.15 8.66 12.01
11/3/2021 7:30:00 AM 7.09 44.762 0.099 7.15 9.06 12.02
11/3/2021 7:45:00 AM 7.05 44.69 0.099 7.15 8.5 12.04
11/3/2021 8:00:00 AM 7.02 44.636 0.099 7.15 8.94 12.06
11/3/2021 8:15:00 AM 7 44.6 0.099 7.16 8.84 12.09
11/3/2021 8:30:00 AM 6.99 44.582 0.099 7.17 8.9 12.12
11/3/2021 8:45:00 AM 7 44.6 0.099 7.18 9.09 12.16
11/3/2021 9:00:00 AM 7.01 44.618 0.099 7.2 8.63 12.19
11/3/2021 9:15:00 AM 7.01 44.618 0.099 7.2 9.03 12.2
11/3/2021 9:30:00 AM 6.99 44.582 0.099 7.21 8.67 12.21
11/3/2021 9:45:00 AM 7 44.6 0.099 7.22 8.96 12.23
11/3/2021 10:00:00 AM 7.05 44.69 0.099 7.23 8.86 12.25
11/3/2021 10:15:00 AM 7.1 44.78 0.099 7.25 9.19 12.26
11/3/2021 10:30:00 AM 7.14 44.852 0.099 7.26 8.42 12.27
11/3/2021 10:45:00 AM 7.17 44.906 0.099 7.28 8.78 12.27
11/3/2021 11:00:00 AM 7.23 45.014 0.099 7.29 8.61 12.28
11/3/2021 11:15:00 AM 7.27 45.086 0.099 7.31 8.51 12.28
11/3/2021 11:30:00 AM 7.29 45.122 0.099 7.32 9.07 12.29
11/3/2021 11:45:00 AM 7.37 45.266 0.099 7.34 8.86 12.3
11/3/2021 12:00:00 PM 7.44 45.392 0.099 7.35 8.61 12.3
11/3/2021 12:15:00 PM 7.49 45.482 0.099 7.36 8.36 12.3
11/3/2021 12:30:00 PM 7.54 45.572 0.098 7.37 9.01 12.29
11/3/2021 12:45:00 PM 7.58 45.644 0.098 7.38 9.54 12.28
11/3/2021 1:00:00 PM 7.65 45.77 0.098 7.39 8.33 12.28
11/3/2021 1:15:00 PM 7.67 45.806 0.098 7.39 8.87 12.26
11/3/2021 1:30:00 PM 7.69 45.842 0.098 7.4 8.64 12.27
11/3/2021 1:45:00 PM 7.71 45.878 0.099 7.4 8.46 12.26
11/3/2021 2:00:00 PM 7.76 45.968 0.098 7.41 8.3 12.26
11/3/2021 2:15:00 PM 7.84 46.112 0.098 7.41 8.59 12.25
11/3/2021 2:30:00 PM 7.87 46.166 0.099 7.41 8.65 12.22
11/3/2021 2:45:00 PM 7.9 46.22 0.098 7.42 8.66 12.22
11/3/2021 3:00:00 PM 7.95 46.31 0.098 7.42 8.06 12.22
11/3/2021 3:15:00 PM 7.99 46.382 0.098 7.42 8.6 12.2
11/3/2021 3:30:00 PM 8.02 46.436 0.098 7.42 8.25 12.18
11/3/2021 3:45:00 PM 7.99 46.382 0.099 7.42 8.65 12.15
11/3/2021 4:00:00 PM 7.95 46.31 0.098 7.4 9.04 12.12
11/3/2021 4:15:00 PM 7.92 46.256 0.099 7.38 8.44 12.09
11/3/2021 4:30:00 PM 7.89 46.202 0.099 7.38 8.4 12.08
11/3/2021 4:45:00 PM 7.9 46.22 0.099 7.37 8.59 12.08
11/3/2021 5:00:00 PM 7.9 46.22 0.099 7.37 8.68 12.07
11/3/2021 5:15:00 PM 7.91 46.238 0.099 7.36 8.92 12.04
11/3/2021 5:30:00 PM 7.89 46.202 0.099 7.35 8.56 12.02
11/3/2021 5:45:00 PM 7.88 46.184 0.099 7.34 8.56 12
11/3/2021 6:00:00 PM 7.87 46.166 0.099 7.32 8.73 11.97
11/3/2021 6:15:00 PM 7.84 46.112 0.099 7.32 8.51 11.95
11/3/2021 6:30:00 PM 7.81 46.058 0.099 7.3 8.7 11.94
11/3/2021 6:45:00 PM 7.78 46.004 0.099 7.29 8.54 11.93
11/3/2021 7:00:00 PM 7.75 45.95 0.099 7.29 8.89 11.93
11/3/2021 7:15:00 PM 7.73 45.914 0.099 7.28 9.25 11.93
11/3/2021 7:30:00 PM 7.7 45.86 0.099 7.27 8.97 11.94
11/3/2021 7:45:00 PM 7.67 45.806 0.099 7.27 9.17 11.94
11/3/2021 8:00:00 PM 7.63 45.734 0.099 7.26 8.64 11.94
11/3/2021 8:15:00 PM 7.6 45.68 0.099 7.26 8.38 11.95
11/3/2021 8:30:00 PM 7.55 45.59 0.099 7.25 8.69 11.95
11/3/2021 8:45:00 PM 7.51 45.518 0.099 7.25 8.57 11.97
11/3/2021 9:00:00 PM 7.48 45.464 0.099 7.24 8.83 11.98
11/3/2021 9:15:00 PM 7.45 45.41 0.099 7.24 8.88 11.98
11/3/2021 9:30:00 PM 7.42 45.356 0.1 7.24 8.73 11.99
11/3/2021 9:45:00 PM 7.38 45.284 0.1 7.24 8.6 12
11/3/2021 10:00:00 PM 7.35 45.23 0.1 7.23 8.83 12.01
11/3/2021 10:15:00 PM 7.32 45.176 0.1 7.22 8.49 12.02
11/3/2021 10:30:00 PM 7.28 45.104 0.1 7.22 8.53 12.03
11/3/2021 10:45:00 PM 7.23 45.014 0.1 7.22 8.6 12.04
11/3/2021 11:00:00 PM 7.17 44.906 0.1 7.21 8.75 12.06
11/3/2021 11:15:00 PM 7.12 44.816 0.1 7.21 8.76 12.07
11/3/2021 11:30:00 PM 7.08 44.744 0.1 7.2 8.78 12.09
11/3/2021 11:45:00 PM 7.02 44.636 0.1 7.2 9.19 12.1
11/4/2021 12:00:00 AM 6.96 44.528 0.1 7.19 8.47 12.11
11/4/2021 12:15:00 AM 6.9 44.42 0.1 7.19 8.45 12.13
11/4/2021 12:30:00 AM 6.84 44.312 0.1 7.19 8.71 12.15
11/4/2021 12:45:00 AM 6.78 44.204 0.1 7.18 8.72 12.17
11/4/2021 1:00:00 AM 6.72 44.096 0.1 7.18 8.3 12.19
11/4/2021 1:15:00 AM 6.67 44.006 0.101 7.18 8.25 12.2
11/4/2021 1:30:00 AM 6.61 43.898 0.101 7.17 8.76 12.22
11/4/2021 1:45:00 AM 6.56 43.808 0.101 7.17 9.05 12.24
11/4/2021 2:00:00 AM 6.51 43.718 0.101 7.17 8.56 12.25
11/4/2021 2:15:00 AM 6.46 43.628 0.101 7.17 8.27 12.27
11/4/2021 2:30:00 AM 6.41 43.538 0.101 7.17 8.87 12.28
11/4/2021 2:45:00 AM 6.36 43.448 0.101 7.17 8.54 12.3
11/4/2021 3:00:00 AM 6.31 43.358 0.101 7.16 8.8 12.31
11/4/2021 3:15:00 AM 6.26 43.268 0.101 7.16 8.63 12.33
11/4/2021 3:30:00 AM 6.2 43.16 0.101 7.16 8.76 12.34
11/4/2021 3:45:00 AM 6.15 43.07 0.101 7.16 7.6 12.36
11/4/2021 4:00:00 AM 6.1 42.98 0.101 7.16 8.48 12.38
11/4/2021 4:15:00 AM 6.04 42.872 0.101 7.16 8.11 12.4
11/4/2021 4:30:00 AM 5.99 42.782 0.101 7.16 8.4 12.41
11/4/2021 4:45:00 AM 5.95 42.71 0.101 7.16 8.41 12.42
11/4/2021 5:00:00 AM 5.9 42.62 0.101 7.16 8.56 12.44
11/4/2021 5:15:00 AM 5.86 42.548 0.101 7.15 8.11 12.46
11/4/2021 5:30:00 AM 5.82 42.476 0.101 7.16 8.07 12.47
11/4/2021 5:45:00 AM 5.78 42.404 0.101 7.16 8.26 12.48
11/4/2021 6:00:00 AM 5.74 42.332 0.101 7.16 8.01 12.5
11/4/2021 6:15:00 AM 5.69 42.242 0.101 7.15 8.4 12.51
11/4/2021 6:30:00 AM 5.64 42.152 0.101 7.15 8.02 12.53
11/4/2021 6:45:00 AM 5.6 42.08 0.101 7.15 7.87 12.55
11/4/2021 7:00:00 AM 5.56 42.008 0.101 7.15 8.21 12.55
11/4/2021 7:15:00 AM 5.52 41.936 0.101 7.15 8.4 12.56
11/4/2021 7:30:00 AM 5.48 41.864 0.101 7.16 8.31 12.58
11/4/2021 7:45:00 AM 5.43 41.774 0.101 7.15 8.52 12.6
11/4/2021 8:00:00 AM 5.4 41.72 0.101 7.16 8.75 12.61
11/4/2021 8:15:00 AM 5.36 41.648 0.101 7.16 8.8 12.64
11/4/2021 8:30:00 AM 5.33 41.594 0.101 7.17 8.27 12.67
11/4/2021 8:45:00 AM 5.3 41.54 0.101 7.17 7.48 12.7
11/4/2021 9:00:00 AM 5.29 41.522 0.101 7.19 8.13 12.74
11/4/2021 9:15:00 AM 5.29 41.522 0.101 7.2 8.15 12.77
11/4/2021 9:30:00 AM 5.31 41.558 0.101 7.21 8.16 12.81
11/4/2021 9:45:00 AM 5.34 41.612 0.101 7.23 7.95 12.83
11/4/2021 10:00:00 AM 5.39 41.702 0.101 7.24 7.66 12.84
11/4/2021 10:15:00 AM 5.44 41.792 0.101 7.26 8.06 12.84
11/4/2021 10:30:00 AM 5.5 41.9 0.101 7.27 7.97 12.85
11/4/2021 10:45:00 AM 5.56 42.008 0.101 7.28 7.98 12.85
11/4/2021 11:00:00 AM 5.63 42.134 0.101 7.29 8.24 12.85
11/4/2021 11:15:00 AM 5.71 42.278 0.101 7.31 8.23 12.84
11/4/2021 11:30:00 AM 5.79 42.422 0.101 7.33 8.27 12.83
11/4/2021 11:45:00 AM 5.87 42.566 0.101 7.34 8.54 12.81
11/4/2021 12:00:00 PM 5.96 42.728 0.101 7.35 8.37 12.8
11/4/2021 12:15:00 PM 6.04 42.872 0.101 7.36 7.97 12.78
11/4/2021 12:30:00 PM 6.12 43.016 0.101 7.37 8.32 12.77
11/4/2021 12:45:00 PM 6.2 43.16 0.101 7.38 8.07 12.76
11/4/2021 1:00:00 PM 6.3 43.34 0.101 7.39 8.14 12.75
11/4/2021 1:15:00 PM 6.39 43.502 0.1 7.4 8.12 12.73
11/4/2021 1:30:00 PM 6.47 43.646 0.101 7.41 7.89 12.71
11/4/2021 1:45:00 PM 6.53 43.754 0.101 7.42 7.82 12.7
11/4/2021 2:00:00 PM 6.58 43.844 0.1 7.43 7.8 12.69
11/4/2021 2:15:00 PM 6.63 43.934 0.1 7.44 7.69 12.68
11/4/2021 2:30:00 PM 6.68 44.024 0.1 7.44 8.05 12.66
11/4/2021 2:45:00 PM 6.71 44.078 0.1 7.45 7.79 12.66
11/4/2021 3:00:00 PM 6.72 44.096 0.101 7.45 8.34 12.64
11/4/2021 3:15:00 PM 6.74 44.132 0.1 7.46 7.65 12.64
11/4/2021 3:30:00 PM 6.76 44.168 0.1 7.46 7.91 12.62
11/4/2021 3:45:00 PM 6.8 44.24 0.101 7.46 8.47 12.6
11/4/2021 4:00:00 PM 6.84 44.312 0.1 7.46 8.16 12.59
11/4/2021 4:15:00 PM 6.88 44.384 0.1 7.45 8.17 12.57
11/4/2021 4:30:00 PM 6.92 44.456 0.1 7.46 8.06 12.53
11/4/2021 4:45:00 PM 6.96 44.528 0.1 7.45 8.32 12.49
11/4/2021 5:00:00 PM 7 44.6 0.1 7.44 7.87 12.45
11/4/2021 5:15:00 PM 7.03 44.654 0.101 7.43 8.08 12.4
11/4/2021 5:30:00 PM 7.05 44.69 0.1 7.42 8.36 12.36
11/4/2021 5:45:00 PM 7.05 44.69 0.101 7.4 8.11 12.32
11/4/2021 6:00:00 PM 7.05 44.69 0.101 7.39 7.58 12.28
11/4/2021 6:15:00 PM 7.04 44.672 0.101 7.37 8.01 12.25
11/4/2021 6:30:00 PM 7.03 44.654 0.101 7.35 8.65 12.22
11/4/2021 6:45:00 PM 7 44.6 0.101 7.34 8.2 12.2
11/4/2021 7:00:00 PM 6.99 44.582 0.101 7.33 8.46 12.19
11/4/2021 7:15:00 PM 6.96 44.528 0.101 7.32 8.38 12.18
11/4/2021 7:30:00 PM 6.93 44.474 0.101 7.32 8.45 12.19
11/4/2021 7:45:00 PM 6.89 44.402 0.101 7.31 8.74 12.19
11/4/2021 8:00:00 PM 6.85 44.33 0.101 7.3 8.22 12.19
11/4/2021 8:15:00 PM 6.8 44.24 0.101 7.29 8.35 12.21
11/4/2021 8:30:00 PM 6.75 44.15 0.101 7.29 8.29 12.22
11/4/2021 8:45:00 PM 6.7 44.06 0.101 7.28 8.41 12.22
11/4/2021 9:00:00 PM 6.65 43.97 0.101 7.27 8.62 12.23
11/4/2021 9:15:00 PM 6.6 43.88 0.102 7.27 8.3 12.24
11/4/2021 9:30:00 PM 6.55 43.79 0.102 7.27 8.18 12.25
11/4/2021 9:45:00 PM 6.51 43.718 0.102 7.26 8.53 12.26
11/4/2021 10:00:00 PM 6.46 43.628 0.102 7.25 8.32 12.27
11/4/2021 10:15:00 PM 6.42 43.556 0.102 7.25 8.71 12.29
11/4/2021 10:30:00 PM 6.37 43.466 0.102 7.24 8.22 12.29
11/4/2021 10:45:00 PM 6.33 43.394 0.102 7.24 8.53 12.31
11/4/2021 11:00:00 PM 6.28 43.304 0.102 7.23 8.13 12.32
11/4/2021 11:15:00 PM 6.24 43.232 0.102 7.23 8.32 12.33
11/4/2021 11:30:00 PM 6.2 43.16 0.102 7.22 8.03 12.35
11/4/2021 11:45:00 PM 6.15 43.07 0.102 7.22 8.44 12.36
11/5/2021 12:00:00 AM 6.11 42.998 0.102 7.21 8.2 12.37
11/5/2021 12:15:00 AM 6.06 42.908 0.102 7.21 7.98 12.38
11/5/2021 12:30:00 AM 6.01 42.818 0.102 7.21 8.18 12.4
11/5/2021 12:45:00 AM 5.96 42.728 0.102 7.2 8.96 12.41
11/5/2021 1:00:00 AM 5.91 42.638 0.102 7.2 8.17 12.42
11/5/2021 1:15:00 AM 5.86 42.548 0.102 7.2 8.51 12.45
11/5/2021 1:30:00 AM 5.81 42.458 0.103 7.2 7.94 12.45
11/5/2021 1:45:00 AM 5.75 42.35 0.102 7.19 8.2 12.48
11/5/2021 2:00:00 AM 5.7 42.26 0.103 7.19 8.61 12.49
11/5/2021 2:15:00 AM 5.65 42.17 0.103 7.19 8.75 12.51
11/5/2021 2:30:00 AM 5.59 42.062 0.103 7.19 8.6 12.54
11/5/2021 2:45:00 AM 5.53 41.954 0.103 7.19 8.28 12.55
11/5/2021 3:00:00 AM 5.47 41.846 0.103 7.18 8.15 12.57
11/5/2021 3:15:00 AM 5.42 41.756 0.103 7.18 8.06 12.57
11/5/2021 3:30:00 AM 5.36 41.648 0.103 7.18 8.51 12.6
11/5/2021 3:45:00 AM 5.31 41.558 0.103 7.18 8.17 12.63
11/5/2021 4:00:00 AM 5.25 41.45 0.103 7.18 8.61 12.64
11/5/2021 4:15:00 AM 5.2 41.36 0.103 7.17 8.06 12.66
11/5/2021 4:30:00 AM 5.14 41.252 0.103 7.17 8.41 12.68
11/5/2021 4:45:00 AM 5.09 41.162 0.103 7.17 7.92 12.7
11/5/2021 5:00:00 AM 5.04 41.072 0.103 7.17 8 12.71
11/5/2021 5:15:00 AM 4.98 40.964 0.103 7.17 8.14 12.73
11/5/2021 5:30:00 AM 4.93 40.874 0.103 7.17 8.33 12.75
11/5/2021 5:45:00 AM 4.88 40.784 0.104 7.16 7.94 12.77
11/5/2021 6:00:00 AM 4.84 40.712 0.103 7.16 8.14 12.79
11/5/2021 6:15:00 AM 4.8 40.64 0.103 7.17 7.97 12.8
11/5/2021 6:30:00 AM 4.76 40.568 0.103 7.17 8.02 12.82
11/5/2021 6:45:00 AM 4.73 40.514 0.103 7.17 8.1 12.84
11/5/2021 7:00:00 AM 4.7 40.46 0.103 7.17 8.77 12.85
11/5/2021 7:15:00 AM 4.68 40.424 0.103 7.18 8.22 12.86
11/5/2021 7:30:00 AM 4.65 40.37 0.103 7.18 8.21 12.87
11/5/2021 7:45:00 AM 4.62 40.316 0.103 7.18 8.61 12.89
11/5/2021 8:00:00 AM 4.59 40.262 0.103 7.19 7.83 12.91
11/5/2021 8:15:00 AM 4.56 40.208 0.103 7.19 8.13 12.94
11/5/2021 8:30:00 AM 4.54 40.172 0.103 7.2 8.11 12.97
11/5/2021 8:45:00 AM 4.52 40.136 0.103 7.2 8 13.02
11/5/2021 9:00:00 AM 4.52 40.136 0.103 7.21 7.65 13.07
11/5/2021 9:15:00 AM 4.51 40.118 0.103 7.23 7.47 13.1
11/5/2021 9:30:00 AM 4.52 40.136 0.103 7.24 7.52 13.14
11/5/2021 9:45:00 AM 4.56 40.208 0.103 7.26 7.92 13.17
11/5/2021 10:00:00 AM 4.6 40.28 0.103 7.27 7.59 13.18
11/5/2021 10:15:00 AM 4.64 40.352 0.103 7.28 8.12 13.19
11/5/2021 10:30:00 AM 4.67 40.406 0.103 7.29 7.81 13.19
11/5/2021 10:45:00 AM 4.7 40.46 0.103 7.3 7.77 13.19
11/5/2021 11:00:00 AM 4.75 40.55 0.103 7.31 7.87 13.19
11/5/2021 11:15:00 AM 4.82 40.676 0.103 7.32 7.82 13.19
11/5/2021 11:30:00 AM 4.9 40.82 0.103 7.32 7.82 13.17
11/5/2021 11:45:00 AM 4.99 40.982 0.103 7.34 7.82 13.16
11/5/2021 12:00:00 PM 5.08 41.144 0.103 7.35 8.27 13.14
11/5/2021 12:15:00 PM 5.19 41.342 0.103 7.35 8.04 13.12
11/5/2021 12:30:00 PM 5.29 41.522 0.102 7.36 7.5 13.1
11/5/2021 12:45:00 PM 5.4 41.72 0.102 7.37 8.15 13.08
11/5/2021 1:00:00 PM 5.51 41.918 0.102 7.38 7.93 13.04
11/5/2021 1:15:00 PM 5.63 42.134 0.102 7.39 8.48 13.02
11/5/2021 1:30:00 PM 5.76 42.368 0.102 7.4 7.73 12.98
11/5/2021 1:45:00 PM 5.88 42.584 0.102 7.41 8.64 12.95
11/5/2021 2:00:00 PM 5.95 42.71 0.102 7.42 7.76 12.9
11/5/2021 2:15:00 PM 6 42.8 0.102 7.41 7.81 12.88
11/5/2021 2:30:00 PM 6.02 42.836 0.102 7.41 7.73 12.85
11/5/2021 2:45:00 PM 6.04 42.872 0.102 7.41 8.08 12.83
11/5/2021 3:00:00 PM 6.06 42.908 0.102 7.41 7.86 12.82
11/5/2021 3:15:00 PM 6.06 42.908 0.102 7.41 7.71 12.8
11/5/2021 3:30:00 PM 6.06 42.908 0.102 7.41 8.11 12.79
11/5/2021 3:45:00 PM 6.05 42.89 0.102 7.41 7.91 12.77
11/5/2021 4:00:00 PM 6.03 42.854 0.102 7.4 7.69 12.76
11/5/2021 4:15:00 PM 6.04 42.872 0.103 7.4 7.92 12.74
11/5/2021 4:30:00 PM 6.04 42.872 0.102 7.39 7.88 12.72
11/5/2021 4:45:00 PM 6.03 42.854 0.102 7.39 7.46 12.7
11/5/2021 5:00:00 PM 6.04 42.872 0.103 7.38 7.8 12.68
11/5/2021 5:15:00 PM 6.06 42.908 0.102 7.37 7.64 12.65
11/5/2021 5:30:00 PM 6.08 42.944 0.102 7.36 8.05 12.61
11/5/2021 5:45:00 PM 6.11 42.998 0.103 7.35 7.99 12.58
11/5/2021 6:00:00 PM 6.13 43.034 0.103 7.34 8.44 12.54
11/5/2021 6:15:00 PM 6.15 43.07 0.103 7.33 7.63 12.51
11/5/2021 6:30:00 PM 6.16 43.088 0.102 7.32 8.37 12.48
11/5/2021 6:45:00 PM 6.18 43.124 0.103 7.32 8.04 12.47
11/5/2021 7:00:00 PM 6.18 43.124 0.103 7.31 8.42 12.45
11/5/2021 7:15:00 PM 6.18 43.124 0.103 7.31 8.3 12.44
11/5/2021 7:30:00 PM 6.17 43.106 0.103 7.3 7.72 12.44
11/5/2021 7:45:00 PM 6.15 43.07 0.103 7.3 8.09 12.43
11/5/2021 8:00:00 PM 6.13 43.034 0.103 7.3 8.28 12.44
11/5/2021 8:15:00 PM 6.1 42.98 0.103 7.29 8.4 12.44
11/5/2021 8:30:00 PM 6.07 42.926 0.103 7.29 8.42 12.44
11/5/2021 8:45:00 PM 6.03 42.854 0.103 7.28 8.33 12.45
11/5/2021 9:00:00 PM 5.98 42.764 0.103 7.28 8.07 12.46
11/5/2021 9:15:00 PM 5.94 42.692 0.103 7.28 8.03 12.48
11/5/2021 9:30:00 PM 5.89 42.602 0.103 7.27 8.3 12.48
11/5/2021 9:45:00 PM 5.84 42.512 0.103 7.27 8.06 12.5
11/5/2021 10:00:00 PM 5.79 42.422 0.103 7.26 8.14 12.51
11/5/2021 10:15:00 PM 5.75 42.35 0.104 7.26 8.08 12.53
11/5/2021 10:30:00 PM 5.7 42.26 0.103 7.26 8.21 12.55
11/5/2021 10:45:00 PM 5.64 42.152 0.103 7.26 8.43 12.56
11/5/2021 11:00:00 PM 5.59 42.062 0.103 7.25 8.89 12.58
11/5/2021 11:15:00 PM 5.53 41.954 0.104 7.25 8.52 12.6
11/5/2021 11:30:00 PM 5.47 41.846 0.104 7.25 8.67 12.6
11/5/2021 11:45:00 PM 5.41 41.738 0.104 7.25 8 12.63
11/6/2021 12:00:00 AM 5.36 41.648 0.104 7.24 8.13 12.65
11/6/2021 12:15:00 AM 5.3 41.54 0.104 7.24 8.1 12.67
11/6/2021 12:30:00 AM 5.25 41.45 0.104 7.23 8.82 12.68
11/6/2021 12:45:00 AM 5.2 41.36 0.104 7.23 8.12 12.7
11/6/2021 1:00:00 AM 5.14 41.252 0.104 7.22 7.89 12.72
11/6/2021 1:15:00 AM 5.09 41.162 0.104 7.22 8.47 12.74
11/6/2021 1:30:00 AM 5.04 41.072 0.104 7.22 8.16 12.75
11/6/2021 1:45:00 AM 4.99 40.982 0.104 7.21 8.42 12.77
11/6/2021 2:00:00 AM 4.94 40.892 0.104 7.21 8.19 12.78
11/6/2021 2:15:00 AM 4.88 40.784 0.104 7.21 8.17 12.8
11/6/2021 2:30:00 AM 4.83 40.694 0.104 7.2 8.48 12.82
11/6/2021 2:45:00 AM 4.78 40.604 0.104 7.2 8.18 12.84
11/6/2021 3:00:00 AM 4.73 40.514 0.104 7.2 8.03 12.86
11/6/2021 3:15:00 AM 4.67 40.406 0.104 7.2 7.99 12.88
11/6/2021 3:30:00 AM 4.62 40.316 0.104 7.2 8.6 12.9
11/6/2021 3:45:00 AM 4.57 40.226 0.104 7.19 8.24 12.91
11/6/2021 4:00:00 AM 4.51 40.118 0.104 7.19 7.78 12.94
11/6/2021 4:15:00 AM 4.46 40.028 0.104 7.19 8.45 12.96
11/6/2021 4:30:00 AM 4.4 39.92 0.104 7.19 8.58 12.97
11/6/2021 4:45:00 AM 4.35 39.83 0.104 7.19 8.72 12.99
11/6/2021 5:00:00 AM 4.29 39.722 0.105 7.19 7.99 13.02
11/6/2021 5:15:00 AM 4.23 39.614 0.104 7.18 8.57 13.03
11/6/2021 5:30:00 AM 4.18 39.524 0.105 7.18 8.08 13.06
11/6/2021 5:45:00 AM 4.13 39.434 0.105 7.18 8.04 13.08
11/6/2021 6:00:00 AM 4.07 39.326 0.105 7.18 8.42 13.09
11/6/2021 6:15:00 AM 4.02 39.236 0.105 7.18 8.35 13.11
11/6/2021 6:30:00 AM 3.97 39.146 0.104 7.18 8.33 13.13
11/6/2021 6:45:00 AM 3.92 39.056 0.104 7.18 8.11 13.15
11/6/2021 7:00:00 AM 3.87 38.966 0.105 7.18 8.55 13.16
11/6/2021 7:15:00 AM 3.83 38.894 0.104 7.18 7.96 13.18
11/6/2021 7:30:00 AM 3.78 38.804 0.105 7.18 8.28 13.2
11/6/2021 7:45:00 AM 3.73 38.714 0.105 7.18 8.21 13.21
11/6/2021 8:00:00 AM 3.69 38.642 0.105 7.18 8.04 13.24
11/6/2021 8:15:00 AM 3.66 38.588 0.105 7.18 7.86 13.28
11/6/2021 8:30:00 AM 3.62 38.516 0.105 7.19 7.87 13.31
11/6/2021 8:45:00 AM 3.6 38.48 0.105 7.2 8.27 13.34
11/6/2021 9:00:00 AM 3.58 38.444 0.105 7.2 7.99 13.38
11/6/2021 9:15:00 AM 3.57 38.426 0.105 7.21 7.76 13.41
11/6/2021 9:30:00 AM 3.58 38.444 0.105 7.23 8.09 13.44
11/6/2021 9:45:00 AM 3.61 38.498 0.105 7.24 7.9 13.47
11/6/2021 10:00:00 AM 3.66 38.588 0.104 7.26 8.01 13.48
11/6/2021 10:15:00 AM 3.73 38.714 0.104 7.27 7.66 13.49
11/6/2021 10:30:00 AM 3.79 38.822 0.104 7.28 7.65 13.5
11/6/2021 10:45:00 AM 3.85 38.93 0.104 7.29 7.88 13.5
11/6/2021 11:00:00 AM 3.93 39.074 0.104 7.31 8.28 13.49
11/6/2021 11:15:00 AM 4.02 39.236 0.104 7.32 8.06 13.49
11/6/2021 11:30:00 AM 4.12 39.416 0.104 7.33 8.22 13.47
11/6/2021 11:45:00 AM 4.22 39.596 0.104 7.34 8.54 13.45
11/6/2021 12:00:00 PM 4.33 39.794 0.104 7.35 7.96 13.42
11/6/2021 12:15:00 PM 4.45 40.01 0.105 7.37 8.13 13.4
11/6/2021 12:30:00 PM 4.57 40.226 0.104 7.38 8.09 13.37
11/6/2021 12:45:00 PM 4.69 40.442 0.104 7.39 8.12 13.33
11/6/2021 1:00:00 PM 4.81 40.658 0.104 7.4 7.75 13.3
11/6/2021 1:15:00 PM 4.94 40.892 0.104 7.41 7.97 13.26
11/6/2021 1:30:00 PM 5.06 41.108 0.104 7.42 8.08 13.23
11/6/2021 1:45:00 PM 5.19 41.342 0.104 7.43 7.89 13.18
11/6/2021 2:00:00 PM 5.29 41.522 0.104 7.44 7.96 13.15
11/6/2021 2:15:00 PM 5.37 41.666 0.104 7.44 8.11 13.11
11/6/2021 2:30:00 PM 5.45 41.81 0.104 7.45 7.68 13.07
11/6/2021 2:45:00 PM 5.5 41.9 0.104 7.45 7.86 13.04
11/6/2021 3:00:00 PM 5.54 41.972 0.104 7.45 8.39 13.01
11/6/2021 3:15:00 PM 5.56 42.008 0.104 7.45 8 12.99
11/6/2021 3:30:00 PM 5.56 42.008 0.104 7.45 7.87 12.96
11/6/2021 3:45:00 PM 5.56 42.008 0.104 7.45 7.84 12.96
11/6/2021 4:00:00 PM 5.55 41.99 0.104 7.44 7.72 12.94
11/6/2021 4:15:00 PM 5.54 41.972 0.104 7.44 7.92 12.91
11/6/2021 4:30:00 PM 5.53 41.954 0.104 7.43 8.25 12.9
11/6/2021 4:45:00 PM 5.51 41.918 0.104 7.43 7.72 12.88
11/6/2021 5:00:00 PM 5.5 41.9 0.104 7.42 7.99 12.85
11/6/2021 5:15:00 PM 5.5 41.9 0.104 7.41 8.04 12.83
11/6/2021 5:30:00 PM 5.5 41.9 0.104 7.4 8.11 12.8
11/6/2021 5:45:00 PM 5.52 41.936 0.104 7.39 8.18 12.76
11/6/2021 6:00:00 PM 5.53 41.954 0.105 7.37 7.54 12.72
11/6/2021 6:15:00 PM 5.55 41.99 0.104 7.36 7.77 12.69
11/6/2021 6:30:00 PM 5.57 42.026 0.104 7.35 7.89 12.66
11/6/2021 6:45:00 PM 5.59 42.062 0.104 7.35 8.11 12.63
11/6/2021 7:00:00 PM 5.61 42.098 0.104 7.34 8.45 12.62
11/6/2021 7:15:00 PM 5.62 42.116 0.104 7.33 8.33 12.59
11/6/2021 7:30:00 PM 5.62 42.116 0.104 7.33 8.23 12.59
11/6/2021 7:45:00 PM 5.62 42.116 0.104 7.32 8.45 12.58
11/6/2021 8:00:00 PM 5.61 42.098 0.104 7.31 8.19 12.56
11/6/2021 8:15:00 PM 5.58 42.044 0.104 7.31 8.93 12.57
11/6/2021 8:30:00 PM 5.55 41.99 0.104 7.3 8.94 12.58
11/6/2021 8:45:00 PM 5.52 41.936 0.104 7.3 8.24 12.58
11/6/2021 9:00:00 PM 5.49 41.882 0.104 7.29 8.34 12.59
11/6/2021 9:15:00 PM 5.45 41.81 0.104 7.29 8.46 12.58
11/6/2021 9:30:00 PM 5.41 41.738 0.104 7.29 8.7 12.6
11/6/2021 9:45:00 PM 5.37 41.666 0.104 7.29 8.13 12.61
11/6/2021 10:00:00 PM 5.34 41.612 0.105 7.28 8.48 12.63
11/6/2021 10:15:00 PM 5.3 41.54 0.104 7.28 8.56 12.63
11/6/2021 10:30:00 PM 5.25 41.45 0.105 7.27 8.59 12.65
11/6/2021 10:45:00 PM 5.21 41.378 0.105 7.27 8.02 12.66
11/6/2021 11:00:00 PM 5.16 41.288 0.105 7.27 8.48 12.67
11/6/2021 11:15:00 PM 5.12 41.216 0.105 7.26 8.46 12.68
11/6/2021 11:30:00 PM 5.07 41.126 0.105 7.26 8.61 12.7
11/6/2021 11:45:00 PM 5.02 41.036 0.105 7.26 7.97 12.72
11/7/2021 12:00:00 AM 4.97 40.946 0.105 7.26 7.86 12.73
11/7/2021 12:15:00 AM 4.91 40.838 0.105 7.26 7.94 12.75
11/7/2021 12:30:00 AM 4.86 40.748 0.105 7.25 8.32 12.76
11/7/2021 12:45:00 AM 4.81 40.658 0.105 7.25 8.16 12.78
11/7/2021 1:00:00 AM 4.76 40.568 0.105 7.24 8.47 12.8
11/7/2021 1:15:00 AM 4.71 40.478 0.105 7.24 8.84 12.81
11/7/2021 1:30:00 AM 4.66 40.388 0.105 7.24 9.07 12.83
11/7/2021 1:45:00 AM 4.61 40.298 0.106 7.23 8.53 12.84
11/7/2021 2:00:00 AM 4.56 40.208 0.106 7.23 8.34 12.86
11/7/2021 2:15:00 AM 4.51 40.118 0.106 7.22 8.67 12.88
11/7/2021 2:30:00 AM 4.46 40.028 0.105 7.22 8.74 12.89
11/7/2021 2:45:00 AM 4.41 39.938 0.106 7.22 8.51 12.91
11/7/2021 3:00:00 AM 4.36 39.848 0.106 7.22 8.73 12.92
11/7/2021 3:15:00 AM 4.32 39.776 0.106 7.21 8.32 12.94
11/7/2021 3:30:00 AM 4.27 39.686 0.106 7.22 8.54 12.95
11/7/2021 3:45:00 AM 4.22 39.596 0.106 7.21 8.4 12.97
11/7/2021 4:00:00 AM 4.17 39.506 0.106 7.21 8.08 12.98
11/7/2021 4:15:00 AM 3.93 39.074 0.107 7.2 7.78 13.07
11/7/2021 4:30:00 AM 3.88 38.984 0.106 7.2 8.07 13.08
11/7/2021 4:45:00 AM 3.83 38.894 0.106 7.2 8.26 13.1
11/7/2021 5:00:00 AM 3.78 38.804 0.106 7.2 8.34 13.12
11/7/2021 5:15:00 AM 3.73 38.714 0.106 7.2 8.43 13.14
11/7/2021 5:30:00 AM 3.67 38.606 0.106 7.2 8.49 13.16
11/7/2021 5:45:00 AM 3.62 38.516 0.106 7.2 8.98 13.18
11/7/2021 6:00:00 AM 3.57 38.426 0.106 7.19 8.15 13.19
11/7/2021 6:15:00 AM 3.53 38.354 0.106 7.19 8.41 13.22
11/7/2021 6:30:00 AM 3.48 38.264 0.106 7.19 8.55 13.24
11/7/2021 6:45:00 AM 3.43 38.174 0.106 7.19 8.32 13.25
11/7/2021 7:00:00 AM 3.39 38.102 0.106 7.2 8.05 13.28
11/7/2021 7:15:00 AM 3.35 38.03 0.106 7.2 8.39 13.32
11/7/2021 7:30:00 AM 3.31 37.958 0.106 7.21 8.04 13.35
11/7/2021 7:45:00 AM 3.28 37.904 0.106 7.21 7.83 13.39
11/7/2021 8:00:00 AM 3.26 37.868 0.106 7.22 7.76 13.42
11/7/2021 8:15:00 AM 3.24 37.832 0.106 7.23 7.93 13.45
11/7/2021 8:30:00 AM 3.25 37.85 0.106 7.24 7.96 13.49
11/7/2021 8:45:00 AM 3.27 37.886 0.106 7.25 8.2 13.51
11/7/2021 9:00:00 AM 3.32 37.976 0.106 7.27 8.05 13.53
11/7/2021 9:15:00 AM 3.39 38.102 0.106 7.28 7.38 13.55
11/7/2021 9:30:00 AM 3.45 38.21 0.106 7.3 8.05 13.56
11/7/2021 9:45:00 AM 3.52 38.336 0.107 7.31 7.03 13.55
11/7/2021 10:00:00 AM 3.6 38.48 0.106 7.32 8.08 13.56
11/7/2021 10:15:00 AM 3.69 38.642 0.106 7.34 8.05 13.55
11/7/2021 10:30:00 AM 3.79 38.822 0.106 7.35 7.92 13.53
11/7/2021 10:45:00 AM 3.9 39.02 0.106 7.36 8.19 13.51
11/7/2021 11:00:00 AM 4.01 39.218 0.105 7.37 7.74 13.49
11/7/2021 11:15:00 AM 4.14 39.452 0.106 7.38 8.33 13.46
11/7/2021 11:30:00 AM 4.27 39.686 0.106 7.4 7.76 13.42
11/7/2021 11:45:00 AM 4.39 39.902 0.105 7.41 8.14 13.39
11/7/2021 12:00:00 PM 4.52 40.136 0.106 7.42 7.94 13.36
11/7/2021 12:15:00 PM 4.65 40.37 0.105 7.43 7.9 13.32
11/7/2021 12:30:00 PM 4.78 40.604 0.106 7.44 8.37 13.28
11/7/2021 12:45:00 PM 4.91 40.838 0.105 7.45 8.29 13.23
11/7/2021 1:00:00 PM 5.02 41.036 0.105 7.45 8.11 13.2
11/7/2021 1:15:00 PM 5.12 41.216 0.105 7.46 8.22 13.15
11/7/2021 1:30:00 PM 5.2 41.36 0.105 7.46 8.64 13.11
11/7/2021 1:45:00 PM 5.27 41.486 0.105 7.46 8.19 13.08
11/7/2021 2:00:00 PM 5.32 41.576 0.105 7.47 8.18 13.05
11/7/2021 2:15:00 PM 5.35 41.63 0.105 7.47 8.14 13.02
11/7/2021 2:30:00 PM 5.36 41.648 0.105 7.47 8.6 13
11/7/2021 2:45:00 PM 5.36 41.648 0.105 7.47 7.99 12.98
11/7/2021 3:00:00 PM 5.36 41.648 0.105 7.46 7.58 12.97
11/7/2021 3:15:00 PM 5.35 41.63 0.106 7.46 7.87 12.95
11/7/2021 3:30:00 PM 5.33 41.594 0.106 7.45 8.42 12.93
11/7/2021 3:45:00 PM 5.31 41.558 0.106 7.45 8.75 12.92
11/7/2021 4:00:00 PM 5.29 41.522 0.105 7.44 8.22 12.9
11/7/2021 4:15:00 PM 5.28 41.504 0.105 7.43 8.05 12.86
11/7/2021 4:30:00 PM 5.27 41.486 0.105 7.41 8.85 12.83
11/7/2021 4:45:00 PM 5.28 41.504 0.105 7.4 8.59 12.8
11/7/2021 5:00:00 PM 5.29 41.522 0.105 7.39 8.5 12.76
11/7/2021 5:15:00 PM 5.3 41.54 0.105 7.38 8.73 12.73
11/7/2021 5:30:00 PM 5.31 41.558 0.106 7.37 8.42 12.7
11/7/2021 5:45:00 PM 5.34 41.612 0.106 7.36 8.55 12.67
11/7/2021 6:00:00 PM 5.36 41.648 0.106 7.35 8.07 12.65
11/7/2021 6:15:00 PM 5.38 41.684 0.105 7.34 8.04 12.63
11/7/2021 6:30:00 PM 5.4 41.72 0.106 7.34 8.41 12.62
11/7/2021 6:45:00 PM 5.42 41.756 0.106 7.33 8.25 12.6
11/7/2021 7:00:00 PM 5.43 41.774 0.106 7.33 7.29 12.59
11/7/2021 7:15:00 PM 5.43 41.774 0.106 7.33 8.11 12.58
11/7/2021 7:30:00 PM 5.43 41.774 0.106 7.32 8.7 12.58
11/7/2021 7:45:00 PM 5.42 41.756 0.106 7.32 8.5 12.59
11/7/2021 8:00:00 PM 5.41 41.738 0.106 7.32 8.7 12.59
11/7/2021 8:15:00 PM 5.39 41.702 0.106 7.31 8.38 12.58
11/7/2021 8:30:00 PM 5.37 41.666 0.105 7.31 8.57 12.58
11/7/2021 8:45:00 PM 5.35 41.63 0.106 7.31 8.36 12.59
11/7/2021 9:00:00 PM 5.32 41.576 0.105 7.3 8.67 12.6
11/7/2021 9:15:00 PM 5.29 41.522 0.105 7.3 8.28 12.6
11/7/2021 9:30:00 PM 5.26 41.468 0.105 7.29 8.72 12.61
11/7/2021 9:45:00 PM 5.23 41.414 0.106 7.29 8.84 12.62
11/7/2021 10:00:00 PM 5.19 41.342 0.106 7.29 8.55 12.63
11/7/2021 10:15:00 PM 5.15 41.27 0.106 7.28 8.03 12.65
11/7/2021 10:30:00 PM 5.11 41.198 0.106 7.28 8.27 12.66
11/7/2021 10:45:00 PM 5.07 41.126 0.106 7.28 8.23 12.68
11/7/2021 11:00:00 PM 5.02 41.036 0.106 7.27 8.53 12.69
11/7/2021 11:15:00 PM 4.98 40.964 0.106 7.27 8.02 12.71
11/7/2021 11:30:00 PM 4.93 40.874 0.106 7.27 8.03 12.72
11/7/2021 11:45:00 PM 4.89 40.802 0.106 7.27 8.28 12.73
11/8/2021 12:00:00 AM 4.85 40.73 0.106 7.27 8.45 12.74
11/8/2021 12:15:00 AM 4.81 40.658 0.106 7.26 8.18 12.76
11/8/2021 12:30:00 AM 4.78 40.604 0.106 7.26 8.03 12.77
11/8/2021 12:45:00 AM 4.74 40.532 0.106 7.26 8.45 12.78
11/8/2021 1:00:00 AM 4.7 40.46 0.107 7.26 7.86 12.79
11/8/2021 1:15:00 AM 4.66 40.388 0.107 7.25 7.66 12.8
11/8/2021 1:30:00 AM 4.63 40.334 0.107 7.25 8.38 12.81
11/8/2021 1:45:00 AM 4.59 40.262 0.107 7.25 7.84 12.83
11/8/2021 2:00:00 AM 4.56 40.208 0.107 7.25 8.38 12.84
11/8/2021 2:15:00 AM 4.52 40.136 0.107 7.24 8.27 12.85
11/8/2021 2:30:00 AM 4.49 40.082 0.107 7.24 8.12 12.86
11/8/2021 2:45:00 AM 4.45 40.01 0.107 7.24 8.1 12.88
11/8/2021 3:00:00 AM 4.41 39.938 0.107 7.24 7.68 12.89
11/8/2021 3:15:00 AM 4.37 39.866 0.108 7.24 7.64 12.89
11/8/2021 3:30:00 AM 4.34 39.812 0.107 7.23 8 12.91
11/8/2021 3:45:00 AM 4.3 39.74 0.107 7.23 7.89 12.93
11/8/2021 4:00:00 AM 4.26 39.668 0.107 7.23 8.14 12.95
11/8/2021 4:15:00 AM 4.22 39.596 0.107 7.23 8.13 12.96
11/8/2021 4:30:00 AM 4.18 39.524 0.107 7.23 8.26 12.98
11/8/2021 4:45:00 AM 4.15 39.47 0.108 7.22 8.16 12.98
11/8/2021 5:00:00 AM 4.11 39.398 0.107 7.22 7.59 13.01
11/8/2021 5:15:00 AM 4.07 39.326 0.107 7.22 8.61 13.02
11/8/2021 5:30:00 AM 4.03 39.254 0.108 7.22 8.33 13.04
11/8/2021 5:45:00 AM 3.99 39.182 0.107 7.22 8.13 13.05
11/8/2021 6:00:00 AM 3.94 39.092 0.108 7.22 8.56 13.07
11/8/2021 6:15:00 AM 3.9 39.02 0.107 7.22 8.74 13.08
11/8/2021 6:30:00 AM 3.87 38.966 0.108 7.21 8.2 13.09
11/8/2021 6:45:00 AM 3.82 38.876 0.108 7.21 8.09 13.11
11/8/2021 7:00:00 AM 3.79 38.822 0.108 7.22 8.44 13.14
11/8/2021 7:15:00 AM 3.76 38.768 0.108 7.22 8.2 13.17
11/8/2021 7:30:00 AM 3.73 38.714 0.108 7.22 7.93 13.22
11/8/2021 7:45:00 AM 3.71 38.678 0.108 7.23 7.93 13.25
11/8/2021 8:00:00 AM 3.69 38.642 0.108 7.24 8.14 13.29
11/8/2021 8:15:00 AM 3.69 38.642 0.107 7.25 8.03 13.33
11/8/2021 8:30:00 AM 3.7 38.66 0.108 7.26 8.41 13.36
11/8/2021 8:45:00 AM 3.73 38.714 0.108 7.27 7.97 13.4
11/8/2021 9:00:00 AM 3.78 38.804 0.108 7.29 8.35 13.42
11/8/2021 9:15:00 AM 3.84 38.912 0.108 7.31 8.16 13.43
11/8/2021 9:30:00 AM 3.9 39.02 0.107 7.32 8.61 13.44
11/8/2021 9:45:00 AM 3.98 39.164 0.107 7.33 8.14 13.44
11/8/2021 10:00:00 AM 4.07 39.326 0.107 7.35 8.69 13.44
11/8/2021 10:15:00 AM 4.17 39.506 0.107 7.36 8.36 13.43
11/8/2021 10:30:00 AM 4.28 39.704 0.107 7.38 8.3 13.42
11/8/2021 10:45:00 AM 4.39 39.902 0.107 7.39 8.08 13.39
11/8/2021 11:00:00 AM 4.52 40.136 0.107 7.41 8.11 13.37
11/8/2021 11:15:00 AM 4.65 40.37 0.107 7.42 8.22 13.34
11/8/2021 11:30:00 AM 4.79 40.622 0.107 7.43 8.52 13.3
11/8/2021 11:45:00 AM 4.94 40.892 0.107 7.44 8.4 13.27
11/8/2021 12:00:00 PM 5.08 41.144 0.107 7.45 8.36 13.22
11/8/2021 12:15:00 PM 5.22 41.396 0.107 7.46 8.15 13.19
11/8/2021 12:30:00 PM 5.36 41.648 0.107 7.47 8.27 13.14
11/8/2021 12:45:00 PM 5.5 41.9 0.108 7.48 8.02 13.1
11/8/2021 1:00:00 PM 5.63 42.134 0.107 7.49 8.37 13.06
11/8/2021 1:15:00 PM 5.75 42.35 0.107 7.5 8.1 13.02
11/8/2021 1:30:00 PM 5.85 42.53 0.107 7.5 8.27 12.97
11/8/2021 1:45:00 PM 5.94 42.692 0.107 7.51 8.45 12.93
11/8/2021 2:00:00 PM 6.01 42.818 0.107 7.51 8.61 12.89
11/8/2021 2:15:00 PM 6.05 42.89 0.107 7.51 9.28 12.86
11/8/2021 2:30:00 PM 6.08 42.944 0.107 7.51 8.21 12.84
11/8/2021 2:45:00 PM 6.08 42.944 0.107 7.51 8.16 12.81
11/8/2021 3:00:00 PM 6.08 42.944 0.107 7.5 8.38 12.79
11/8/2021 3:15:00 PM 6.08 42.944 0.107 7.5 8.38 12.77
11/8/2021 3:30:00 PM 6.06 42.908 0.107 7.49 8.63 12.75
11/8/2021 3:45:00 PM 6.04 42.872 0.107 7.48 8.47 12.73
11/8/2021 4:00:00 PM 6.02 42.836 0.107 7.47 8.96 12.7
11/8/2021 4:15:00 PM 6.01 42.818 0.107 7.45 8.88 12.67
11/8/2021 4:30:00 PM 5.99 42.782 0.107 7.44 8.65 12.63
11/8/2021 4:45:00 PM 5.99 42.782 0.107 7.42 8.61 12.6
11/8/2021 5:00:00 PM 6 42.8 0.107 7.4 8.51 12.56
11/8/2021 5:15:00 PM 6.01 42.818 0.107 7.38 8.28 12.52
11/8/2021 5:30:00 PM 6.02 42.836 0.107 7.37 7.32 12.49
11/8/2021 5:45:00 PM 6.05 42.89 0.107 7.37 8.67 12.46
11/8/2021 6:00:00 PM 6.08 42.944 0.107 7.36 9.27 12.44
11/8/2021 6:15:00 PM 6.11 42.998 0.107 7.35 8.75 12.41
11/8/2021 6:30:00 PM 6.14 43.052 0.107 7.34 8.47 12.4
11/8/2021 6:45:00 PM 6.17 43.106 0.107 7.34 8.11 12.37
11/8/2021 7:00:00 PM 6.19 43.142 0.107 7.33 8.75 12.36
11/8/2021 7:15:00 PM 6.21 43.178 0.107 7.33 8.42 12.35
11/8/2021 7:30:00 PM 6.22 43.196 0.107 7.32 8.91 12.34
11/8/2021 7:45:00 PM 6.22 43.196 0.107 7.32 8.9 12.33
11/8/2021 8:00:00 PM 6.22 43.196 0.107 7.32 8.97 12.32
11/8/2021 8:15:00 PM 6.21 43.178 0.107 7.31 9.28 12.32
11/8/2021 8:30:00 PM 6.2 43.16 0.107 7.31 8.97 12.33
11/8/2021 8:45:00 PM 6.18 43.124 0.107 7.31 9.09 12.33
11/8/2021 9:00:00 PM 6.16 43.088 0.107 7.3 8.45 12.33
11/8/2021 9:15:00 PM 6.13 43.034 0.107 7.3 8.11 12.34
11/8/2021 9:30:00 PM 6.11 42.998 0.107 7.3 8.35 12.34
11/8/2021 9:45:00 PM 6.07 42.926 0.107 7.29 9.18 12.35
11/8/2021 10:00:00 PM 6.05 42.89 0.107 7.29 8.85 12.36
11/8/2021 10:15:00 PM 6.02 42.836 0.107 7.29 7.62 12.37
11/8/2021 10:30:00 PM 5.98 42.764 0.107 7.28 9.19 12.38
11/8/2021 10:45:00 PM 5.95 42.71 0.108 7.28 8.75 12.39
11/8/2021 11:00:00 PM 5.92 42.656 0.107 7.28 8.78 12.4
11/8/2021 11:15:00 PM 5.88 42.584 0.108 7.28 9.15 12.41
11/8/2021 11:30:00 PM 5.84 42.512 0.107 7.28 8.77 12.42
11/8/2021 11:45:00 PM 5.8 42.44 0.108 7.27 9.15 12.43
11/9/2021 12:00:00 AM 5.76 42.368 0.108 7.27 9.15 12.45
11/9/2021 12:15:00 AM 5.72 42.296 0.108 7.27 9.18 12.45
11/9/2021 12:30:00 AM 5.68 42.224 0.108 7.27 9.37 12.47
11/9/2021 12:45:00 AM 5.64 42.152 0.108 7.26 9.2 12.48
11/9/2021 1:00:00 AM 5.61 42.098 0.108 7.26 8.91 12.49
11/9/2021 1:15:00 AM 5.57 42.026 0.109 7.26 8.82 12.5
11/9/2021 1:30:00 AM 5.53 41.954 0.108 7.26 8.87 12.52
11/9/2021 1:45:00 AM 5.49 41.882 0.108 7.26 9.24 12.53
11/9/2021 2:00:00 AM 5.46 41.828 0.108 7.25 9.73 12.54
11/9/2021 2:15:00 AM 5.43 41.774 0.108 7.25 9.15 12.54
11/9/2021 2:30:00 AM 5.39 41.702 0.108 7.25 9.24 12.56
11/9/2021 2:45:00 AM 5.36 41.648 0.108 7.25 9.04 12.57
11/9/2021 3:00:00 AM 5.32 41.576 0.108 7.25 8.85 12.58
11/9/2021 3:15:00 AM 5.29 41.522 0.108 7.25 8.62 12.59
11/9/2021 3:30:00 AM 5.25 41.45 0.109 7.25 9.03 12.6
11/9/2021 3:45:00 AM 5.22 41.396 0.108 7.25 9.25 12.61
11/9/2021 4:00:00 AM 5.19 41.342 0.109 7.24 9.28 12.62
11/9/2021 4:15:00 AM 5.15 41.27 0.109 7.24 8.53 12.63
11/9/2021 4:30:00 AM 5.12 41.216 0.109 7.24 8.33 12.65
11/9/2021 4:45:00 AM 5.09 41.162 0.109 7.23 8.34 12.66
11/9/2021 5:00:00 AM 5.06 41.108 0.109 7.23 8.37 12.67
11/9/2021 5:15:00 AM 5.02 41.036 0.109 7.23 8.64 12.68
11/9/2021 5:30:00 AM 4.99 40.982 0.109 7.23 9.03 12.69
11/9/2021 5:45:00 AM 4.96 40.928 0.109 7.23 8.86 12.71
11/9/2021 6:00:00 AM 4.92 40.856 0.109 7.23 8.79 12.71
11/9/2021 6:15:00 AM 4.89 40.802 0.109 7.22 9.34 12.72
11/9/2021 6:30:00 AM 4.85 40.73 0.11 7.22 8.42 12.74
11/9/2021 6:45:00 AM 4.82 40.676 0.109 7.22 8.74 12.76
11/9/2021 7:00:00 AM 4.79 40.622 0.109 7.22 9.07 12.78
11/9/2021 7:15:00 AM 4.76 40.568 0.109 7.23 9.09 12.81
11/9/2021 7:30:00 AM 4.73 40.514 0.109 7.23 8.97 12.85
11/9/2021 7:45:00 AM 4.71 40.478 0.109 7.24 8.99 12.9
11/9/2021 8:00:00 AM 4.69 40.442 0.109 7.25 9.03 12.93
11/9/2021 8:15:00 AM 4.69 40.442 0.109 7.26 8.76 12.98
11/9/2021 8:30:00 AM 4.69 40.442 0.109 7.27 8.78 13.02
11/9/2021 8:45:00 AM 4.72 40.496 0.109 7.28 9.2 13.06
11/9/2021 9:00:00 AM 4.76 40.568 0.109 7.3 9.37 13.08
11/9/2021 9:15:00 AM 4.82 40.676 0.109 7.32 8.98 13.11
11/9/2021 9:30:00 AM 4.89 40.802 0.109 7.33 8.46 13.12
11/9/2021 9:45:00 AM 4.96 40.928 0.109 7.35 8.87 13.13
11/9/2021 10:00:00 AM 5.05 41.09 0.108 7.37 8.85 13.13
11/9/2021 10:15:00 AM 5.14 41.252 0.108 7.38 8.75 13.12
11/9/2021 10:30:00 AM 5.24 41.432 0.108 7.4 8.44 13.11
11/9/2021 10:45:00 AM 5.35 41.63 0.108 7.42 8.42 13.1
11/9/2021 11:00:00 AM 5.47 41.846 0.108 7.43 7.79 13.08
11/9/2021 11:15:00 AM 5.6 42.08 0.108 7.44 8.05 13.06
11/9/2021 11:30:00 AM 5.74 42.332 0.108 7.46 8.42 13.04
11/9/2021 11:45:00 AM 5.88 42.584 0.108 7.48 7.93 13
11/9/2021 12:00:00 PM 6.02 42.836 0.108 7.49 7.97 12.97
11/9/2021 12:15:00 PM 6.16 43.088 0.108 7.51 8.15 12.94
11/9/2021 12:30:00 PM 6.29 43.322 0.108 7.52 7.8 12.89
11/9/2021 12:45:00 PM 6.42 43.556 0.108 7.54 8.68 12.85
11/9/2021 1:00:00 PM 6.53 43.754 0.108 7.55 8.04 12.81
11/9/2021 1:15:00 PM 6.65 43.97 0.108 7.55 8.57 12.78
11/9/2021 1:30:00 PM 6.76 44.168 0.108 7.57 8.5 12.74
11/9/2021 1:45:00 PM 6.85 44.33 0.108 7.58 9.04 12.7
11/9/2021 2:00:00 PM 6.93 44.474 0.108 7.58 9.17 12.67
11/9/2021 2:15:00 PM 6.98 44.564 0.107 7.58 8.94 12.64
11/9/2021 2:30:00 PM 7.01 44.618 0.107 7.59 8.01 12.62
11/9/2021 2:45:00 PM 7.04 44.672 0.107 7.59 8.9 12.6
11/9/2021 3:00:00 PM 7.07 44.726 0.108 7.59 8.51 12.6
11/9/2021 3:15:00 PM 7.11 44.798 0.108 7.59 8.68 12.58
11/9/2021 3:30:00 PM 7.12 44.816 0.107 7.59 8.64 12.54
11/9/2021 3:45:00 PM 7.12 44.816 0.108 7.58 8.78 12.5
11/9/2021 4:00:00 PM 7.11 44.798 0.107 7.56 8.54 12.45
11/9/2021 4:15:00 PM 7.1 44.78 0.108 7.53 9.19 12.4
11/9/2021 4:30:00 PM 7.11 44.798 0.108 7.51 8.9 12.35
11/9/2021 4:45:00 PM 7.11 44.798 0.108 7.48 8.29 12.29
11/9/2021 5:00:00 PM 7.12 44.816 0.108 7.46 8.34 12.23
11/9/2021 5:15:00 PM 7.14 44.852 0.108 7.43 8.37 12.18
11/9/2021 5:30:00 PM 7.18 44.924 0.108 7.41 7.87 12.14
11/9/2021 5:45:00 PM 7.22 44.996 0.108 7.39 8.74 12.1
11/9/2021 6:00:00 PM 7.26 45.068 0.108 7.38 8.31 12.07
11/9/2021 6:15:00 PM 7.31 45.158 0.108 7.36 8.91 12.04
11/9/2021 6:30:00 PM 7.36 45.248 0.108 7.35 8.57 12.01
11/9/2021 6:45:00 PM 7.41 45.338 0.108 7.34 8.62 11.98
11/9/2021 7:00:00 PM 7.45 45.41 0.108 7.33 8.59 11.96
11/9/2021 7:15:00 PM 7.5 45.5 0.108 7.33 8.91 11.93
11/9/2021 7:30:00 PM 7.54 45.572 0.108 7.31 8.99 11.91
11/9/2021 7:45:00 PM 7.58 45.644 0.108 7.31 8.94 11.89
11/9/2021 8:00:00 PM 7.61 45.698 0.108 7.3 8.69 11.88
11/9/2021 8:15:00 PM 7.64 45.752 0.108 7.29 9.5 11.87
11/9/2021 8:30:00 PM 7.66 45.788 0.108 7.29 9.08 11.85
11/9/2021 8:45:00 PM 7.68 45.824 0.108 7.29 9.27 11.84
11/9/2021 9:00:00 PM 7.69 45.842 0.108 7.28 9.1 11.83
11/9/2021 9:15:00 PM 7.71 45.878 0.109 7.27 8.63 11.82
11/9/2021 9:30:00 PM 7.72 45.896 0.108 7.27 8.76 11.82
11/9/2021 9:45:00 PM 7.73 45.914 0.108 7.26 8.72 11.81
11/9/2021 10:00:00 PM 7.73 45.914 0.108 7.26 8.99 11.8
11/9/2021 10:15:00 PM 7.73 45.914 0.108 7.26 9.18 11.8
11/9/2021 10:30:00 PM 7.72 45.896 0.108 7.25 9.15 11.8
11/9/2021 10:45:00 PM 7.72 45.896 0.109 7.25 8.94 11.8
11/9/2021 11:00:00 PM 7.72 45.896 0.108 7.25 9.62 11.8
11/9/2021 11:15:00 PM 7.71 45.878 0.108 7.26 9.53 11.8
11/9/2021 11:30:00 PM 7.7 45.86 0.109 7.26 9.47 11.8
11/9/2021 11:45:00 PM 7.69 45.842 0.109 7.26 8.52 11.8
11/10/2021 12:00:00 AM 7.69 45.842 0.109 7.26 9.21 11.8
11/10/2021 12:15:00 AM 7.68 45.824 0.109 7.26 9.12 11.8
11/10/2021 12:30:00 AM 7.67 45.806 0.108 7.26 8.97 11.8
11/10/2021 12:45:00 AM 7.67 45.806 0.109 7.25 9.22 11.8
11/10/2021 1:00:00 AM 7.66 45.788 0.109 7.25 9.31 11.81
11/10/2021 1:15:00 AM 7.64 45.752 0.109 7.25 9.48 11.81
11/10/2021 1:30:00 AM 7.63 45.734 0.109 7.25 8.99 11.81
11/10/2021 1:45:00 AM 7.61 45.698 0.109 7.25 8.85 11.81
11/10/2021 2:00:00 AM 7.59 45.662 0.109 7.25 9.03 11.81
11/10/2021 2:15:00 AM 7.58 45.644 0.109 7.25 7.8 11.82
11/10/2021 2:30:00 AM 7.57 45.626 0.109 7.25 7.77 11.82
11/10/2021 2:45:00 AM 7.56 45.608 0.109 7.24 8.62 11.82
11/10/2021 3:00:00 AM 7.55 45.59 0.109 7.25 8.57 11.82
11/10/2021 3:15:00 AM 7.53 45.554 0.11 7.24 8.59 11.82
11/10/2021 3:30:00 AM 7.52 45.536 0.11 7.24 9.02 11.83
11/10/2021 3:45:00 AM 7.5 45.5 0.11 7.24 8.86 11.83
11/10/2021 4:00:00 AM 7.48 45.464 0.11 7.24 8.94 11.84
11/10/2021 4:15:00 AM 7.47 45.446 0.11 7.24 9.13 11.85
11/10/2021 4:30:00 AM 7.46 45.428 0.11 7.24 8.52 11.85
11/10/2021 4:45:00 AM 7.45 45.41 0.11 7.24 8.56 11.85
11/10/2021 5:00:00 AM 7.44 45.392 0.11 7.24 8.22 11.86
11/10/2021 5:15:00 AM 7.43 45.374 0.11 7.24 8.56 11.86
11/10/2021 5:30:00 AM 7.42 45.356 0.11 7.24 8.55 11.87
11/10/2021 5:45:00 AM 7.42 45.356 0.11 7.24 8.87 11.88
11/10/2021 6:00:00 AM 7.43 45.374 0.11 7.24 9.04 11.88
11/10/2021 6:15:00 AM 7.44 45.392 0.11 7.24 8.7 11.88
11/10/2021 6:30:00 AM 7.45 45.41 0.11 7.24 8.81 11.88
11/10/2021 6:45:00 AM 7.46 45.428 0.11 7.24 9.26 11.89
11/10/2021 7:00:00 AM 7.47 45.446 0.11 7.25 8.55 11.89
11/10/2021 7:15:00 AM 7.48 45.464 0.11 7.25 8.88 11.9
11/10/2021 7:30:00 AM 7.49 45.482 0.11 7.25 8.57 11.92
11/10/2021 7:45:00 AM 7.52 45.536 0.11 7.27 9.16 11.93
11/10/2021 8:00:00 AM 7.54 45.572 0.11 7.29 8.34 11.95
11/10/2021 8:15:00 AM 7.56 45.608 0.11 7.31 8.69 11.99
11/10/2021 8:30:00 AM 7.59 45.662 0.11 7.33 8.85 12.04
11/10/2021 8:45:00 AM 7.62 45.716 0.11 7.35 8.94 12.09
11/10/2021 9:00:00 AM 7.67 45.806 0.11 7.37 9.43 12.15
11/10/2021 9:15:00 AM 7.72 45.896 0.11 7.4 8.86 12.22
11/10/2021 9:30:00 AM 7.79 46.022 0.11 7.43 8.45 12.24
11/10/2021 9:45:00 AM 7.89 46.202 0.11 7.46 9.12 12.29
11/10/2021 10:00:00 AM 8 46.4 0.11 7.48 8.68 12.29
11/10/2021 10:15:00 AM 8.1 46.58 0.11 7.51 9.32 12.31
11/10/2021 10:30:00 AM 8.17 46.706 0.109 7.53 9.29 12.3
11/10/2021 10:45:00 AM 8.28 46.904 0.109 7.55 9.18 12.3
11/10/2021 11:00:00 AM 8.34 47.012 0.109 7.57 8.92 12.29
11/10/2021 11:15:00 AM 8.37 47.066 0.109 7.58 8.43 12.27
11/10/2021 11:30:00 AM 8.45 47.21 0.109 7.6 8.35 12.29
11/10/2021 11:45:00 AM 8.55 47.39 0.109 7.61 8.81 12.26
11/10/2021 12:00:00 PM 8.63 47.534 0.109 7.62 6.7 12.23
11/10/2021 12:15:00 PM 8.71 47.678 0.109 7.64 8.69 12.21
11/10/2021 12:30:00 PM 8.8 47.84 0.109 7.64 9.1 12.18
11/10/2021 12:45:00 PM 8.87 47.966 0.109 7.65 9.26 12.15
11/10/2021 1:00:00 PM 8.92 48.056 0.108 7.65 8.75 12.13
11/10/2021 1:15:00 PM 8.97 48.146 0.109 7.65 9.04 12.1
11/10/2021 1:30:00 PM 9 48.2 0.108 7.65 9.41 12.07
11/10/2021 1:45:00 PM 9.02 48.236 0.109 7.65 9.5 12.05
11/10/2021 2:00:00 PM 9.02 48.236 0.109 7.65 10.21 12.03
11/10/2021 2:15:00 PM 9.01 48.218 0.108 7.65 9.32 12.02
11/10/2021 2:30:00 PM 8.98 48.164 0.109 7.64 8.79 12
11/10/2021 2:45:00 PM 8.95 48.11 0.109 7.63 8.93 11.99
11/10/2021 3:00:00 PM 8.9 48.02 0.109 7.62 9.13 11.99
11/10/2021 3:15:00 PM 8.86 47.948 0.109 7.61 8.9 11.96
11/10/2021 3:30:00 PM 8.81 47.858 0.109 7.59 9.46 11.95
11/10/2021 3:45:00 PM 8.74 47.732 0.11 7.57 8.71 11.94
11/10/2021 4:00:00 PM 8.67 47.606 0.109 7.55 9.78 11.92
11/10/2021 4:15:00 PM 8.59 47.462 0.11 7.53 9.34 11.9
11/10/2021 4:30:00 PM 8.52 47.336 0.11 7.5 8.3 11.87
11/10/2021 4:45:00 PM 8.46 47.228 0.109 7.48 9.43 11.84
11/10/2021 5:00:00 PM 8.4 47.12 0.109 7.46 9.22 11.82
11/10/2021 5:15:00 PM 8.35 47.03 0.109 7.43 9.89 11.79
11/10/2021 5:30:00 PM 8.3 46.94 0.109 7.41 9.77 11.78
11/10/2021 5:45:00 PM 8.25 46.85 0.109 7.4 9.43 11.76
11/10/2021 6:00:00 PM 8.21 46.778 0.109 7.39 9.07 11.76
11/10/2021 6:15:00 PM 8.18 46.724 0.109 7.38 9.57 11.76
11/10/2021 6:30:00 PM 8.15 46.67 0.11 7.37 8.96 11.75
11/10/2021 6:45:00 PM 8.12 46.616 0.11 7.36 9.38 11.75
11/10/2021 7:00:00 PM 8.09 46.562 0.11 7.35 9.38 11.75
11/10/2021 7:15:00 PM 8.05 46.49 0.11 7.35 9.45 11.75
11/10/2021 7:30:00 PM 8.01 46.418 0.11 7.34 9.29 11.76
11/10/2021 7:45:00 PM 7.97 46.346 0.11 7.33 9.3 11.76
11/10/2021 8:00:00 PM 7.93 46.274 0.11 7.33 9.31 11.78
11/10/2021 8:15:00 PM 7.88 46.184 0.11 7.33 9.55 11.8
11/10/2021 8:30:00 PM 7.84 46.112 0.11 7.32 9.29 11.81
11/10/2021 8:45:00 PM 7.79 46.022 0.11 7.32 8.54 11.83
11/10/2021 9:00:00 PM 7.74 45.932 0.11 7.32 9.27 11.84
11/10/2021 9:15:00 PM 7.68 45.824 0.11 7.31 9.41 11.86
11/10/2021 9:30:00 PM 7.62 45.716 0.11 7.31 9.1 11.87
11/10/2021 9:45:00 PM 7.56 45.608 0.11 7.31 9.04 11.89
11/10/2021 10:00:00 PM 7.5 45.5 0.11 7.3 9.45 11.91
11/10/2021 10:15:00 PM 7.45 45.41 0.11 7.3 9.35 11.92
11/10/2021 10:30:00 PM 7.39 45.302 0.11 7.3 9.87 11.94
11/10/2021 10:45:00 PM 7.33 45.194 0.11 7.3 9.35 11.96
11/10/2021 11:00:00 PM 7.28 45.104 0.11 7.29 9.29 11.97
11/10/2021 11:15:00 PM 7.22 44.996 0.11 7.29 9.17 12
11/10/2021 11:30:00 PM 7.16 44.888 0.11 7.29 9.25 12.01
11/10/2021 11:45:00 PM 7.1 44.78 0.11 7.28 8.64 12.03
11/11/2021 12:00:00 AM 7.04 44.672 0.11 7.28 8.81 12.05
11/11/2021 12:15:00 AM 6.99 44.582 0.11 7.28 8.91 12.07
11/11/2021 12:30:00 AM 6.92 44.456 0.11 7.27 9.48 12.09
11/11/2021 12:45:00 AM 6.86 44.348 0.11 7.27 8.77 12.11
11/11/2021 1:00:00 AM 6.79 44.222 0.11 7.26 9.08 12.13
11/11/2021 1:15:00 AM 6.71 44.078 0.11 7.26 9.16 12.15
11/11/2021 1:30:00 AM 6.66 43.988 0.111 7.26 8.81 12.17
11/11/2021 1:45:00 AM 6.59 43.862 0.11 7.25 8.63 12.19
11/11/2021 2:00:00 AM 6.52 43.736 0.111 7.25 8.9 12.21
11/11/2021 2:15:00 AM 6.46 43.628 0.111 7.24 8.62 12.23
11/11/2021 2:30:00 AM 6.39 43.502 0.111 7.24 8.65 12.25
11/11/2021 2:45:00 AM 6.34 43.412 0.111 7.23 8.64 12.27
11/11/2021 3:00:00 AM 6.27 43.286 0.111 7.23 8.85 12.29
11/11/2021 3:15:00 AM 6.22 43.196 0.111 7.22 8.86 12.31
11/11/2021 3:30:00 AM 6.16 43.088 0.111 7.23 8.77 12.33
11/11/2021 3:45:00 AM 6.11 42.998 0.111 7.22 8.76 12.35
11/11/2021 4:00:00 AM 6.06 42.908 0.111 7.22 8.63 12.36
11/11/2021 4:15:00 AM 6.02 42.836 0.111 7.22 8.99 12.38
11/11/2021 4:30:00 AM 5.98 42.764 0.111 7.22 8.54 12.39
11/11/2021 4:45:00 AM 5.93 42.674 0.111 7.22 8.4 12.41
11/11/2021 5:00:00 AM 5.9 42.62 0.111 7.22 8.86 12.42
11/11/2021 5:15:00 AM 5.86 42.548 0.111 7.22 8.52 12.43
11/11/2021 5:30:00 AM 5.81 42.458 0.112 7.22 8.33 12.45
11/11/2021 5:45:00 AM 5.77 42.386 0.111 7.22 8.75 12.46
11/11/2021 6:00:00 AM 5.73 42.314 0.112 7.22 8.5 12.46
11/11/2021 6:15:00 AM 5.7 42.26 0.112 7.22 8.44 12.48
11/11/2021 6:30:00 AM 5.67 42.206 0.112 7.22 8.56 12.5
11/11/2021 6:45:00 AM 5.65 42.17 0.112 7.22 8.74 12.51
11/11/2021 7:00:00 AM 5.63 42.134 0.112 7.23 8.46 12.53
11/11/2021 7:15:00 AM 5.6 42.08 0.112 7.24 8.33 12.56
11/11/2021 7:30:00 AM 5.57 42.026 0.112 7.24 8.31 12.61
11/11/2021 7:45:00 AM 5.55 41.99 0.112 7.27 8.82 12.66
11/11/2021 8:00:00 AM 5.53 41.954 0.112 7.28 8.97 12.72
11/11/2021 8:15:00 AM 5.53 41.954 0.112 7.3 8.96 12.79
11/11/2021 8:30:00 AM 5.54 41.972 0.111 7.32 8.89 12.86
11/11/2021 8:45:00 AM 5.57 42.026 0.111 7.34 8.32 12.91
11/11/2021 9:00:00 AM 5.62 42.116 0.111 7.37 8.6 12.94
11/11/2021 9:15:00 AM 5.67 42.206 0.111 7.39 8.52 12.98
11/11/2021 9:30:00 AM 5.72 42.296 0.111 7.42 8.37 12.99
11/11/2021 9:45:00 AM 5.78 42.404 0.111 7.44 7.83 13
11/11/2021 10:00:00 AM 5.88 42.584 0.111 7.46 8.93 13.02
11/11/2021 10:15:00 AM 5.97 42.746 0.111 7.49 8.29 13.03
11/11/2021 10:30:00 AM 6.04 42.872 0.111 7.52 8.68 13.02
11/11/2021 10:45:00 AM 6.16 43.088 0.111 7.53 8.4 13.02
11/11/2021 11:00:00 AM 6.23 43.214 0.111 7.55 8.34 13
11/11/2021 11:15:00 AM 6.34 43.412 0.111 7.57 8.07 12.99
11/11/2021 11:30:00 AM 6.44 43.592 0.11 7.6 8.38 12.96
11/11/2021 11:45:00 AM 6.56 43.808 0.11 7.62 8.15 12.96
11/11/2021 12:00:00 PM 6.64 43.952 0.11 7.64 8.28 12.95
11/11/2021 12:15:00 PM 6.74 44.132 0.11 7.66 8 12.92
11/11/2021 12:30:00 PM 6.84 44.312 0.11 7.68 8.37 12.9
11/11/2021 12:45:00 PM 6.92 44.456 0.11 7.7 8.13 12.89
11/11/2021 1:00:00 PM 7 44.6 0.11 7.71 8.86 12.86
11/11/2021 1:15:00 PM 7.06 44.708 0.11 7.73 7.94 12.84
11/11/2021 1:30:00 PM 7.13 44.834 0.111 7.74 8.09 12.81
11/11/2021 1:45:00 PM 7.2 44.96 0.11 7.75 8.44 12.79
11/11/2021 2:00:00 PM 7.26 45.068 0.11 7.76 8.79 12.76
11/11/2021 2:15:00 PM 7.31 45.158 0.111 7.76 8.13 12.73
11/11/2021 2:30:00 PM 7.35 45.23 0.11 7.76 8.72 12.71
11/11/2021 2:45:00 PM 7.37 45.266 0.11 7.76 8.42 12.67
11/11/2021 3:00:00 PM 7.4 45.32 0.11 7.75 8.5 12.64
11/11/2021 3:15:00 PM 7.4 45.32 0.11 7.73 9.08 12.59
11/11/2021 3:30:00 PM 7.41 45.338 0.11 7.71 8.68 12.56
11/11/2021 3:45:00 PM 7.41 45.338 0.112 7.69 11.67 12.5
11/11/2021 4:00:00 PM 7.41 45.338 0.11 7.66 8.44 12.44
11/11/2021 4:15:00 PM 7.4 45.32 0.11 7.62 9.08 12.36
11/11/2021 4:30:00 PM 7.4 45.32 0.111 7.58 8.93 12.29
11/11/2021 4:45:00 PM 7.39 45.302 0.111 7.55 8.81 12.22
11/11/2021 5:00:00 PM 7.37 45.266 0.111 7.52 8.57 12.16
11/11/2021 5:15:00 PM 7.36 45.248 0.111 7.49 8.74 12.12
11/11/2021 5:30:00 PM 7.35 45.23 0.111 7.47 7.5 12.09
11/11/2021 5:45:00 PM 7.35 45.23 0.111 7.45 8.66 12.05
11/11/2021 6:00:00 PM 7.36 45.248 0.111 7.44 8.69 12.04
11/11/2021 6:15:00 PM 7.36 45.248 0.111 7.42 8.65 12.01
11/11/2021 6:30:00 PM 7.37 45.266 0.111 7.41 8.87 12
11/11/2021 6:45:00 PM 7.39 45.302 0.111 7.41 8.36 11.98
11/11/2021 7:00:00 PM 7.41 45.338 0.111 7.4 8.34 11.97
11/11/2021 7:15:00 PM 7.44 45.392 0.111 7.39 8.49 11.96
11/11/2021 7:30:00 PM 7.47 45.446 0.111 7.39 8.75 11.94
11/11/2021 7:45:00 PM 7.5 45.5 0.111 7.38 8.58 11.92
11/11/2021 8:00:00 PM 7.54 45.572 0.112 7.38 8.71 11.9
11/11/2021 8:15:00 PM 7.57 45.626 0.111 7.38 8.68 11.9
11/11/2021 8:30:00 PM 7.61 45.698 0.111 7.36 18.14 11.88
11/11/2021 8:45:00 PM 7.66 45.788 0.111 7.37 9.49 11.86
11/11/2021 9:00:00 PM 7.7 45.86 0.112 7.36 9.86 11.84
11/11/2021 9:15:00 PM 7.75 45.95 0.112 7.36 9.72 11.83
11/11/2021 9:30:00 PM 7.8 46.04 0.112 7.36 9.92 11.82
11/11/2021 9:45:00 PM 7.84 46.112 0.111 7.36 12.87 11.8
11/11/2021 10:00:00 PM 7.88 46.184 0.111 7.36 5.43 11.78
11/11/2021 10:15:00 PM 7.93 46.274 0.112 7.36 11.05 11.76
11/11/2021 10:30:00 PM 7.97 46.346 0.112 7.35 9.76 11.75
11/11/2021 10:45:00 PM 8.01 46.418 0.112 7.36 6.55 11.73
11/11/2021 11:00:00 PM 8.05 46.49 0.112 7.35 9.99 11.72
11/11/2021 11:15:00 PM 8.1 46.58 0.111 7.36 10.27 11.71
11/11/2021 11:30:00 PM 8.14 46.652 0.112 7.35 8.86 11.69
11/11/2021 11:45:00 PM 8.19 46.742 0.111 7.35 10.19 11.67
11/12/2021 12:00:00 AM 8.25 46.85 0.111 7.35 9.25 11.65
11/12/2021 12:15:00 AM 8.3 46.94 0.111 7.35 10.26 11.63
11/12/2021 12:30:00 AM 8.36 47.048 0.111 7.35 4.25 11.61
11/12/2021 12:45:00 AM 8.4 47.12 0.112 7.35 9.51 11.6
11/12/2021 1:00:00 AM 8.43 47.174 0.112 7.35 10.14 11.59
11/12/2021 1:15:00 AM 8.47 47.246 0.111 7.35 8.14 11.57
11/12/2021 1:30:00 AM 8.53 47.354 0.112 7.35 10.86 11.55
11/12/2021 1:45:00 AM 8.56 47.408 0.112 7.35 9.2 11.54
11/12/2021 2:00:00 AM 8.61 47.498 0.112 7.35 10 11.52
11/12/2021 2:15:00 AM 8.66 47.588 0.112 7.35 3.15 11.5
11/12/2021 2:30:00 AM 8.72 47.696 0.112 7.35 8.75 11.48
11/12/2021 2:45:00 AM 8.78 47.804 0.112 7.35 9.73 11.47
11/12/2021 3:00:00 AM 8.84 47.912 0.112 7.35 8.23 11.44
11/12/2021 3:15:00 AM 8.87 47.966 0.112 7.35 11.29 11.43
11/12/2021 3:30:00 AM 8.93 48.074 0.112 7.35 9.08 11.41
11/12/2021 3:45:00 AM 8.97 48.146 0.112 7.35 10.51 11.4
11/12/2021 4:00:00 AM 9.04 48.272 0.112 7.36 10.13 11.38
11/12/2021 4:15:00 AM 9.1 48.38 0.112 7.35 7.42 11.36
11/12/2021 4:30:00 AM 9.15 48.47 0.112 7.35 9.01 11.33
11/12/2021 4:45:00 AM 9.22 48.596 0.111 7.35 7.8 11.31
11/12/2021 5:00:00 AM 9.26 48.668 0.111 7.35 9.06 11.3
11/12/2021 5:15:00 AM 9.32 48.776 0.112 7.35 5.54 11.28
11/12/2021 5:30:00 AM 9.39 48.902 0.11 7.35 8.42 11.27
11/12/2021 5:45:00 AM 9.44 48.992 0.11 7.34 8.61 11.25
11/12/2021 6:00:00 AM 9.5 49.1 0.109 7.35 8.54 11.23
11/12/2021 6:15:00 AM 9.59 49.262 0.109 7.35 9.33 11.21
11/12/2021 6:30:00 AM 9.67 49.406 0.108 7.35 9.5 11.18
11/12/2021 6:45:00 AM 9.85 49.73 0.105 7.34 11.7 11.16
11/12/2021 7:00:00 AM 9.94 49.892 0.104 7.32 8.84 11.1
11/12/2021 7:15:00 AM 9.99 49.982 0.103 7.28 14.15 11.07
11/12/2021 7:30:00 AM 10.05 50.09 0.102 7.26 26.92 11.05
11/12/2021 7:45:00 AM 10.13 50.234 0.101 7.23 105.77 11.03
11/12/2021 8:00:00 AM 10.17 50.306 0.1 7.2 96.52 11.01
11/12/2021 8:15:00 AM 10.13 50.234 0.098 7.2 63.91 11.04
11/12/2021 8:30:00 AM 10.19 50.342 0.099 7.16 90.71 10.98
11/12/2021 8:45:00 AM 10.34 50.612 0.093 7.12 162.61 10.95
11/12/2021 9:00:00 AM 10.42 50.756 0.089 7.11 190.25 10.94
11/12/2021 9:15:00 AM 10.42 50.756 0.089 7.12 164.85 10.95
11/12/2021 9:30:00 AM 10.36 50.648 0.09 7.13 132.31 10.98
11/12/2021 9:45:00 AM 10.32 50.576 0.093 7.14 105.52 10.99
11/12/2021 10:00:00 AM 10.38 50.684 0.094 7.12 140.42 10.97
11/12/2021 10:15:00 AM 10.49 50.882 0.085 7.09 177.67 10.94
11/12/2021 10:30:00 AM 10.54 50.972 0.089 7.08 174.33 10.94
11/12/2021 10:45:00 AM 10.52 50.936 0.087 7.07 152.08 10.96
11/12/2021 11:00:00 AM 10.5 50.9 0.077 7.06 129.31 10.97
11/12/2021 11:15:00 AM 10.49 50.882 0.083 7.06 109.26 10.98
11/12/2021 11:30:00 AM 10.48 50.864 0.084 7.07 89.93 11
11/12/2021 11:45:00 AM 10.47 50.846 0.088 7.08 74.44 11
11/12/2021 12:00:00 PM 10.47 50.846 0.089 7.08 68.74 11
11/12/2021 12:15:00 PM 10.49 50.882 0.089 7.07 76.91 10.99
11/12/2021 12:30:00 PM 10.51 50.918 0.089 7.06 82.8 10.98
11/12/2021 12:45:00 PM 10.52 50.936 0.089 7.04 92.33 10.98
11/12/2021 1:00:00 PM 10.52 50.936 0.09 7.04 73.3 10.99
11/12/2021 1:15:00 PM 10.51 50.918 0.09 7.03 80.7 11
11/12/2021 1:30:00 PM 10.51 50.918 0.089 7.02 74.47 11
11/12/2021 1:45:00 PM 10.5 50.9 0.088 7.02 75.38 11
11/12/2021 2:00:00 PM 10.51 50.918 0.087 7 79.7 11.01
11/12/2021 2:15:00 PM 10.49 50.882 0.087 7 73.24 11.01
11/12/2021 2:30:00 PM 10.49 50.882 0.087 6.99 74.65 11
11/12/2021 2:45:00 PM 10.5 50.9 0.087 6.99 71.74 10.99
11/12/2021 3:00:00 PM 10.5 50.9 0.087 6.99 71.79 10.98
11/12/2021 3:15:00 PM 10.5 50.9 0.088 6.99 69.93 10.97
11/12/2021 3:30:00 PM 10.5 50.9 0.089 6.99 72.63 10.96
11/12/2021 3:45:00 PM 10.52 50.936 0.09 6.99 80.08 10.94
11/12/2021 4:00:00 PM 10.54 50.972 0.091 6.98 81.83 10.93
11/12/2021 4:15:00 PM 10.55 50.99 0.09 6.99 84.02 10.91
11/12/2021 4:30:00 PM 10.55 50.99 0.091 6.98 80.53 10.91
11/12/2021 4:45:00 PM 10.54 50.972 0.09 6.98 76.24 10.91
11/12/2021 5:00:00 PM 10.51 50.918 0.089 6.98 74.82 10.91
11/12/2021 5:15:00 PM 10.46 50.828 0.088 6.99 65.23 10.92
11/12/2021 5:30:00 PM 10.41 50.738 0.088 6.98 66.4 10.94
11/12/2021 5:45:00 PM 10.35 50.63 0.089 6.98 62.01 10.96
11/12/2021 6:00:00 PM 10.29 50.522 0.089 6.99 59.41 10.98
11/12/2021 6:15:00 PM 10.23 50.414 0.091 6.99 55.17 10.99
11/12/2021 6:30:00 PM 10.17 50.306 0.092 6.99 52.59 11
11/12/2021 6:45:00 PM 10.12 50.216 0.093 6.99 64 11.02
11/12/2021 7:00:00 PM 10.07 50.126 0.094 6.99 54.33 11.03
11/12/2021 7:15:00 PM 10.02 50.036 0.095 6.99 53.43 11.04
11/12/2021 7:30:00 PM 9.98 49.964 0.095 7 50.06 11.05
11/12/2021 7:45:00 PM 9.95 49.91 0.094 7 50.87 11.06
11/12/2021 8:00:00 PM 9.93 49.874 0.094 6.99 50.72 11.06
11/12/2021 8:15:00 PM 9.9 49.82 0.093 6.99 45.57 11.07
11/12/2021 8:30:00 PM 9.87 49.766 0.093 6.99 42.72 11.08
11/12/2021 8:45:00 PM 9.84 49.712 0.091 6.99 45.73 11.09
11/12/2021 9:00:00 PM 9.79 49.622 0.091 6.99 38.49 11.1
11/12/2021 9:15:00 PM 9.74 49.532 0.091 6.99 43.15 11.11
11/12/2021 9:30:00 PM 9.69 49.442 0.09 6.99 37.55 11.13
11/12/2021 9:45:00 PM 9.65 49.37 0.09 6.99 37.82 11.14
11/12/2021 10:00:00 PM 9.6 49.28 0.09 6.99 32.78 11.15
11/12/2021 10:15:00 PM 9.57 49.226 0.09 6.99 33.89 11.16
11/12/2021 10:30:00 PM 9.53 49.154 0.089 6.99 31.98 11.17
11/12/2021 10:45:00 PM 9.5 49.1 0.088 6.99 33.58 11.17
11/12/2021 11:00:00 PM 9.47 49.046 0.088 6.98 39.41 11.18
11/12/2021 11:15:00 PM 9.44 48.992 0.087 6.98 35.48 11.19
11/12/2021 11:30:00 PM 9.42 48.956 0.087 6.98 37.08 11.19
11/12/2021 11:45:00 PM 9.4 48.92 0.087 6.98 38.28 11.19
11/13/2021 12:00:00 AM 9.38 48.884 0.086 6.97 39.09 11.19
11/13/2021 12:15:00 AM 9.36 48.848 0.086 6.96 38.49 11.19
11/13/2021 12:30:00 AM 9.33 48.794 0.086 6.95 37.17 11.19
11/13/2021 12:45:00 AM 9.31 48.758 0.085 6.95 35.05 11.19
11/13/2021 1:00:00 AM 9.29 48.722 0.085 6.95 39.6 11.19
11/13/2021 1:15:00 AM 9.26 48.668 0.084 6.95 37.2 11.2
11/13/2021 1:30:00 AM 9.24 48.632 0.084 6.94 36.66 11.2
11/13/2021 1:45:00 AM 9.21 48.578 0.084 6.94 34.08 11.2
11/13/2021 2:00:00 AM 9.19 48.542 0.083 6.94 34.66 11.2
11/13/2021 2:15:00 AM 9.16 48.488 0.082 6.93 36.15 11.21
11/13/2021 2:30:00 AM 9.14 48.452 0.082 6.93 31.33 11.21
11/13/2021 2:45:00 AM 9.12 48.416 0.082 6.93 32.38 11.22
11/13/2021 3:00:00 AM 9.09 48.362 0.082 6.93 34.59 11.22
11/13/2021 3:15:00 AM 9.06 48.308 0.082 6.93 34.13 11.22
11/13/2021 3:30:00 AM 9.03 48.254 0.081 6.93 33.38 11.23
11/13/2021 3:45:00 AM 9 48.2 0.082 6.93 36.05 11.24
11/13/2021 4:00:00 AM 8.97 48.146 0.081 6.93 29.61 11.24
11/13/2021 4:15:00 AM 8.94 48.092 0.082 6.93 30.72 11.25
11/13/2021 4:30:00 AM 8.91 48.038 0.081 6.93 34.15 11.26
11/13/2021 4:45:00 AM 8.87 47.966 0.081 6.93 29.16 11.26
11/13/2021 5:00:00 AM 8.83 47.894 0.081 6.92 27.22 11.27
11/13/2021 5:15:00 AM 8.8 47.84 0.081 6.93 30.3 11.28
11/13/2021 5:30:00 AM 8.77 47.786 0.082 6.92 29.5 11.28
11/13/2021 5:45:00 AM 8.75 47.75 0.082 6.92 30.01 11.29
11/13/2021 6:00:00 AM 8.72 47.696 0.082 6.93 26.89 11.3
11/13/2021 6:15:00 AM 8.69 47.642 0.082 6.93 23.75 11.31
11/13/2021 6:30:00 AM 8.67 47.606 0.082 6.93 26.07 11.31
11/13/2021 6:45:00 AM 8.65 47.57 0.083 6.94 27.17 11.32
11/13/2021 7:00:00 AM 8.62 47.516 0.082 6.94 27.81 11.33
11/13/2021 7:15:00 AM 8.6 47.48 0.083 6.94 23.17 11.33
11/13/2021 7:30:00 AM 8.58 47.444 0.083 6.94 24.51 11.35
11/13/2021 7:45:00 AM 8.56 47.408 0.083 6.95 21.24 11.36
11/13/2021 8:00:00 AM 8.55 47.39 0.083 6.95 25.22 11.37
11/13/2021 8:15:00 AM 8.55 47.39 0.084 6.96 21.81 11.38
11/13/2021 8:30:00 AM 8.54 47.372 0.084 6.97 21.43 11.4
11/13/2021 8:45:00 AM 8.55 47.39 0.084 6.98 20.63 11.41
11/13/2021 9:00:00 AM 8.55 47.39 0.084 6.98 20.48 11.41
11/13/2021 9:15:00 AM 8.55 47.39 0.085 6.99 22.32 11.42
11/13/2021 9:30:00 AM 8.55 47.39 0.085 7 20.42 11.44
11/13/2021 9:45:00 AM 8.56 47.408 0.085 7.01 20.05 11.45
11/13/2021 10:00:00 AM 8.55 47.39 0.085 7.02 21.11 11.46
11/13/2021 10:15:00 AM 8.55 47.39 0.086 7.02 17.14 11.46
11/13/2021 10:30:00 AM 8.54 47.372 0.086 7.03 17.7 11.46
11/13/2021 10:45:00 AM 8.54 47.372 0.086 7.03 16.97 11.46
11/13/2021 11:00:00 AM 8.53 47.354 0.086 7.04 16.57 11.47
11/13/2021 11:15:00 AM 8.52 47.336 0.086 7.05 16.92 11.47
11/13/2021 11:30:00 AM 8.5 47.3 0.087 7.05 16.01 11.47
11/13/2021 11:45:00 AM 8.48 47.264 0.087 7.06 16.33 11.48
11/13/2021 12:00:00 PM 8.48 47.264 0.087 7.06 15.95 11.49
11/13/2021 12:15:00 PM 8.48 47.264 0.087 7.07 20.62 11.5
11/13/2021 12:30:00 PM 8.47 47.246 0.087 7.07 15.88 11.5
11/13/2021 12:45:00 PM 8.45 47.21 0.087 7.08 13.67 11.51
11/13/2021 1:00:00 PM 8.43 47.174 0.087 7.08 16.83 11.52
11/13/2021 1:15:00 PM 8.41 47.138 0.087 7.08 16.13 11.53
11/13/2021 1:30:00 PM 8.39 47.102 0.088 7.09 13.16 11.54
11/13/2021 1:45:00 PM 8.37 47.066 0.088 7.09 13.26 11.55
11/13/2021 2:00:00 PM 8.35 47.03 0.088 7.1 14.75 11.56
11/13/2021 2:15:00 PM 8.33 46.994 0.088 7.1 12.34 11.57
11/13/2021 2:30:00 PM 8.31 46.958 0.088 7.11 12.79 11.58
11/13/2021 2:45:00 PM 8.3 46.94 0.089 7.11 11.12 11.59
11/13/2021 3:00:00 PM 8.32 46.976 0.089 7.12 13.35 11.63
11/13/2021 3:15:00 PM 8.3 46.94 0.089 7.12 12.09 11.64
11/13/2021 3:30:00 PM 8.27 46.886 0.09 7.13 11.4 11.64
11/13/2021 3:45:00 PM 8.24 46.832 0.089 7.13 9.82 11.65
11/13/2021 4:00:00 PM 8.2 46.76 0.09 7.13 10.39 11.65
11/13/2021 4:15:00 PM 8.15 46.67 0.09 7.13 11.66 11.64
11/13/2021 4:30:00 PM 8.1 46.58 0.09 7.12 10.16 11.65
11/13/2021 4:45:00 PM 8.05 46.49 0.09 7.11 10.62 11.65
11/13/2021 5:00:00 PM 8.03 46.454 0.091 7.11 8.71 11.65
11/13/2021 5:15:00 PM 7.99 46.382 0.091 7.11 10.45 11.65
11/13/2021 5:30:00 PM 7.94 46.292 0.091 7.1 10.17 11.65
11/13/2021 5:45:00 PM 7.88 46.184 0.091 7.09 11.36 11.67
11/13/2021 6:00:00 PM 7.84 46.112 0.091 7.09 8.74 11.68
11/13/2021 6:15:00 PM 7.81 46.058 0.091 7.09 10.5 11.69
11/13/2021 6:30:00 PM 7.77 45.986 0.091 7.09 11.32 11.7
11/13/2021 6:45:00 PM 7.73 45.914 0.092 7.09 9.28 11.71
11/13/2021 7:00:00 PM 7.69 45.842 0.091 7.09 10.15 11.72
11/13/2021 7:15:00 PM 7.65 45.77 0.091 7.09 10.81 11.73
11/13/2021 7:30:00 PM 7.6 45.68 0.092 7.09 10.89 11.75
11/13/2021 7:45:00 PM 7.55 45.59 0.092 7.09 8.99 11.75
11/13/2021 8:00:00 PM 7.5 45.5 0.092 7.09 124.87 11.77
11/13/2021 8:15:00 PM 7.46 45.428 0.092 7.08 8.56 11.77
11/13/2021 8:30:00 PM 7.42 45.356 0.092 7.08 8.23 11.79
11/13/2021 8:45:00 PM 7.39 45.302 0.092 7.08 9.49 11.8
11/13/2021 9:00:00 PM 7.36 45.248 0.092 7.08 10.34 11.81
11/13/2021 9:15:00 PM 7.33 45.194 0.093 7.08 10.33 11.82
11/13/2021 9:30:00 PM 7.31 45.158 0.093 7.08 11.39 11.83
11/13/2021 9:45:00 PM 7.29 45.122 0.093 7.08 8.26 11.83
11/13/2021 10:00:00 PM 7.26 45.068 0.092 7.09 8.83 11.84
11/13/2021 10:15:00 PM 7.24 45.032 0.092 7.09 8.04 11.85
11/13/2021 10:30:00 PM 7.21 44.978 0.092 7.09 9.48 11.86
11/13/2021 10:45:00 PM 7.18 44.924 0.093 7.09 8.53 11.86
11/13/2021 11:00:00 PM 7.15 44.87 0.093 7.09 8.43 11.88
11/13/2021 11:15:00 PM 7.11 44.798 0.093 7.09 7.61 11.89
11/13/2021 11:30:00 PM 7.08 44.744 0.093 7.09 8.14 11.9
11/13/2021 11:45:00 PM 7.06 44.708 0.093 7.1 6.57 11.9
11/14/2021 12:00:00 AM 7.05 44.69 0.093 7.1 8.99 11.91
11/14/2021 12:15:00 AM 7.04 44.672 0.093 7.1 10.07 11.91
11/14/2021 12:30:00 AM 7.03 44.654 0.093 7.1 8.05 11.92
11/14/2021 12:45:00 AM 7.01 44.618 0.093 7.11 7.39 11.93
11/14/2021 1:00:00 AM 6.99 44.582 0.093 7.1 8.11 11.94
11/14/2021 1:15:00 AM 6.97 44.546 0.093 7.11 8.55 11.94
11/14/2021 1:30:00 AM 6.96 44.528 0.094 7.11 8.11 11.95
11/14/2021 1:45:00 AM 6.95 44.51 0.094 7.11 7.44 11.95
11/14/2021 2:00:00 AM 6.94 44.492 0.094 7.11 7.47 11.96
11/14/2021 2:15:00 AM 6.93 44.474 0.094 7.11 6.7 11.96
11/14/2021 2:30:00 AM 6.92 44.456 0.095 7.12 9.97 11.97
11/14/2021 2:45:00 AM 6.91 44.438 0.094 7.11 10.13 11.98
11/14/2021 3:00:00 AM 6.9 44.42 0.094 7.12 10.38 11.98
11/14/2021 3:15:00 AM 6.89 44.402 0.095 7.12 7.51 11.98
11/14/2021 3:30:00 AM 6.88 44.384 0.095 7.12 6.97 11.99
11/14/2021 3:45:00 AM 6.87 44.366 0.094 7.13 7.93 11.99
11/14/2021 4:00:00 AM 6.86 44.348 0.094 7.13 6.68 11.99
11/14/2021 4:15:00 AM 6.86 44.348 0.094 7.13 6.81 12
11/14/2021 4:30:00 AM 6.85 44.33 0.094 7.13 7.76 12
11/14/2021 4:45:00 AM 6.84 44.312 0.094 7.13 9.58 12
11/14/2021 5:00:00 AM 6.83 44.294 0.094 7.13 10.22 12.01
11/14/2021 5:15:00 AM 6.82 44.276 0.095 7.13 7.6 12.01
11/14/2021 5:30:00 AM 6.81 44.258 0.095 7.14 7.27 12.02
11/14/2021 5:45:00 AM 6.8 44.24 0.094 7.14 12.02 12.02
11/14/2021 6:00:00 AM 6.79 44.222 0.094 7.14 6.17 12.03
11/14/2021 6:15:00 AM 6.78 44.204 0.094 7.14 11.4 12.03
11/14/2021 6:30:00 AM 6.78 44.204 0.095 7.14 11.41 12.03
11/14/2021 6:45:00 AM 6.77 44.186 0.094 7.14 11.69 12.04
11/14/2021 7:00:00 AM 6.76 44.168 0.095 7.14 6.41 12.04
11/14/2021 7:15:00 AM 6.76 44.168 0.094 7.14 6 12.05
11/14/2021 7:30:00 AM 6.75 44.15 0.095 7.15 5.23 12.07
11/14/2021 7:45:00 AM 6.75 44.15 0.094 7.15 11.33 12.08
11/14/2021 8:00:00 AM 6.75 44.15 0.095 7.16 9.35 12.1
11/14/2021 8:15:00 AM 6.76 44.168 0.095 7.17 9.38 12.14
11/14/2021 8:30:00 AM 6.77 44.186 0.095 7.18 6.62 12.16
11/14/2021 8:45:00 AM 6.79 44.222 0.095 7.19 11.31 12.19
11/14/2021 9:00:00 AM 6.81 44.258 0.095 7.2 6.33 12.22
11/14/2021 9:15:00 AM 6.84 44.312 0.095 7.21 11.41 12.24
11/14/2021 9:30:00 AM 6.9 44.42 0.095 7.22 11.49 12.26
11/14/2021 9:45:00 AM 6.94 44.492 0.095 7.24 11.4 12.28
11/14/2021 10:00:00 AM 6.98 44.564 0.095 7.25 11.27 12.29
11/14/2021 10:15:00 AM 7.02 44.636 0.094 7.26 11.2 12.3
11/14/2021 10:30:00 AM 7.05 44.69 0.095 7.27 11.2 12.3
11/14/2021 10:45:00 AM 7.08 44.744 0.095 7.27 11.48 12.3
11/14/2021 11:00:00 AM 7.1 44.78 0.095 7.28 5.61 12.3
11/14/2021 11:15:00 AM 7.13 44.834 0.094 7.29 11.35 12.3
11/14/2021 11:30:00 AM 7.2 44.96 0.094 7.3 11 12.3
11/14/2021 11:45:00 AM 7.3 45.14 0.094 7.31 10.13 12.3
11/14/2021 12:00:00 PM 7.36 45.248 0.094 7.32 11.28 12.3
11/14/2021 12:15:00 PM 7.41 45.338 0.095 7.33 11.49 12.29
11/14/2021 12:30:00 PM 7.44 45.392 0.095 7.34 4.74 12.28
11/14/2021 12:45:00 PM 7.51 45.518 0.094 7.35 11.01 12.28
11/14/2021 1:00:00 PM 7.54 45.572 0.094 7.36 10.88 12.27
11/14/2021 1:15:00 PM 7.55 45.59 0.094 7.36 11.31 12.26
11/14/2021 1:30:00 PM 7.57 45.626 0.094 7.36 5.12 12.24
11/14/2021 1:45:00 PM 7.57 45.626 0.094 7.36 9.28 12.21
11/14/2021 2:00:00 PM 7.58 45.644 0.095 7.36 5.93 12.19
11/14/2021 2:15:00 PM 7.59 45.662 0.094 7.35 5.34 12.17
11/14/2021 2:30:00 PM 7.6 45.68 0.094 7.35 10.61 12.15
11/14/2021 2:45:00 PM 7.61 45.698 0.094 7.35 5.36 12.12
11/14/2021 3:00:00 PM 7.6 45.68 0.094 7.33 10.94 12.1
11/14/2021 3:15:00 PM 7.59 45.662 0.095 7.33 10.43 12.07
11/14/2021 3:30:00 PM 7.57 45.626 0.094 7.32 11.14 12.06
11/14/2021 3:45:00 PM 7.55 45.59 0.095 7.31 10.43 12.03
11/14/2021 4:00:00 PM 7.54 45.572 0.095 7.29 4.94 12
11/14/2021 4:15:00 PM 7.52 45.536 0.095 7.28 7.67 11.97
11/14/2021 4:30:00 PM 7.51 45.518 0.095 7.28 10.65 11.95
11/14/2021 4:45:00 PM 7.49 45.482 0.095 7.27 10.99 11.93
11/14/2021 5:00:00 PM 7.48 45.464 0.095 7.25 10.6 11.91
11/14/2021 5:15:00 PM 7.46 45.428 0.095 7.25 9.03 11.9
11/14/2021 5:30:00 PM 7.44 45.392 0.095 7.24 10.95 11.9
11/14/2021 5:45:00 PM 7.42 45.356 0.095 7.23 11.07 11.89
11/14/2021 6:00:00 PM 7.4 45.32 0.095 7.23 10.6 11.89
11/14/2021 6:15:00 PM 7.38 45.284 0.095 7.23 11.45 11.88
11/14/2021 6:30:00 PM 7.36 45.248 0.096 7.22 10.15 11.88
11/14/2021 6:45:00 PM 7.34 45.212 0.096 7.22 10.93 11.88
11/14/2021 7:00:00 PM 7.32 45.176 0.096 7.21 10.9 11.88
11/14/2021 7:15:00 PM 7.29 45.122 0.096 7.21 11.3 11.88
11/14/2021 7:30:00 PM 7.27 45.086 0.096 7.21 11.18 11.88
11/14/2021 7:45:00 PM 7.25 45.05 0.096 7.2 11.05 11.88
11/14/2021 8:00:00 PM 7.22 44.996 0.096 7.2 11.23 11.88
11/14/2021 8:15:00 PM 7.19 44.942 0.096 7.2 5.57 11.89
11/14/2021 8:30:00 PM 7.16 44.888 0.096 7.2 11.33 11.9
11/14/2021 8:45:00 PM 7.13 44.834 0.096 7.2 9.08 11.9
11/14/2021 9:00:00 PM 7.1 44.78 0.096 7.19 9.26 11.9
11/14/2021 9:15:00 PM 7.07 44.726 0.096 7.19 10.79 11.91
11/14/2021 9:30:00 PM 7.04 44.672 0.096 7.19 11 11.92
11/14/2021 9:45:00 PM 7 44.6 0.096 7.19 10.99 11.93
11/14/2021 10:00:00 PM 6.97 44.546 0.096 7.19 5.43 11.93
11/14/2021 10:15:00 PM 6.95 44.51 0.097 7.19 11.19 11.93
11/14/2021 10:30:00 PM 6.92 44.456 0.097 7.18 11.11 11.94
11/14/2021 10:45:00 PM 6.9 44.42 0.096 7.18 8.77 11.95
11/14/2021 11:00:00 PM 6.87 44.366 0.096 7.18 4.82 11.95
11/14/2021 11:15:00 PM 6.85 44.33 0.097 7.18 9.45 11.96
11/14/2021 11:30:00 PM 6.83 44.294 0.097 7.18 11.35 11.97
11/14/2021 11:45:00 PM 6.81 44.258 0.097 7.18 8.94 11.97
11/15/2021 12:00:00 AM 6.79 44.222 0.097 7.18 10.74 11.98
11/15/2021 12:15:00 AM 6.77 44.186 0.097 7.18 10.92 11.98
11/15/2021 12:30:00 AM 6.76 44.168 0.097 7.18 10.93 11.98
11/15/2021 12:45:00 AM 6.74 44.132 0.097 7.18 10.32 11.99
11/15/2021 1:00:00 AM 6.73 44.114 0.097 7.18 10.42 11.99
11/15/2021 1:15:00 AM 6.71 44.078 0.097 7.17 8.61 11.99
11/15/2021 1:30:00 AM 6.7 44.06 0.097 7.17 5.48 12
11/15/2021 1:45:00 AM 6.68 44.024 0.097 7.18 8.79 12
11/15/2021 2:00:00 AM 6.67 44.006 0.097 7.17 4.82 12
11/15/2021 2:15:00 AM 6.65 43.97 0.097 7.17 10.83 12.01
11/15/2021 2:30:00 AM 6.63 43.934 0.097 7.17 10.63 12.01
11/15/2021 2:45:00 AM 6.61 43.898 0.097 7.17 10.83 12.02
11/15/2021 3:00:00 AM 6.61 43.898 0.097 7.17 4.86 12.01
11/15/2021 3:15:00 AM 6.6 43.88 0.097 7.17 8.68 12.01
11/15/2021 3:30:00 AM 6.59 43.862 0.097 7.17 10.19 12.01
11/15/2021 3:45:00 AM 6.58 43.844 0.097 7.17 8.66 12.02
11/15/2021 4:00:00 AM 6.57 43.826 0.097 7.17 9.91 12.03
11/15/2021 4:15:00 AM 6.57 43.826 0.097 7.17 10.6 12.02
11/15/2021 4:30:00 AM 6.57 43.826 0.097 7.17 10.3 12.02
11/15/2021 4:45:00 AM 6.57 43.826 0.097 7.17 10.22 12.03
11/15/2021 5:00:00 AM 6.57 43.826 0.097 7.17 10.68 12.02
11/15/2021 5:15:00 AM 6.57 43.826 0.097 7.17 10.91 12.03
11/15/2021 5:30:00 AM 6.56 43.808 0.097 7.17 8.43 12.03
11/15/2021 5:45:00 AM 6.53 43.754 0.097 7.17 10.53 12.04
11/15/2021 6:00:00 AM 6.5 43.7 0.097 7.17 10.26 12.04
11/15/2021 6:15:00 AM 6.47 43.646 0.097 7.17 10.87 12.05
11/15/2021 6:30:00 AM 6.46 43.628 0.097 7.17 10.1 12.06
11/15/2021 6:45:00 AM 6.46 43.628 0.097 7.17 10.61 12.06
11/15/2021 7:00:00 AM 6.46 43.628 0.097 7.18 11.07 12.07
11/15/2021 7:15:00 AM 6.46 43.628 0.097 7.18 10.61 12.07
11/15/2021 7:30:00 AM 6.46 43.628 0.097 7.18 10.41 12.08
11/15/2021 7:45:00 AM 6.46 43.628 0.097 7.19 5.42 12.09
11/15/2021 8:00:00 AM 6.46 43.628 0.097 7.19 10.6 12.11
11/15/2021 8:15:00 AM 6.48 43.664 0.097 7.2 8.52 12.15
11/15/2021 8:30:00 AM 6.52 43.736 0.097 7.22 8.92 12.